<?xml version="1.0" encoding="UTF-8" standalone="no" ?>
<gpx xmlns="http://www.topografix.com/GPX/1/1" xmlns:xsi="http://www.w3.org/2001/XMLSchema-instance" xsi:schemaLocation="http://www.topografix.com/GPX/1/1 http://www.topografix.com/GPX/1/1/gpx.xsd" version="1.1" creator="VisuGPX - https://www.visugpx.com">
  <metadata>
    <name>2021-07-22 13:33:52</name>
  </metadata>
  <trk>
    <name><![CDATA[2021-07-22 13:33:52]]></name>
    <trkseg>
      <trkpt lat="44.82616" lon="4.68016">
        <ele>157.79</ele>
        <time>2021-07-22T05:53:10Z</time>
      </trkpt>
      <trkpt lat="44.82614" lon="4.68016">
        <ele>157.31</ele>
        <time>2021-07-22T05:53:29Z</time>
      </trkpt>
      <trkpt lat="44.82611" lon="4.68015">
        <ele>161.64</ele>
        <time>2021-07-22T05:53:56Z</time>
      </trkpt>
      <trkpt lat="44.82615" lon="4.68016">
        <ele>158.27</ele>
        <time>2021-07-22T05:54:25Z</time>
      </trkpt>
      <trkpt lat="44.82613" lon="4.68018">
        <ele>159.72</ele>
        <time>2021-07-22T05:54:55Z</time>
      </trkpt>
      <trkpt lat="44.82612" lon="4.68019">
        <ele>161.64</ele>
        <time>2021-07-22T05:55:27Z</time>
      </trkpt>
      <trkpt lat="44.82612" lon="4.68018">
        <ele>155.39</ele>
        <time>2021-07-22T05:56:05Z</time>
      </trkpt>
      <trkpt lat="44.82611" lon="4.68016">
        <ele>153.95</ele>
        <time>2021-07-22T05:56:42Z</time>
      </trkpt>
      <trkpt lat="44.82609" lon="4.68017">
        <ele>153.47</ele>
        <time>2021-07-22T05:57:11Z</time>
      </trkpt>
      <trkpt lat="44.82603" lon="4.68016">
        <ele>156.83</ele>
        <time>2021-07-22T05:57:41Z</time>
      </trkpt>
      <trkpt lat="44.82604" lon="4.68017">
        <ele>157.79</ele>
        <time>2021-07-22T05:58:15Z</time>
      </trkpt>
      <trkpt lat="44.82612" lon="4.68019">
        <ele>158.27</ele>
        <time>2021-07-22T05:58:33Z</time>
      </trkpt>
      <trkpt lat="44.82616" lon="4.68021">
        <ele>160.68</ele>
        <time>2021-07-22T05:58:45Z</time>
      </trkpt>
      <trkpt lat="44.82615" lon="4.68026">
        <ele>157.79</ele>
        <time>2021-07-22T05:59:03Z</time>
      </trkpt>
      <trkpt lat="44.82616" lon="4.68027">
        <ele>157.31</ele>
        <time>2021-07-22T05:59:05Z</time>
      </trkpt>
      <trkpt lat="44.82626" lon="4.68037">
        <ele>163.56</ele>
        <time>2021-07-22T05:59:25Z</time>
      </trkpt>
      <trkpt lat="44.82636" lon="4.68041">
        <ele>172.21</ele>
        <time>2021-07-22T05:59:37Z</time>
      </trkpt>
      <trkpt lat="44.82638" lon="4.68039">
        <ele>172.69</ele>
        <time>2021-07-22T05:59:41Z</time>
      </trkpt>
      <trkpt lat="44.82641" lon="4.68029">
        <ele>167.89</ele>
        <time>2021-07-22T05:59:55Z</time>
      </trkpt>
      <trkpt lat="44.82643" lon="4.68025">
        <ele>166.45</ele>
        <time>2021-07-22T05:59:59Z</time>
      </trkpt>
      <trkpt lat="44.82645" lon="4.67996">
        <ele>161.16</ele>
        <time>2021-07-22T06:00:14Z</time>
      </trkpt>
      <trkpt lat="44.82646" lon="4.67969">
        <ele>160.68</ele>
        <time>2021-07-22T06:00:30Z</time>
      </trkpt>
      <trkpt lat="44.82638" lon="4.67941">
        <ele>161.16</ele>
        <time>2021-07-22T06:00:49Z</time>
      </trkpt>
      <trkpt lat="44.82637" lon="4.67934">
        <ele>160.68</ele>
        <time>2021-07-22T06:01:01Z</time>
      </trkpt>
      <trkpt lat="44.82635" lon="4.67918">
        <ele>160.68</ele>
        <time>2021-07-22T06:01:12Z</time>
      </trkpt>
      <trkpt lat="44.82634" lon="4.67913">
        <ele>160.2</ele>
        <time>2021-07-22T06:01:15Z</time>
      </trkpt>
      <trkpt lat="44.82632" lon="4.67893">
        <ele>157.31</ele>
        <time>2021-07-22T06:01:30Z</time>
      </trkpt>
      <trkpt lat="44.82632" lon="4.67866">
        <ele>158.27</ele>
        <time>2021-07-22T06:01:47Z</time>
      </trkpt>
      <trkpt lat="44.8263" lon="4.67854">
        <ele>157.79</ele>
        <time>2021-07-22T06:01:54Z</time>
      </trkpt>
      <trkpt lat="44.8263" lon="4.67821">
        <ele>159.24</ele>
        <time>2021-07-22T06:02:13Z</time>
      </trkpt>
      <trkpt lat="44.82633" lon="4.67793">
        <ele>160.2</ele>
        <time>2021-07-22T06:02:30Z</time>
      </trkpt>
      <trkpt lat="44.82636" lon="4.6777">
        <ele>160.68</ele>
        <time>2021-07-22T06:02:44Z</time>
      </trkpt>
      <trkpt lat="44.82653" lon="4.67758">
        <ele>166.45</ele>
        <time>2021-07-22T06:03:02Z</time>
      </trkpt>
      <trkpt lat="44.82658" lon="4.67758">
        <ele>166.93</ele>
        <time>2021-07-22T06:03:06Z</time>
      </trkpt>
      <trkpt lat="44.82679" lon="4.67747">
        <ele>165.48</ele>
        <time>2021-07-22T06:03:24Z</time>
      </trkpt>
      <trkpt lat="44.82702" lon="4.67732">
        <ele>163.56</ele>
        <time>2021-07-22T06:03:43Z</time>
      </trkpt>
      <trkpt lat="44.82721" lon="4.6772">
        <ele>161.64</ele>
        <time>2021-07-22T06:04:01Z</time>
      </trkpt>
      <trkpt lat="44.82743" lon="4.67707">
        <ele>160.2</ele>
        <time>2021-07-22T06:04:20Z</time>
      </trkpt>
      <trkpt lat="44.82762" lon="4.67696">
        <ele>157.79</ele>
        <time>2021-07-22T06:04:37Z</time>
      </trkpt>
      <trkpt lat="44.82779" lon="4.67685">
        <ele>157.79</ele>
        <time>2021-07-22T06:04:51Z</time>
      </trkpt>
      <trkpt lat="44.82798" lon="4.67677">
        <ele>156.83</ele>
        <time>2021-07-22T06:05:08Z</time>
      </trkpt>
      <trkpt lat="44.82814" lon="4.67668">
        <ele>159.72</ele>
        <time>2021-07-22T06:05:22Z</time>
      </trkpt>
      <trkpt lat="44.82822" lon="4.67666">
        <ele>159.24</ele>
        <time>2021-07-22T06:05:29Z</time>
      </trkpt>
      <trkpt lat="44.82839" lon="4.67657">
        <ele>159.72</ele>
        <time>2021-07-22T06:05:44Z</time>
      </trkpt>
      <trkpt lat="44.82846" lon="4.67646">
        <ele>160.68</ele>
        <time>2021-07-22T06:05:54Z</time>
      </trkpt>
      <trkpt lat="44.82858" lon="4.67624">
        <ele>165.48</ele>
        <time>2021-07-22T06:06:09Z</time>
      </trkpt>
      <trkpt lat="44.82876" lon="4.67622">
        <ele>175.58</ele>
        <time>2021-07-22T06:06:26Z</time>
      </trkpt>
      <trkpt lat="44.8289" lon="4.67621">
        <ele>178.46</ele>
        <time>2021-07-22T06:06:37Z</time>
      </trkpt>
      <trkpt lat="44.82905" lon="4.67637">
        <ele>183.75</ele>
        <time>2021-07-22T06:06:52Z</time>
      </trkpt>
      <trkpt lat="44.82913" lon="4.67644">
        <ele>187.11</ele>
        <time>2021-07-22T06:07:02Z</time>
      </trkpt>
      <trkpt lat="44.82924" lon="4.67667">
        <ele>189.52</ele>
        <time>2021-07-22T06:07:17Z</time>
      </trkpt>
      <trkpt lat="44.82942" lon="4.6769">
        <ele>187.59</ele>
        <time>2021-07-22T06:07:33Z</time>
      </trkpt>
      <trkpt lat="44.82955" lon="4.67716">
        <ele>191.92</ele>
        <time>2021-07-22T06:07:48Z</time>
      </trkpt>
      <trkpt lat="44.82958" lon="4.67723">
        <ele>192.4</ele>
        <time>2021-07-22T06:07:52Z</time>
      </trkpt>
      <trkpt lat="44.82964" lon="4.67749">
        <ele>190.48</ele>
        <time>2021-07-22T06:08:07Z</time>
      </trkpt>
      <trkpt lat="44.82969" lon="4.67775">
        <ele>181.83</ele>
        <time>2021-07-22T06:08:21Z</time>
      </trkpt>
      <trkpt lat="44.82969" lon="4.67788">
        <ele>190.48</ele>
        <time>2021-07-22T06:08:31Z</time>
      </trkpt>
      <trkpt lat="44.82955" lon="4.67804">
        <ele>188.56</ele>
        <time>2021-07-22T06:08:40Z</time>
      </trkpt>
      <trkpt lat="44.82952" lon="4.67839">
        <ele>180.87</ele>
        <time>2021-07-22T06:08:57Z</time>
      </trkpt>
      <trkpt lat="44.82952" lon="4.67866">
        <ele>172.21</ele>
        <time>2021-07-22T06:09:13Z</time>
      </trkpt>
      <trkpt lat="44.82953" lon="4.67882">
        <ele>167.89</ele>
        <time>2021-07-22T06:09:21Z</time>
      </trkpt>
      <trkpt lat="44.82952" lon="4.67899">
        <ele>163.08</ele>
        <time>2021-07-22T06:09:34Z</time>
      </trkpt>
      <trkpt lat="44.82955" lon="4.67926">
        <ele>162.12</ele>
        <time>2021-07-22T06:09:50Z</time>
      </trkpt>
      <trkpt lat="44.82954" lon="4.67954">
        <ele>166.45</ele>
        <time>2021-07-22T06:10:07Z</time>
      </trkpt>
      <trkpt lat="44.82954" lon="4.67957">
        <ele>166.45</ele>
        <time>2021-07-22T06:10:09Z</time>
      </trkpt>
      <trkpt lat="44.82954" lon="4.67982">
        <ele>168.37</ele>
        <time>2021-07-22T06:10:24Z</time>
      </trkpt>
      <trkpt lat="44.82959" lon="4.68005">
        <ele>165.48</ele>
        <time>2021-07-22T06:10:34Z</time>
      </trkpt>
      <trkpt lat="44.82966" lon="4.68033">
        <ele>159.72</ele>
        <time>2021-07-22T06:10:50Z</time>
      </trkpt>
      <trkpt lat="44.82966" lon="4.68035">
        <ele>159.24</ele>
        <time>2021-07-22T06:10:51Z</time>
      </trkpt>
      <trkpt lat="44.82971" lon="4.68058">
        <ele>155.87</ele>
        <time>2021-07-22T06:11:07Z</time>
      </trkpt>
      <trkpt lat="44.82973" lon="4.68065">
        <ele>157.79</ele>
        <time>2021-07-22T06:11:20Z</time>
      </trkpt>
      <trkpt lat="44.82971" lon="4.68078">
        <ele>157.31</ele>
        <time>2021-07-22T06:11:35Z</time>
      </trkpt>
      <trkpt lat="44.82969" lon="4.68088">
        <ele>157.79</ele>
        <time>2021-07-22T06:11:50Z</time>
      </trkpt>
      <trkpt lat="44.82968" lon="4.681">
        <ele>160.2</ele>
        <time>2021-07-22T06:12:04Z</time>
      </trkpt>
      <trkpt lat="44.82975" lon="4.6813">
        <ele>165.48</ele>
        <time>2021-07-22T06:12:19Z</time>
      </trkpt>
      <trkpt lat="44.82973" lon="4.68148">
        <ele>169.81</ele>
        <time>2021-07-22T06:12:33Z</time>
      </trkpt>
      <trkpt lat="44.82973" lon="4.68172">
        <ele>170.77</ele>
        <time>2021-07-22T06:12:47Z</time>
      </trkpt>
      <trkpt lat="44.82984" lon="4.6819">
        <ele>171.25</ele>
        <time>2021-07-22T06:13:01Z</time>
      </trkpt>
      <trkpt lat="44.82995" lon="4.68209">
        <ele>171.73</ele>
        <time>2021-07-22T06:13:17Z</time>
      </trkpt>
      <trkpt lat="44.83" lon="4.6822">
        <ele>175.1</ele>
        <time>2021-07-22T06:13:34Z</time>
      </trkpt>
      <trkpt lat="44.83004" lon="4.68225">
        <ele>177.5</ele>
        <time>2021-07-22T06:13:49Z</time>
      </trkpt>
      <trkpt lat="44.83014" lon="4.68223">
        <ele>183.75</ele>
        <time>2021-07-22T06:14:07Z</time>
      </trkpt>
      <trkpt lat="44.83024" lon="4.68225">
        <ele>185.67</ele>
        <time>2021-07-22T06:14:24Z</time>
      </trkpt>
      <trkpt lat="44.8303" lon="4.6823">
        <ele>189.04</ele>
        <time>2021-07-22T06:14:40Z</time>
      </trkpt>
      <trkpt lat="44.83034" lon="4.68234">
        <ele>192.4</ele>
        <time>2021-07-22T06:14:54Z</time>
      </trkpt>
      <trkpt lat="44.83038" lon="4.68232">
        <ele>193.84</ele>
        <time>2021-07-22T06:15:11Z</time>
      </trkpt>
      <trkpt lat="44.83043" lon="4.68235">
        <ele>196.25</ele>
        <time>2021-07-22T06:15:27Z</time>
      </trkpt>
      <trkpt lat="44.83047" lon="4.68239">
        <ele>197.21</ele>
        <time>2021-07-22T06:15:39Z</time>
      </trkpt>
      <trkpt lat="44.8305" lon="4.68243">
        <ele>200.09</ele>
        <time>2021-07-22T06:15:52Z</time>
      </trkpt>
      <trkpt lat="44.83056" lon="4.68251">
        <ele>204.9</ele>
        <time>2021-07-22T06:16:07Z</time>
      </trkpt>
      <trkpt lat="44.83063" lon="4.68258">
        <ele>211.63</ele>
        <time>2021-07-22T06:16:23Z</time>
      </trkpt>
      <trkpt lat="44.83071" lon="4.68262">
        <ele>221.24</ele>
        <time>2021-07-22T06:16:41Z</time>
      </trkpt>
      <trkpt lat="44.83077" lon="4.68258">
        <ele>217.88</ele>
        <time>2021-07-22T06:16:58Z</time>
      </trkpt>
      <trkpt lat="44.83081" lon="4.68269">
        <ele>214.51</ele>
        <time>2021-07-22T06:17:12Z</time>
      </trkpt>
      <trkpt lat="44.83086" lon="4.68277">
        <ele>217.4</ele>
        <time>2021-07-22T06:17:27Z</time>
      </trkpt>
      <trkpt lat="44.83095" lon="4.68276">
        <ele>217.4</ele>
        <time>2021-07-22T06:17:43Z</time>
      </trkpt>
      <trkpt lat="44.83096" lon="4.68279">
        <ele>217.88</ele>
        <time>2021-07-22T06:17:58Z</time>
      </trkpt>
      <trkpt lat="44.831" lon="4.68283">
        <ele>217.88</ele>
        <time>2021-07-22T06:18:11Z</time>
      </trkpt>
      <trkpt lat="44.83104" lon="4.68282">
        <ele>219.32</ele>
        <time>2021-07-22T06:18:25Z</time>
      </trkpt>
      <trkpt lat="44.83106" lon="4.6829">
        <ele>221.24</ele>
        <time>2021-07-22T06:18:40Z</time>
      </trkpt>
      <trkpt lat="44.8311" lon="4.6829">
        <ele>224.12</ele>
        <time>2021-07-22T06:18:57Z</time>
      </trkpt>
      <trkpt lat="44.83115" lon="4.68289">
        <ele>228.45</ele>
        <time>2021-07-22T06:19:10Z</time>
      </trkpt>
      <trkpt lat="44.83117" lon="4.68291">
        <ele>230.85</ele>
        <time>2021-07-22T06:19:25Z</time>
      </trkpt>
      <trkpt lat="44.83121" lon="4.68296">
        <ele>234.22</ele>
        <time>2021-07-22T06:19:40Z</time>
      </trkpt>
      <trkpt lat="44.83127" lon="4.68304">
        <ele>236.62</ele>
        <time>2021-07-22T06:19:55Z</time>
      </trkpt>
      <trkpt lat="44.83129" lon="4.68309">
        <ele>234.7</ele>
        <time>2021-07-22T06:20:11Z</time>
      </trkpt>
      <trkpt lat="44.83133" lon="4.68318">
        <ele>233.74</ele>
        <time>2021-07-22T06:20:25Z</time>
      </trkpt>
      <trkpt lat="44.83135" lon="4.68325">
        <ele>235.66</ele>
        <time>2021-07-22T06:20:41Z</time>
      </trkpt>
      <trkpt lat="44.83131" lon="4.68324">
        <ele>239.51</ele>
        <time>2021-07-22T06:21:04Z</time>
      </trkpt>
      <trkpt lat="44.83137" lon="4.68335">
        <ele>240.95</ele>
        <time>2021-07-22T06:21:19Z</time>
      </trkpt>
      <trkpt lat="44.83146" lon="4.68335">
        <ele>247.68</ele>
        <time>2021-07-22T06:21:33Z</time>
      </trkpt>
      <trkpt lat="44.83154" lon="4.68327">
        <ele>253.93</ele>
        <time>2021-07-22T06:21:47Z</time>
      </trkpt>
      <trkpt lat="44.83167" lon="4.68326">
        <ele>259.69</ele>
        <time>2021-07-22T06:22:04Z</time>
      </trkpt>
      <trkpt lat="44.83174" lon="4.68332">
        <ele>264.5</ele>
        <time>2021-07-22T06:22:18Z</time>
      </trkpt>
      <trkpt lat="44.83179" lon="4.68343">
        <ele>267.86</ele>
        <time>2021-07-22T06:22:34Z</time>
      </trkpt>
      <trkpt lat="44.83186" lon="4.68358">
        <ele>271.23</ele>
        <time>2021-07-22T06:22:51Z</time>
      </trkpt>
      <trkpt lat="44.83195" lon="4.6837">
        <ele>273.63</ele>
        <time>2021-07-22T06:23:06Z</time>
      </trkpt>
      <trkpt lat="44.83201" lon="4.68382">
        <ele>277.96</ele>
        <time>2021-07-22T06:23:21Z</time>
      </trkpt>
      <trkpt lat="44.8321" lon="4.68391">
        <ele>280.36</ele>
        <time>2021-07-22T06:23:37Z</time>
      </trkpt>
      <trkpt lat="44.83217" lon="4.68398">
        <ele>284.69</ele>
        <time>2021-07-22T06:23:54Z</time>
      </trkpt>
      <trkpt lat="44.83223" lon="4.68411">
        <ele>285.65</ele>
        <time>2021-07-22T06:24:09Z</time>
      </trkpt>
      <trkpt lat="44.83229" lon="4.68426">
        <ele>284.69</ele>
        <time>2021-07-22T06:24:25Z</time>
      </trkpt>
      <trkpt lat="44.83233" lon="4.68436">
        <ele>286.13</ele>
        <time>2021-07-22T06:24:38Z</time>
      </trkpt>
      <trkpt lat="44.83242" lon="4.68447">
        <ele>291.42</ele>
        <time>2021-07-22T06:24:54Z</time>
      </trkpt>
      <trkpt lat="44.83245" lon="4.68453">
        <ele>293.82</ele>
        <time>2021-07-22T06:24:59Z</time>
      </trkpt>
      <trkpt lat="44.83256" lon="4.68467">
        <ele>296.7</ele>
        <time>2021-07-22T06:25:15Z</time>
      </trkpt>
      <trkpt lat="44.83266" lon="4.68477">
        <ele>301.03</ele>
        <time>2021-07-22T06:25:31Z</time>
      </trkpt>
      <trkpt lat="44.83272" lon="4.68492">
        <ele>301.51</ele>
        <time>2021-07-22T06:25:47Z</time>
      </trkpt>
      <trkpt lat="44.83272" lon="4.68498">
        <ele>301.99</ele>
        <time>2021-07-22T06:26:00Z</time>
      </trkpt>
      <trkpt lat="44.8327" lon="4.685">
        <ele>302.47</ele>
        <time>2021-07-22T06:26:16Z</time>
      </trkpt>
      <trkpt lat="44.83269" lon="4.68502">
        <ele>301.03</ele>
        <time>2021-07-22T06:26:30Z</time>
      </trkpt>
      <trkpt lat="44.8327" lon="4.68499">
        <ele>296.7</ele>
        <time>2021-07-22T06:26:45Z</time>
      </trkpt>
      <trkpt lat="44.83265" lon="4.68499">
        <ele>295.26</ele>
        <time>2021-07-22T06:27:03Z</time>
      </trkpt>
      <trkpt lat="44.83259" lon="4.68512">
        <ele>295.74</ele>
        <time>2021-07-22T06:27:17Z</time>
      </trkpt>
      <trkpt lat="44.83258" lon="4.68514">
        <ele>295.26</ele>
        <time>2021-07-22T06:27:19Z</time>
      </trkpt>
      <trkpt lat="44.8325" lon="4.68531">
        <ele>294.78</ele>
        <time>2021-07-22T06:27:34Z</time>
      </trkpt>
      <trkpt lat="44.83242" lon="4.68545">
        <ele>297.18</ele>
        <time>2021-07-22T06:27:47Z</time>
      </trkpt>
      <trkpt lat="44.8324" lon="4.68556">
        <ele>300.07</ele>
        <time>2021-07-22T06:28:02Z</time>
      </trkpt>
      <trkpt lat="44.83231" lon="4.68573">
        <ele>305.36</ele>
        <time>2021-07-22T06:28:18Z</time>
      </trkpt>
      <trkpt lat="44.83223" lon="4.68589">
        <ele>307.28</ele>
        <time>2021-07-22T06:28:34Z</time>
      </trkpt>
      <trkpt lat="44.83214" lon="4.68607">
        <ele>308.72</ele>
        <time>2021-07-22T06:28:48Z</time>
      </trkpt>
      <trkpt lat="44.83205" lon="4.68628">
        <ele>308.72</ele>
        <time>2021-07-22T06:29:03Z</time>
      </trkpt>
      <trkpt lat="44.83204" lon="4.68631">
        <ele>308.72</ele>
        <time>2021-07-22T06:29:05Z</time>
      </trkpt>
      <trkpt lat="44.83199" lon="4.68649">
        <ele>308.24</ele>
        <time>2021-07-22T06:29:16Z</time>
      </trkpt>
      <trkpt lat="44.83197" lon="4.68668">
        <ele>304.88</ele>
        <time>2021-07-22T06:29:30Z</time>
      </trkpt>
      <trkpt lat="44.83195" lon="4.68684">
        <ele>303.43</ele>
        <time>2021-07-22T06:29:41Z</time>
      </trkpt>
      <trkpt lat="44.83185" lon="4.68714">
        <ele>301.99</ele>
        <time>2021-07-22T06:30:01Z</time>
      </trkpt>
      <trkpt lat="44.83178" lon="4.68739">
        <ele>301.03</ele>
        <time>2021-07-22T06:30:18Z</time>
      </trkpt>
      <trkpt lat="44.83177" lon="4.68741">
        <ele>301.03</ele>
        <time>2021-07-22T06:30:20Z</time>
      </trkpt>
      <trkpt lat="44.83173" lon="4.68767">
        <ele>301.99</ele>
        <time>2021-07-22T06:30:37Z</time>
      </trkpt>
      <trkpt lat="44.83174" lon="4.68785">
        <ele>304.39</ele>
        <time>2021-07-22T06:30:49Z</time>
      </trkpt>
      <trkpt lat="44.83181" lon="4.68803">
        <ele>307.28</ele>
        <time>2021-07-22T06:31:03Z</time>
      </trkpt>
      <trkpt lat="44.83201" lon="4.6882">
        <ele>311.6</ele>
        <time>2021-07-22T06:31:23Z</time>
      </trkpt>
      <trkpt lat="44.83225" lon="4.68811">
        <ele>313.05</ele>
        <time>2021-07-22T06:31:44Z</time>
      </trkpt>
      <trkpt lat="44.83248" lon="4.68813">
        <ele>317.37</ele>
        <time>2021-07-22T06:32:02Z</time>
      </trkpt>
      <trkpt lat="44.83271" lon="4.68827">
        <ele>320.26</ele>
        <time>2021-07-22T06:32:20Z</time>
      </trkpt>
      <trkpt lat="44.83289" lon="4.68849">
        <ele>325.06</ele>
        <time>2021-07-22T06:32:38Z</time>
      </trkpt>
      <trkpt lat="44.83313" lon="4.68857">
        <ele>327.95</ele>
        <time>2021-07-22T06:32:58Z</time>
      </trkpt>
      <trkpt lat="44.83329" lon="4.68854">
        <ele>333.71</ele>
        <time>2021-07-22T06:33:13Z</time>
      </trkpt>
      <trkpt lat="44.83351" lon="4.68851">
        <ele>344.77</ele>
        <time>2021-07-22T06:33:32Z</time>
      </trkpt>
      <trkpt lat="44.83371" lon="4.68845">
        <ele>360.15</ele>
        <time>2021-07-22T06:33:51Z</time>
      </trkpt>
      <trkpt lat="44.83376" lon="4.68843">
        <ele>364.48</ele>
        <time>2021-07-22T06:33:56Z</time>
      </trkpt>
      <trkpt lat="44.83391" lon="4.68835">
        <ele>376.01</ele>
        <time>2021-07-22T06:34:11Z</time>
      </trkpt>
      <trkpt lat="44.83412" lon="4.68827">
        <ele>388.03</ele>
        <time>2021-07-22T06:34:29Z</time>
      </trkpt>
      <trkpt lat="44.83431" lon="4.68812">
        <ele>393.8</ele>
        <time>2021-07-22T06:34:47Z</time>
      </trkpt>
      <trkpt lat="44.83449" lon="4.68795">
        <ele>396.2</ele>
        <time>2021-07-22T06:35:03Z</time>
      </trkpt>
      <trkpt lat="44.83469" lon="4.68784">
        <ele>398.12</ele>
        <time>2021-07-22T06:35:20Z</time>
      </trkpt>
      <trkpt lat="44.83487" lon="4.68769">
        <ele>383.7</ele>
        <time>2021-07-22T06:35:35Z</time>
      </trkpt>
      <trkpt lat="44.83503" lon="4.68751">
        <ele>375.53</ele>
        <time>2021-07-22T06:35:51Z</time>
      </trkpt>
      <trkpt lat="44.83512" lon="4.68726">
        <ele>370.73</ele>
        <time>2021-07-22T06:36:06Z</time>
      </trkpt>
      <trkpt lat="44.83515" lon="4.68714">
        <ele>371.21</ele>
        <time>2021-07-22T06:36:12Z</time>
      </trkpt>
      <trkpt lat="44.83517" lon="4.68692">
        <ele>369.28</ele>
        <time>2021-07-22T06:36:20Z</time>
      </trkpt>
      <trkpt lat="44.83525" lon="4.68671">
        <ele>366.88</ele>
        <time>2021-07-22T06:36:30Z</time>
      </trkpt>
      <trkpt lat="44.83545" lon="4.68675">
        <ele>374.09</ele>
        <time>2021-07-22T06:36:47Z</time>
      </trkpt>
      <trkpt lat="44.83566" lon="4.68682">
        <ele>372.65</ele>
        <time>2021-07-22T06:37:03Z</time>
      </trkpt>
      <trkpt lat="44.83576" lon="4.68685">
        <ele>370.24</ele>
        <time>2021-07-22T06:37:12Z</time>
      </trkpt>
      <trkpt lat="44.83595" lon="4.68684">
        <ele>367.36</ele>
        <time>2021-07-22T06:37:27Z</time>
      </trkpt>
      <trkpt lat="44.83615" lon="4.68685">
        <ele>364.48</ele>
        <time>2021-07-22T06:37:43Z</time>
      </trkpt>
      <trkpt lat="44.83635" lon="4.68696">
        <ele>371.69</ele>
        <time>2021-07-22T06:38:00Z</time>
      </trkpt>
      <trkpt lat="44.83644" lon="4.68714">
        <ele>383.7</ele>
        <time>2021-07-22T06:38:17Z</time>
      </trkpt>
      <trkpt lat="44.83652" lon="4.68731">
        <ele>393.32</ele>
        <time>2021-07-22T06:38:31Z</time>
      </trkpt>
      <trkpt lat="44.83663" lon="4.68755">
        <ele>403.41</ele>
        <time>2021-07-22T06:38:47Z</time>
      </trkpt>
      <trkpt lat="44.83679" lon="4.68769">
        <ele>405.81</ele>
        <time>2021-07-22T06:39:03Z</time>
      </trkpt>
      <trkpt lat="44.83694" lon="4.68781">
        <ele>400.53</ele>
        <time>2021-07-22T06:39:19Z</time>
      </trkpt>
      <trkpt lat="44.83718" lon="4.68789">
        <ele>399.08</ele>
        <time>2021-07-22T06:39:36Z</time>
      </trkpt>
      <trkpt lat="44.83738" lon="4.68806">
        <ele>400.05</ele>
        <time>2021-07-22T06:39:53Z</time>
      </trkpt>
      <trkpt lat="44.83753" lon="4.68827">
        <ele>400.53</ele>
        <time>2021-07-22T06:40:10Z</time>
      </trkpt>
      <trkpt lat="44.83769" lon="4.68855">
        <ele>396.2</ele>
        <time>2021-07-22T06:40:30Z</time>
      </trkpt>
      <trkpt lat="44.83782" lon="4.68874">
        <ele>388.51</ele>
        <time>2021-07-22T06:40:47Z</time>
      </trkpt>
      <trkpt lat="44.83782" lon="4.68877">
        <ele>386.59</ele>
        <time>2021-07-22T06:40:49Z</time>
      </trkpt>
      <trkpt lat="44.8378" lon="4.68905">
        <ele>382.74</ele>
        <time>2021-07-22T06:41:05Z</time>
      </trkpt>
      <trkpt lat="44.83784" lon="4.68928">
        <ele>377.45</ele>
        <time>2021-07-22T06:41:16Z</time>
      </trkpt>
      <trkpt lat="44.83787" lon="4.68964">
        <ele>370.24</ele>
        <time>2021-07-22T06:41:36Z</time>
      </trkpt>
      <trkpt lat="44.83791" lon="4.68998">
        <ele>364.48</ele>
        <time>2021-07-22T06:41:55Z</time>
      </trkpt>
      <trkpt lat="44.83791" lon="4.69025">
        <ele>362.07</ele>
        <time>2021-07-22T06:42:10Z</time>
      </trkpt>
      <trkpt lat="44.83796" lon="4.69058">
        <ele>360.15</ele>
        <time>2021-07-22T06:42:28Z</time>
      </trkpt>
      <trkpt lat="44.83796" lon="4.69062">
        <ele>360.15</ele>
        <time>2021-07-22T06:42:32Z</time>
      </trkpt>
      <trkpt lat="44.83792" lon="4.69086">
        <ele>351.98</ele>
        <time>2021-07-22T06:42:49Z</time>
      </trkpt>
      <trkpt lat="44.83787" lon="4.69101">
        <ele>345.25</ele>
        <time>2021-07-22T06:43:04Z</time>
      </trkpt>
      <trkpt lat="44.83784" lon="4.69108">
        <ele>344.29</ele>
        <time>2021-07-22T06:43:18Z</time>
      </trkpt>
      <trkpt lat="44.83783" lon="4.69108">
        <ele>344.29</ele>
        <time>2021-07-22T06:43:19Z</time>
      </trkpt>
      <trkpt lat="44.83774" lon="4.69122">
        <ele>346.21</ele>
        <time>2021-07-22T06:43:32Z</time>
      </trkpt>
      <trkpt lat="44.83771" lon="4.69127">
        <ele>347.17</ele>
        <time>2021-07-22T06:43:36Z</time>
      </trkpt>
      <trkpt lat="44.83766" lon="4.69145">
        <ele>348.13</ele>
        <time>2021-07-22T06:43:46Z</time>
      </trkpt>
      <trkpt lat="44.83765" lon="4.69176">
        <ele>349.1</ele>
        <time>2021-07-22T06:44:02Z</time>
      </trkpt>
      <trkpt lat="44.83771" lon="4.69207">
        <ele>354.38</ele>
        <time>2021-07-22T06:44:18Z</time>
      </trkpt>
      <trkpt lat="44.83774" lon="4.69214">
        <ele>355.34</ele>
        <time>2021-07-22T06:44:23Z</time>
      </trkpt>
      <trkpt lat="44.83785" lon="4.69234">
        <ele>359.67</ele>
        <time>2021-07-22T06:44:39Z</time>
      </trkpt>
      <trkpt lat="44.83801" lon="4.69258">
        <ele>364.48</ele>
        <time>2021-07-22T06:44:57Z</time>
      </trkpt>
      <trkpt lat="44.83809" lon="4.69267">
        <ele>364</ele>
        <time>2021-07-22T06:45:12Z</time>
      </trkpt>
      <trkpt lat="44.83808" lon="4.69266">
        <ele>355.83</ele>
        <time>2021-07-22T06:45:25Z</time>
      </trkpt>
      <trkpt lat="44.83808" lon="4.69265">
        <ele>353.42</ele>
        <time>2021-07-22T06:45:29Z</time>
      </trkpt>
      <trkpt lat="44.83808" lon="4.69269">
        <ele>350.06</ele>
        <time>2021-07-22T06:45:38Z</time>
      </trkpt>
      <trkpt lat="44.83808" lon="4.69269">
        <ele>349.58</ele>
        <time>2021-07-22T06:45:39Z</time>
      </trkpt>
      <trkpt lat="44.83809" lon="4.69283">
        <ele>345.25</ele>
        <time>2021-07-22T06:45:51Z</time>
      </trkpt>
      <trkpt lat="44.83808" lon="4.69288">
        <ele>344.29</ele>
        <time>2021-07-22T06:45:56Z</time>
      </trkpt>
      <trkpt lat="44.83807" lon="4.69292">
        <ele>344.29</ele>
        <time>2021-07-22T06:45:59Z</time>
      </trkpt>
      <trkpt lat="44.83807" lon="4.69297">
        <ele>338.52</ele>
        <time>2021-07-22T06:46:14Z</time>
      </trkpt>
      <trkpt lat="44.83802" lon="4.6931">
        <ele>338.04</ele>
        <time>2021-07-22T06:46:26Z</time>
      </trkpt>
      <trkpt lat="44.83798" lon="4.69313">
        <ele>336.12</ele>
        <time>2021-07-22T06:46:37Z</time>
      </trkpt>
      <trkpt lat="44.83799" lon="4.69317">
        <ele>336.6</ele>
        <time>2021-07-22T06:46:42Z</time>
      </trkpt>
      <trkpt lat="44.83799" lon="4.69326">
        <ele>338.04</ele>
        <time>2021-07-22T06:46:48Z</time>
      </trkpt>
      <trkpt lat="44.83799" lon="4.69333">
        <ele>339.48</ele>
        <time>2021-07-22T06:47:02Z</time>
      </trkpt>
      <trkpt lat="44.838" lon="4.69335">
        <ele>341.41</ele>
        <time>2021-07-22T06:47:21Z</time>
      </trkpt>
      <trkpt lat="44.83801" lon="4.69333">
        <ele>340.92</ele>
        <time>2021-07-22T06:47:23Z</time>
      </trkpt>
      <trkpt lat="44.83807" lon="4.69335">
        <ele>340.44</ele>
        <time>2021-07-22T06:47:34Z</time>
      </trkpt>
      <trkpt lat="44.83806" lon="4.6935">
        <ele>340.44</ele>
        <time>2021-07-22T06:47:48Z</time>
      </trkpt>
      <trkpt lat="44.83809" lon="4.69362">
        <ele>341.89</ele>
        <time>2021-07-22T06:48:03Z</time>
      </trkpt>
      <trkpt lat="44.83816" lon="4.6937">
        <ele>344.29</ele>
        <time>2021-07-22T06:48:18Z</time>
      </trkpt>
      <trkpt lat="44.83826" lon="4.69377">
        <ele>349.58</ele>
        <time>2021-07-22T06:48:36Z</time>
      </trkpt>
      <trkpt lat="44.83835" lon="4.69386">
        <ele>354.86</ele>
        <time>2021-07-22T06:48:53Z</time>
      </trkpt>
      <trkpt lat="44.83837" lon="4.69396">
        <ele>356.79</ele>
        <time>2021-07-22T06:49:11Z</time>
      </trkpt>
      <trkpt lat="44.83839" lon="4.69404">
        <ele>363.52</ele>
        <time>2021-07-22T06:49:26Z</time>
      </trkpt>
      <trkpt lat="44.83842" lon="4.69416">
        <ele>370.73</ele>
        <time>2021-07-22T06:49:42Z</time>
      </trkpt>
      <trkpt lat="44.83848" lon="4.69429">
        <ele>380.34</ele>
        <time>2021-07-22T06:49:56Z</time>
      </trkpt>
      <trkpt lat="44.83855" lon="4.69441">
        <ele>379.38</ele>
        <time>2021-07-22T06:50:10Z</time>
      </trkpt>
      <trkpt lat="44.8386" lon="4.69451">
        <ele>385.63</ele>
        <time>2021-07-22T06:50:25Z</time>
      </trkpt>
      <trkpt lat="44.83863" lon="4.69459">
        <ele>390.43</ele>
        <time>2021-07-22T06:50:36Z</time>
      </trkpt>
      <trkpt lat="44.83868" lon="4.6947">
        <ele>393.8</ele>
        <time>2021-07-22T06:50:50Z</time>
      </trkpt>
      <trkpt lat="44.83875" lon="4.69489">
        <ele>388.99</ele>
        <time>2021-07-22T06:51:05Z</time>
      </trkpt>
      <trkpt lat="44.8388" lon="4.69506">
        <ele>384.66</ele>
        <time>2021-07-22T06:51:23Z</time>
      </trkpt>
      <trkpt lat="44.83883" lon="4.69518">
        <ele>372.65</ele>
        <time>2021-07-22T06:51:36Z</time>
      </trkpt>
      <trkpt lat="44.83888" lon="4.69534">
        <ele>365.44</ele>
        <time>2021-07-22T06:51:52Z</time>
      </trkpt>
      <trkpt lat="44.8389" lon="4.69552">
        <ele>366.88</ele>
        <time>2021-07-22T06:52:05Z</time>
      </trkpt>
      <trkpt lat="44.83891" lon="4.6957">
        <ele>366.4</ele>
        <time>2021-07-22T06:52:17Z</time>
      </trkpt>
      <trkpt lat="44.83886" lon="4.69585">
        <ele>365.44</ele>
        <time>2021-07-22T06:52:31Z</time>
      </trkpt>
      <trkpt lat="44.83886" lon="4.6959">
        <ele>357.75</ele>
        <time>2021-07-22T06:52:49Z</time>
      </trkpt>
      <trkpt lat="44.83879" lon="4.69597">
        <ele>336.12</ele>
        <time>2021-07-22T06:53:15Z</time>
      </trkpt>
      <trkpt lat="44.83881" lon="4.69599">
        <ele>328.43</ele>
        <time>2021-07-22T06:53:30Z</time>
      </trkpt>
      <trkpt lat="44.83878" lon="4.69606">
        <ele>318.81</ele>
        <time>2021-07-22T06:53:44Z</time>
      </trkpt>
      <trkpt lat="44.83876" lon="4.69615">
        <ele>308.24</ele>
        <time>2021-07-22T06:53:57Z</time>
      </trkpt>
      <trkpt lat="44.83871" lon="4.69625">
        <ele>305.84</ele>
        <time>2021-07-22T06:54:12Z</time>
      </trkpt>
      <trkpt lat="44.83864" lon="4.69632">
        <ele>293.82</ele>
        <time>2021-07-22T06:54:25Z</time>
      </trkpt>
      <trkpt lat="44.83858" lon="4.6964">
        <ele>283.25</ele>
        <time>2021-07-22T06:54:37Z</time>
      </trkpt>
      <trkpt lat="44.83856" lon="4.69647">
        <ele>280.84</ele>
        <time>2021-07-22T06:54:53Z</time>
      </trkpt>
      <trkpt lat="44.83855" lon="4.69657">
        <ele>282.28</ele>
        <time>2021-07-22T06:55:08Z</time>
      </trkpt>
      <trkpt lat="44.83852" lon="4.69669">
        <ele>279.88</ele>
        <time>2021-07-22T06:55:23Z</time>
      </trkpt>
      <trkpt lat="44.83849" lon="4.69672">
        <ele>274.59</ele>
        <time>2021-07-22T06:55:35Z</time>
      </trkpt>
      <trkpt lat="44.83848" lon="4.69671">
        <ele>265.94</ele>
        <time>2021-07-22T06:56:04Z</time>
      </trkpt>
      <trkpt lat="44.83847" lon="4.69671">
        <ele>263.06</ele>
        <time>2021-07-22T06:56:20Z</time>
      </trkpt>
      <trkpt lat="44.83847" lon="4.69678">
        <ele>260.65</ele>
        <time>2021-07-22T06:56:34Z</time>
      </trkpt>
      <trkpt lat="44.83844" lon="4.69686">
        <ele>259.69</ele>
        <time>2021-07-22T06:56:46Z</time>
      </trkpt>
      <trkpt lat="44.83841" lon="4.69699">
        <ele>259.21</ele>
        <time>2021-07-22T06:57:04Z</time>
      </trkpt>
      <trkpt lat="44.83839" lon="4.69706">
        <ele>257.29</ele>
        <time>2021-07-22T06:57:18Z</time>
      </trkpt>
      <trkpt lat="44.83837" lon="4.69713">
        <ele>256.33</ele>
        <time>2021-07-22T06:57:35Z</time>
      </trkpt>
      <trkpt lat="44.83836" lon="4.69717">
        <ele>255.37</ele>
        <time>2021-07-22T06:57:46Z</time>
      </trkpt>
      <trkpt lat="44.83832" lon="4.69729">
        <ele>251.52</ele>
        <time>2021-07-22T06:58:01Z</time>
      </trkpt>
      <trkpt lat="44.83825" lon="4.69737">
        <ele>251.04</ele>
        <time>2021-07-22T06:58:16Z</time>
      </trkpt>
      <trkpt lat="44.83824" lon="4.69745">
        <ele>252</ele>
        <time>2021-07-22T06:58:31Z</time>
      </trkpt>
      <trkpt lat="44.83827" lon="4.69754">
        <ele>253.44</ele>
        <time>2021-07-22T06:58:49Z</time>
      </trkpt>
      <trkpt lat="44.83833" lon="4.69761">
        <ele>251.52</ele>
        <time>2021-07-22T06:59:06Z</time>
      </trkpt>
      <trkpt lat="44.83835" lon="4.69767">
        <ele>250.08</ele>
        <time>2021-07-22T06:59:19Z</time>
      </trkpt>
      <trkpt lat="44.83836" lon="4.69773">
        <ele>245.27</ele>
        <time>2021-07-22T06:59:35Z</time>
      </trkpt>
      <trkpt lat="44.83836" lon="4.69783">
        <ele>241.43</ele>
        <time>2021-07-22T06:59:50Z</time>
      </trkpt>
      <trkpt lat="44.83837" lon="4.69792">
        <ele>240.95</ele>
        <time>2021-07-22T07:00:07Z</time>
      </trkpt>
      <trkpt lat="44.83837" lon="4.69795">
        <ele>239.02</ele>
        <time>2021-07-22T07:00:21Z</time>
      </trkpt>
      <trkpt lat="44.83837" lon="4.69799">
        <ele>238.06</ele>
        <time>2021-07-22T07:00:37Z</time>
      </trkpt>
      <trkpt lat="44.83837" lon="4.69809">
        <ele>239.02</ele>
        <time>2021-07-22T07:00:51Z</time>
      </trkpt>
      <trkpt lat="44.83836" lon="4.69816">
        <ele>234.7</ele>
        <time>2021-07-22T07:01:03Z</time>
      </trkpt>
      <trkpt lat="44.83833" lon="4.69825">
        <ele>229.41</ele>
        <time>2021-07-22T07:01:15Z</time>
      </trkpt>
      <trkpt lat="44.83832" lon="4.69841">
        <ele>228.93</ele>
        <time>2021-07-22T07:01:28Z</time>
      </trkpt>
      <trkpt lat="44.83828" lon="4.69856">
        <ele>228.45</ele>
        <time>2021-07-22T07:01:40Z</time>
      </trkpt>
      <trkpt lat="44.83818" lon="4.69871">
        <ele>228.45</ele>
        <time>2021-07-22T07:01:54Z</time>
      </trkpt>
      <trkpt lat="44.83814" lon="4.69889">
        <ele>228.45</ele>
        <time>2021-07-22T07:02:09Z</time>
      </trkpt>
      <trkpt lat="44.83805" lon="4.69909">
        <ele>233.26</ele>
        <time>2021-07-22T07:02:26Z</time>
      </trkpt>
      <trkpt lat="44.83801" lon="4.69929">
        <ele>227.97</ele>
        <time>2021-07-22T07:02:41Z</time>
      </trkpt>
      <trkpt lat="44.83795" lon="4.6994">
        <ele>223.16</ele>
        <time>2021-07-22T07:02:53Z</time>
      </trkpt>
      <trkpt lat="44.83788" lon="4.69943">
        <ele>221.72</ele>
        <time>2021-07-22T07:03:08Z</time>
      </trkpt>
      <trkpt lat="44.83789" lon="4.69945">
        <ele>222.68</ele>
        <time>2021-07-22T07:03:21Z</time>
      </trkpt>
      <trkpt lat="44.83789" lon="4.69945">
        <ele>224.61</ele>
        <time>2021-07-22T07:03:33Z</time>
      </trkpt>
      <trkpt lat="44.83787" lon="4.69945">
        <ele>224.12</ele>
        <time>2021-07-22T07:03:47Z</time>
      </trkpt>
      <trkpt lat="44.83785" lon="4.69943">
        <ele>224.61</ele>
        <time>2021-07-22T07:04:05Z</time>
      </trkpt>
      <trkpt lat="44.83782" lon="4.69947">
        <ele>224.61</ele>
        <time>2021-07-22T07:04:20Z</time>
      </trkpt>
      <trkpt lat="44.83777" lon="4.69957">
        <ele>225.57</ele>
        <time>2021-07-22T07:04:34Z</time>
      </trkpt>
      <trkpt lat="44.83774" lon="4.6996">
        <ele>222.68</ele>
        <time>2021-07-22T07:04:50Z</time>
      </trkpt>
      <trkpt lat="44.83773" lon="4.69967">
        <ele>217.4</ele>
        <time>2021-07-22T07:05:06Z</time>
      </trkpt>
      <trkpt lat="44.83772" lon="4.69989">
        <ele>214.51</ele>
        <time>2021-07-22T07:05:24Z</time>
      </trkpt>
      <trkpt lat="44.8377" lon="4.70004">
        <ele>212.59</ele>
        <time>2021-07-22T07:05:38Z</time>
      </trkpt>
      <trkpt lat="44.83773" lon="4.70014">
        <ele>212.59</ele>
        <time>2021-07-22T07:05:53Z</time>
      </trkpt>
      <trkpt lat="44.83772" lon="4.70013">
        <ele>207.78</ele>
        <time>2021-07-22T07:06:09Z</time>
      </trkpt>
      <trkpt lat="44.83771" lon="4.70012">
        <ele>206.82</ele>
        <time>2021-07-22T07:06:20Z</time>
      </trkpt>
      <trkpt lat="44.83771" lon="4.70011">
        <ele>204.9</ele>
        <time>2021-07-22T07:06:38Z</time>
      </trkpt>
      <trkpt lat="44.83768" lon="4.7001">
        <ele>202.49</ele>
        <time>2021-07-22T07:07:01Z</time>
      </trkpt>
      <trkpt lat="44.83771" lon="4.70013">
        <ele>197.69</ele>
        <time>2021-07-22T07:07:35Z</time>
      </trkpt>
      <trkpt lat="44.83772" lon="4.70018">
        <ele>195.77</ele>
        <time>2021-07-22T07:08:08Z</time>
      </trkpt>
      <trkpt lat="44.83771" lon="4.70013">
        <ele>199.13</ele>
        <time>2021-07-22T07:08:42Z</time>
      </trkpt>
      <trkpt lat="44.83771" lon="4.70009">
        <ele>199.61</ele>
        <time>2021-07-22T07:09:08Z</time>
      </trkpt>
      <trkpt lat="44.8377" lon="4.70011">
        <ele>196.25</ele>
        <time>2021-07-22T07:09:36Z</time>
      </trkpt>
      <trkpt lat="44.83771" lon="4.70011">
        <ele>194.8</ele>
        <time>2021-07-22T07:09:49Z</time>
      </trkpt>
      <trkpt lat="44.83772" lon="4.7001">
        <ele>197.69</ele>
        <time>2021-07-22T07:10:03Z</time>
      </trkpt>
      <trkpt lat="44.83771" lon="4.7001">
        <ele>198.17</ele>
        <time>2021-07-22T07:10:19Z</time>
      </trkpt>
      <trkpt lat="44.83769" lon="4.70013">
        <ele>198.65</ele>
        <time>2021-07-22T07:10:34Z</time>
      </trkpt>
      <trkpt lat="44.83761" lon="4.70015">
        <ele>199.13</ele>
        <time>2021-07-22T07:10:49Z</time>
      </trkpt>
      <trkpt lat="44.8376" lon="4.70017">
        <ele>199.13</ele>
        <time>2021-07-22T07:10:51Z</time>
      </trkpt>
      <trkpt lat="44.83747" lon="4.70028">
        <ele>196.73</ele>
        <time>2021-07-22T07:11:07Z</time>
      </trkpt>
      <trkpt lat="44.83727" lon="4.70039">
        <ele>196.73</ele>
        <time>2021-07-22T07:11:22Z</time>
      </trkpt>
      <trkpt lat="44.83702" lon="4.70049">
        <ele>197.21</ele>
        <time>2021-07-22T07:11:40Z</time>
      </trkpt>
      <trkpt lat="44.8368" lon="4.7006">
        <ele>196.73</ele>
        <time>2021-07-22T07:11:58Z</time>
      </trkpt>
      <trkpt lat="44.8367" lon="4.7007">
        <ele>195.28</ele>
        <time>2021-07-22T07:12:12Z</time>
      </trkpt>
      <trkpt lat="44.8366" lon="4.70086">
        <ele>198.17</ele>
        <time>2021-07-22T07:12:28Z</time>
      </trkpt>
      <trkpt lat="44.83647" lon="4.70103">
        <ele>199.61</ele>
        <time>2021-07-22T07:12:44Z</time>
      </trkpt>
      <trkpt lat="44.83645" lon="4.70111">
        <ele>201.05</ele>
        <time>2021-07-22T07:12:54Z</time>
      </trkpt>
      <trkpt lat="44.83648" lon="4.70115">
        <ele>201.53</ele>
        <time>2021-07-22T07:12:58Z</time>
      </trkpt>
      <trkpt lat="44.83654" lon="4.70126">
        <ele>202.98</ele>
        <time>2021-07-22T07:13:12Z</time>
      </trkpt>
      <trkpt lat="44.83662" lon="4.70124">
        <ele>203.94</ele>
        <time>2021-07-22T07:13:24Z</time>
      </trkpt>
      <trkpt lat="44.83678" lon="4.70123">
        <ele>198.65</ele>
        <time>2021-07-22T07:13:40Z</time>
      </trkpt>
      <trkpt lat="44.83695" lon="4.70129">
        <ele>205.86</ele>
        <time>2021-07-22T07:13:57Z</time>
      </trkpt>
      <trkpt lat="44.83707" lon="4.70137">
        <ele>214.03</ele>
        <time>2021-07-22T07:14:13Z</time>
      </trkpt>
      <trkpt lat="44.8371" lon="4.70137">
        <ele>214.99</ele>
        <time>2021-07-22T07:14:17Z</time>
      </trkpt>
      <trkpt lat="44.83717" lon="4.70136">
        <ele>217.88</ele>
        <time>2021-07-22T07:14:24Z</time>
      </trkpt>
      <trkpt lat="44.83722" lon="4.70137">
        <ele>219.8</ele>
        <time>2021-07-22T07:14:28Z</time>
      </trkpt>
      <trkpt lat="44.83737" lon="4.70135">
        <ele>222.68</ele>
        <time>2021-07-22T07:14:44Z</time>
      </trkpt>
      <trkpt lat="44.83738" lon="4.70125">
        <ele>217.88</ele>
        <time>2021-07-22T07:14:56Z</time>
      </trkpt>
      <trkpt lat="44.83744" lon="4.70114">
        <ele>214.99</ele>
        <time>2021-07-22T07:15:07Z</time>
      </trkpt>
      <trkpt lat="44.8375" lon="4.70108">
        <ele>214.51</ele>
        <time>2021-07-22T07:15:13Z</time>
      </trkpt>
      <trkpt lat="44.83766" lon="4.70089">
        <ele>213.07</ele>
        <time>2021-07-22T07:15:30Z</time>
      </trkpt>
      <trkpt lat="44.83773" lon="4.70085">
        <ele>212.59</ele>
        <time>2021-07-22T07:15:44Z</time>
      </trkpt>
      <trkpt lat="44.83782" lon="4.70082">
        <ele>212.11</ele>
        <time>2021-07-22T07:15:56Z</time>
      </trkpt>
      <trkpt lat="44.83787" lon="4.70082">
        <ele>212.11</ele>
        <time>2021-07-22T07:16:02Z</time>
      </trkpt>
      <trkpt lat="44.83792" lon="4.70081">
        <ele>212.11</ele>
        <time>2021-07-22T07:16:07Z</time>
      </trkpt>
      <trkpt lat="44.83813" lon="4.70078">
        <ele>213.07</ele>
        <time>2021-07-22T07:16:24Z</time>
      </trkpt>
      <trkpt lat="44.83814" lon="4.70078">
        <ele>213.07</ele>
        <time>2021-07-22T07:16:25Z</time>
      </trkpt>
      <trkpt lat="44.83825" lon="4.70077">
        <ele>213.07</ele>
        <time>2021-07-22T07:16:33Z</time>
      </trkpt>
      <trkpt lat="44.83847" lon="4.70086">
        <ele>214.51</ele>
        <time>2021-07-22T07:16:50Z</time>
      </trkpt>
      <trkpt lat="44.83864" lon="4.70093">
        <ele>220.76</ele>
        <time>2021-07-22T07:17:06Z</time>
      </trkpt>
      <trkpt lat="44.83881" lon="4.701">
        <ele>229.41</ele>
        <time>2021-07-22T07:17:21Z</time>
      </trkpt>
      <trkpt lat="44.8389" lon="4.70106">
        <ele>232.78</ele>
        <time>2021-07-22T07:17:30Z</time>
      </trkpt>
      <trkpt lat="44.83906" lon="4.70115">
        <ele>228.93</ele>
        <time>2021-07-22T07:17:45Z</time>
      </trkpt>
      <trkpt lat="44.83914" lon="4.70125">
        <ele>230.85</ele>
        <time>2021-07-22T07:17:55Z</time>
      </trkpt>
      <trkpt lat="44.83929" lon="4.70145">
        <ele>237.58</ele>
        <time>2021-07-22T07:18:14Z</time>
      </trkpt>
      <trkpt lat="44.8394" lon="4.70158">
        <ele>249.6</ele>
        <time>2021-07-22T07:18:31Z</time>
      </trkpt>
      <trkpt lat="44.83952" lon="4.70175">
        <ele>254.41</ele>
        <time>2021-07-22T07:18:48Z</time>
      </trkpt>
      <trkpt lat="44.83969" lon="4.70198">
        <ele>245.75</ele>
        <time>2021-07-22T07:19:04Z</time>
      </trkpt>
      <trkpt lat="44.83979" lon="4.70216">
        <ele>244.31</ele>
        <time>2021-07-22T07:19:16Z</time>
      </trkpt>
      <trkpt lat="44.83995" lon="4.7024">
        <ele>238.06</ele>
        <time>2021-07-22T07:19:31Z</time>
      </trkpt>
      <trkpt lat="44.84" lon="4.70246">
        <ele>237.58</ele>
        <time>2021-07-22T07:19:36Z</time>
      </trkpt>
      <trkpt lat="44.84015" lon="4.70263">
        <ele>236.62</ele>
        <time>2021-07-22T07:19:51Z</time>
      </trkpt>
      <trkpt lat="44.84022" lon="4.70268">
        <ele>236.14</ele>
        <time>2021-07-22T07:19:58Z</time>
      </trkpt>
      <trkpt lat="44.84027" lon="4.70271">
        <ele>235.66</ele>
        <time>2021-07-22T07:20:02Z</time>
      </trkpt>
      <trkpt lat="44.84047" lon="4.70286">
        <ele>233.26</ele>
        <time>2021-07-22T07:20:19Z</time>
      </trkpt>
      <trkpt lat="44.84055" lon="4.70291">
        <ele>233.26</ele>
        <time>2021-07-22T07:20:27Z</time>
      </trkpt>
      <trkpt lat="44.84076" lon="4.70294">
        <ele>231.81</ele>
        <time>2021-07-22T07:20:43Z</time>
      </trkpt>
      <trkpt lat="44.84093" lon="4.70289">
        <ele>231.81</ele>
        <time>2021-07-22T07:20:59Z</time>
      </trkpt>
      <trkpt lat="44.84109" lon="4.70286">
        <ele>230.85</ele>
        <time>2021-07-22T07:21:12Z</time>
      </trkpt>
      <trkpt lat="44.84113" lon="4.70285">
        <ele>230.85</ele>
        <time>2021-07-22T07:21:17Z</time>
      </trkpt>
      <trkpt lat="44.84126" lon="4.70285">
        <ele>232.3</ele>
        <time>2021-07-22T07:21:29Z</time>
      </trkpt>
      <trkpt lat="44.84143" lon="4.70282">
        <ele>236.62</ele>
        <time>2021-07-22T07:21:45Z</time>
      </trkpt>
      <trkpt lat="44.84159" lon="4.70275">
        <ele>241.91</ele>
        <time>2021-07-22T07:21:59Z</time>
      </trkpt>
      <trkpt lat="44.8416" lon="4.70275">
        <ele>241.91</ele>
        <time>2021-07-22T07:22:00Z</time>
      </trkpt>
      <trkpt lat="44.84174" lon="4.70275">
        <ele>244.79</ele>
        <time>2021-07-22T07:22:12Z</time>
      </trkpt>
      <trkpt lat="44.84193" lon="4.70274">
        <ele>252.96</ele>
        <time>2021-07-22T07:22:30Z</time>
      </trkpt>
      <trkpt lat="44.84197" lon="4.70274">
        <ele>254.89</ele>
        <time>2021-07-22T07:22:34Z</time>
      </trkpt>
      <trkpt lat="44.84217" lon="4.70273">
        <ele>259.21</ele>
        <time>2021-07-22T07:22:51Z</time>
      </trkpt>
      <trkpt lat="44.84222" lon="4.70273">
        <ele>260.65</ele>
        <time>2021-07-22T07:22:55Z</time>
      </trkpt>
      <trkpt lat="44.84238" lon="4.70278">
        <ele>259.69</ele>
        <time>2021-07-22T07:23:09Z</time>
      </trkpt>
      <trkpt lat="44.84258" lon="4.70291">
        <ele>257.29</ele>
        <time>2021-07-22T07:23:27Z</time>
      </trkpt>
      <trkpt lat="44.84266" lon="4.70296">
        <ele>256.81</ele>
        <time>2021-07-22T07:23:34Z</time>
      </trkpt>
      <trkpt lat="44.84283" lon="4.70294">
        <ele>256.33</ele>
        <time>2021-07-22T07:23:50Z</time>
      </trkpt>
      <trkpt lat="44.84299" lon="4.70292">
        <ele>255.85</ele>
        <time>2021-07-22T07:24:06Z</time>
      </trkpt>
      <trkpt lat="44.843" lon="4.70293">
        <ele>255.85</ele>
        <time>2021-07-22T07:24:07Z</time>
      </trkpt>
      <trkpt lat="44.84313" lon="4.70314">
        <ele>254.41</ele>
        <time>2021-07-22T07:24:25Z</time>
      </trkpt>
      <trkpt lat="44.84314" lon="4.70318">
        <ele>253.93</ele>
        <time>2021-07-22T07:24:28Z</time>
      </trkpt>
      <trkpt lat="44.84323" lon="4.70342">
        <ele>251.52</ele>
        <time>2021-07-22T07:24:44Z</time>
      </trkpt>
      <trkpt lat="44.84331" lon="4.70362">
        <ele>251.04</ele>
        <time>2021-07-22T07:24:59Z</time>
      </trkpt>
      <trkpt lat="44.84338" lon="4.70377">
        <ele>251.04</ele>
        <time>2021-07-22T07:25:10Z</time>
      </trkpt>
      <trkpt lat="44.84351" lon="4.70394">
        <ele>254.89</ele>
        <time>2021-07-22T07:25:27Z</time>
      </trkpt>
      <trkpt lat="44.84354" lon="4.70395">
        <ele>256.81</ele>
        <time>2021-07-22T07:25:31Z</time>
      </trkpt>
      <trkpt lat="44.84358" lon="4.70396">
        <ele>258.25</ele>
        <time>2021-07-22T07:25:34Z</time>
      </trkpt>
      <trkpt lat="44.84366" lon="4.70396">
        <ele>260.17</ele>
        <time>2021-07-22T07:25:41Z</time>
      </trkpt>
      <trkpt lat="44.84377" lon="4.70382">
        <ele>264.5</ele>
        <time>2021-07-22T07:25:58Z</time>
      </trkpt>
      <trkpt lat="44.84384" lon="4.70371">
        <ele>267.86</ele>
        <time>2021-07-22T07:26:08Z</time>
      </trkpt>
      <trkpt lat="44.84396" lon="4.70363">
        <ele>270.75</ele>
        <time>2021-07-22T07:26:19Z</time>
      </trkpt>
      <trkpt lat="44.84415" lon="4.70362">
        <ele>272.19</ele>
        <time>2021-07-22T07:26:35Z</time>
      </trkpt>
      <trkpt lat="44.84425" lon="4.70368">
        <ele>269.31</ele>
        <time>2021-07-22T07:26:47Z</time>
      </trkpt>
      <trkpt lat="44.84436" lon="4.7036">
        <ele>268.83</ele>
        <time>2021-07-22T07:27:02Z</time>
      </trkpt>
      <trkpt lat="44.84446" lon="4.70347">
        <ele>272.19</ele>
        <time>2021-07-22T07:27:14Z</time>
      </trkpt>
      <trkpt lat="44.84462" lon="4.70331">
        <ele>279.4</ele>
        <time>2021-07-22T07:27:30Z</time>
      </trkpt>
      <trkpt lat="44.84477" lon="4.70316">
        <ele>288.53</ele>
        <time>2021-07-22T07:27:47Z</time>
      </trkpt>
      <trkpt lat="44.84483" lon="4.70312">
        <ele>290.94</ele>
        <time>2021-07-22T07:27:53Z</time>
      </trkpt>
      <trkpt lat="44.84496" lon="4.70295">
        <ele>299.11</ele>
        <time>2021-07-22T07:28:09Z</time>
      </trkpt>
      <trkpt lat="44.84508" lon="4.70281">
        <ele>301.51</ele>
        <time>2021-07-22T07:28:23Z</time>
      </trkpt>
      <trkpt lat="44.84524" lon="4.70272">
        <ele>295.26</ele>
        <time>2021-07-22T07:28:38Z</time>
      </trkpt>
      <trkpt lat="44.8454" lon="4.70262">
        <ele>285.65</ele>
        <time>2021-07-22T07:28:55Z</time>
      </trkpt>
      <trkpt lat="44.84546" lon="4.70257">
        <ele>280.36</ele>
        <time>2021-07-22T07:29:09Z</time>
      </trkpt>
      <trkpt lat="44.84545" lon="4.70258">
        <ele>276.04</ele>
        <time>2021-07-22T07:29:25Z</time>
      </trkpt>
      <trkpt lat="44.84547" lon="4.70258">
        <ele>271.71</ele>
        <time>2021-07-22T07:29:50Z</time>
      </trkpt>
      <trkpt lat="44.8455" lon="4.70262">
        <ele>269.79</ele>
        <time>2021-07-22T07:30:12Z</time>
      </trkpt>
      <trkpt lat="44.84552" lon="4.70265">
        <ele>268.83</ele>
        <time>2021-07-22T07:30:35Z</time>
      </trkpt>
      <trkpt lat="44.84546" lon="4.70264">
        <ele>265.94</ele>
        <time>2021-07-22T07:30:40Z</time>
      </trkpt>
      <trkpt lat="44.84549" lon="4.7025">
        <ele>260.65</ele>
        <time>2021-07-22T07:30:54Z</time>
      </trkpt>
      <trkpt lat="44.84558" lon="4.70233">
        <ele>260.65</ele>
        <time>2021-07-22T07:31:10Z</time>
      </trkpt>
      <trkpt lat="44.84563" lon="4.70223">
        <ele>260.65</ele>
        <time>2021-07-22T07:31:21Z</time>
      </trkpt>
      <trkpt lat="44.84571" lon="4.70202">
        <ele>259.69</ele>
        <time>2021-07-22T07:31:37Z</time>
      </trkpt>
      <trkpt lat="44.8458" lon="4.70189">
        <ele>259.21</ele>
        <time>2021-07-22T07:31:52Z</time>
      </trkpt>
      <trkpt lat="44.84587" lon="4.70175">
        <ele>260.17</ele>
        <time>2021-07-22T07:32:05Z</time>
      </trkpt>
      <trkpt lat="44.84593" lon="4.70163">
        <ele>261.14</ele>
        <time>2021-07-22T07:32:15Z</time>
      </trkpt>
      <trkpt lat="44.84599" lon="4.70151">
        <ele>261.14</ele>
        <time>2021-07-22T07:32:26Z</time>
      </trkpt>
      <trkpt lat="44.84608" lon="4.70139">
        <ele>261.14</ele>
        <time>2021-07-22T07:32:39Z</time>
      </trkpt>
      <trkpt lat="44.84615" lon="4.70119">
        <ele>260.65</ele>
        <time>2021-07-22T07:32:53Z</time>
      </trkpt>
      <trkpt lat="44.84618" lon="4.70093">
        <ele>258.73</ele>
        <time>2021-07-22T07:33:09Z</time>
      </trkpt>
      <trkpt lat="44.84617" lon="4.70074">
        <ele>256.81</ele>
        <time>2021-07-22T07:33:23Z</time>
      </trkpt>
      <trkpt lat="44.84619" lon="4.70071">
        <ele>256.33</ele>
        <time>2021-07-22T07:33:28Z</time>
      </trkpt>
      <trkpt lat="44.8463" lon="4.70062">
        <ele>259.69</ele>
        <time>2021-07-22T07:33:42Z</time>
      </trkpt>
      <trkpt lat="44.8464" lon="4.70064">
        <ele>252</ele>
        <time>2021-07-22T07:33:54Z</time>
      </trkpt>
      <trkpt lat="44.84641" lon="4.70057">
        <ele>247.2</ele>
        <time>2021-07-22T07:34:10Z</time>
      </trkpt>
      <trkpt lat="44.84641" lon="4.70056">
        <ele>244.31</ele>
        <time>2021-07-22T07:34:27Z</time>
      </trkpt>
      <trkpt lat="44.84641" lon="4.70043">
        <ele>241.43</ele>
        <time>2021-07-22T07:34:44Z</time>
      </trkpt>
      <trkpt lat="44.84641" lon="4.70035">
        <ele>239.51</ele>
        <time>2021-07-22T07:35:01Z</time>
      </trkpt>
      <trkpt lat="44.84637" lon="4.70038">
        <ele>239.99</ele>
        <time>2021-07-22T07:35:15Z</time>
      </trkpt>
      <trkpt lat="44.84634" lon="4.70046">
        <ele>247.2</ele>
        <time>2021-07-22T07:35:49Z</time>
      </trkpt>
      <trkpt lat="44.84634" lon="4.70033">
        <ele>244.31</ele>
        <time>2021-07-22T07:36:08Z</time>
      </trkpt>
      <trkpt lat="44.84636" lon="4.70024">
        <ele>246.23</ele>
        <time>2021-07-22T07:36:23Z</time>
      </trkpt>
      <trkpt lat="44.84638" lon="4.70013">
        <ele>250.08</ele>
        <time>2021-07-22T07:36:38Z</time>
      </trkpt>
      <trkpt lat="44.84646" lon="4.70006">
        <ele>255.85</ele>
        <time>2021-07-22T07:36:54Z</time>
      </trkpt>
      <trkpt lat="44.8465" lon="4.70002">
        <ele>259.69</ele>
        <time>2021-07-22T07:37:11Z</time>
      </trkpt>
      <trkpt lat="44.84658" lon="4.69997">
        <ele>261.62</ele>
        <time>2021-07-22T07:37:27Z</time>
      </trkpt>
      <trkpt lat="44.84662" lon="4.70001">
        <ele>261.62</ele>
        <time>2021-07-22T07:37:40Z</time>
      </trkpt>
      <trkpt lat="44.84667" lon="4.7001">
        <ele>264.5</ele>
        <time>2021-07-22T07:37:57Z</time>
      </trkpt>
      <trkpt lat="44.84669" lon="4.70013">
        <ele>267.38</ele>
        <time>2021-07-22T07:38:11Z</time>
      </trkpt>
      <trkpt lat="44.84676" lon="4.70008">
        <ele>266.42</ele>
        <time>2021-07-22T07:38:28Z</time>
      </trkpt>
      <trkpt lat="44.84681" lon="4.7">
        <ele>271.23</ele>
        <time>2021-07-22T07:38:45Z</time>
      </trkpt>
      <trkpt lat="44.84687" lon="4.70002">
        <ele>277.96</ele>
        <time>2021-07-22T07:39:01Z</time>
      </trkpt>
      <trkpt lat="44.84691" lon="4.70003">
        <ele>281.8</ele>
        <time>2021-07-22T07:39:15Z</time>
      </trkpt>
      <trkpt lat="44.84694" lon="4.70011">
        <ele>286.61</ele>
        <time>2021-07-22T07:39:30Z</time>
      </trkpt>
      <trkpt lat="44.847" lon="4.7001">
        <ele>289.97</ele>
        <time>2021-07-22T07:39:47Z</time>
      </trkpt>
      <trkpt lat="44.84708" lon="4.70001">
        <ele>293.82</ele>
        <time>2021-07-22T07:40:04Z</time>
      </trkpt>
      <trkpt lat="44.84712" lon="4.69996">
        <ele>296.7</ele>
        <time>2021-07-22T07:40:19Z</time>
      </trkpt>
      <trkpt lat="44.84714" lon="4.69987">
        <ele>297.18</ele>
        <time>2021-07-22T07:40:32Z</time>
      </trkpt>
      <trkpt lat="44.84719" lon="4.69978">
        <ele>296.22</ele>
        <time>2021-07-22T07:40:47Z</time>
      </trkpt>
      <trkpt lat="44.84725" lon="4.69978">
        <ele>298.63</ele>
        <time>2021-07-22T07:40:59Z</time>
      </trkpt>
      <trkpt lat="44.84734" lon="4.69974">
        <ele>299.11</ele>
        <time>2021-07-22T07:41:16Z</time>
      </trkpt>
      <trkpt lat="44.84743" lon="4.69968">
        <ele>303.43</ele>
        <time>2021-07-22T07:41:30Z</time>
      </trkpt>
      <trkpt lat="44.84754" lon="4.6996">
        <ele>308.72</ele>
        <time>2021-07-22T07:41:47Z</time>
      </trkpt>
      <trkpt lat="44.84765" lon="4.69954">
        <ele>314.49</ele>
        <time>2021-07-22T07:42:06Z</time>
      </trkpt>
      <trkpt lat="44.84776" lon="4.69948">
        <ele>320.74</ele>
        <time>2021-07-22T07:42:26Z</time>
      </trkpt>
      <trkpt lat="44.84786" lon="4.69941">
        <ele>324.1</ele>
        <time>2021-07-22T07:42:44Z</time>
      </trkpt>
      <trkpt lat="44.84794" lon="4.69936">
        <ele>329.39</ele>
        <time>2021-07-22T07:43:00Z</time>
      </trkpt>
      <trkpt lat="44.84799" lon="4.69931">
        <ele>332.27</ele>
        <time>2021-07-22T07:43:15Z</time>
      </trkpt>
      <trkpt lat="44.84806" lon="4.69924">
        <ele>334.68</ele>
        <time>2021-07-22T07:43:32Z</time>
      </trkpt>
      <trkpt lat="44.84808" lon="4.69926">
        <ele>339</ele>
        <time>2021-07-22T07:43:47Z</time>
      </trkpt>
      <trkpt lat="44.84814" lon="4.69935">
        <ele>342.37</ele>
        <time>2021-07-22T07:44:05Z</time>
      </trkpt>
      <trkpt lat="44.84817" lon="4.69936">
        <ele>342.85</ele>
        <time>2021-07-22T07:44:21Z</time>
      </trkpt>
      <trkpt lat="44.84822" lon="4.69928">
        <ele>344.77</ele>
        <time>2021-07-22T07:44:36Z</time>
      </trkpt>
      <trkpt lat="44.84825" lon="4.6993">
        <ele>348.62</ele>
        <time>2021-07-22T07:44:51Z</time>
      </trkpt>
      <trkpt lat="44.84827" lon="4.69918">
        <ele>351.02</ele>
        <time>2021-07-22T07:45:06Z</time>
      </trkpt>
      <trkpt lat="44.84831" lon="4.69916">
        <ele>354.38</ele>
        <time>2021-07-22T07:45:21Z</time>
      </trkpt>
      <trkpt lat="44.84837" lon="4.69917">
        <ele>357.27</ele>
        <time>2021-07-22T07:45:35Z</time>
      </trkpt>
      <trkpt lat="44.8484" lon="4.69913">
        <ele>363.04</ele>
        <time>2021-07-22T07:45:50Z</time>
      </trkpt>
      <trkpt lat="44.84847" lon="4.69906">
        <ele>365.92</ele>
        <time>2021-07-22T07:46:05Z</time>
      </trkpt>
      <trkpt lat="44.84851" lon="4.69912">
        <ele>368.32</ele>
        <time>2021-07-22T07:46:20Z</time>
      </trkpt>
      <trkpt lat="44.84854" lon="4.69918">
        <ele>370.73</ele>
        <time>2021-07-22T07:46:35Z</time>
      </trkpt>
      <trkpt lat="44.84859" lon="4.69917">
        <ele>372.65</ele>
        <time>2021-07-22T07:46:51Z</time>
      </trkpt>
      <trkpt lat="44.84866" lon="4.69918">
        <ele>377.45</ele>
        <time>2021-07-22T07:47:08Z</time>
      </trkpt>
      <trkpt lat="44.84873" lon="4.6992">
        <ele>381.3</ele>
        <time>2021-07-22T07:47:24Z</time>
      </trkpt>
      <trkpt lat="44.84874" lon="4.69925">
        <ele>386.59</ele>
        <time>2021-07-22T07:47:40Z</time>
      </trkpt>
      <trkpt lat="44.84877" lon="4.69936">
        <ele>389.47</ele>
        <time>2021-07-22T07:47:56Z</time>
      </trkpt>
      <trkpt lat="44.84878" lon="4.69945">
        <ele>390.91</ele>
        <time>2021-07-22T07:48:11Z</time>
      </trkpt>
      <trkpt lat="44.84887" lon="4.69947">
        <ele>388.03</ele>
        <time>2021-07-22T07:48:25Z</time>
      </trkpt>
      <trkpt lat="44.84898" lon="4.69945">
        <ele>389.47</ele>
        <time>2021-07-22T07:48:42Z</time>
      </trkpt>
      <trkpt lat="44.84909" lon="4.69942">
        <ele>391.87</ele>
        <time>2021-07-22T07:48:59Z</time>
      </trkpt>
      <trkpt lat="44.8492" lon="4.69941">
        <ele>394.76</ele>
        <time>2021-07-22T07:49:15Z</time>
      </trkpt>
      <trkpt lat="44.8492" lon="4.69951">
        <ele>400.53</ele>
        <time>2021-07-22T07:49:31Z</time>
      </trkpt>
      <trkpt lat="44.84917" lon="4.69962">
        <ele>405.33</ele>
        <time>2021-07-22T07:49:45Z</time>
      </trkpt>
      <trkpt lat="44.84926" lon="4.69956">
        <ele>407.74</ele>
        <time>2021-07-22T07:50:01Z</time>
      </trkpt>
      <trkpt lat="44.84936" lon="4.69949">
        <ele>411.58</ele>
        <time>2021-07-22T07:50:17Z</time>
      </trkpt>
      <trkpt lat="44.84947" lon="4.69948">
        <ele>413.5</ele>
        <time>2021-07-22T07:50:33Z</time>
      </trkpt>
      <trkpt lat="44.84958" lon="4.69945">
        <ele>413.98</ele>
        <time>2021-07-22T07:50:47Z</time>
      </trkpt>
      <trkpt lat="44.84968" lon="4.69942">
        <ele>414.47</ele>
        <time>2021-07-22T07:51:03Z</time>
      </trkpt>
      <trkpt lat="44.8498" lon="4.6994">
        <ele>416.39</ele>
        <time>2021-07-22T07:51:20Z</time>
      </trkpt>
      <trkpt lat="44.84989" lon="4.69935">
        <ele>419.27</ele>
        <time>2021-07-22T07:51:34Z</time>
      </trkpt>
      <trkpt lat="44.84997" lon="4.69931">
        <ele>421.68</ele>
        <time>2021-07-22T07:51:48Z</time>
      </trkpt>
      <trkpt lat="44.85004" lon="4.6993">
        <ele>425.04</ele>
        <time>2021-07-22T07:52:06Z</time>
      </trkpt>
      <trkpt lat="44.85014" lon="4.69927">
        <ele>426</ele>
        <time>2021-07-22T07:52:24Z</time>
      </trkpt>
      <trkpt lat="44.85021" lon="4.69923">
        <ele>428.4</ele>
        <time>2021-07-22T07:52:37Z</time>
      </trkpt>
      <trkpt lat="44.85032" lon="4.69918">
        <ele>429.37</ele>
        <time>2021-07-22T07:52:53Z</time>
      </trkpt>
      <trkpt lat="44.85043" lon="4.69912">
        <ele>430.33</ele>
        <time>2021-07-22T07:53:09Z</time>
      </trkpt>
      <trkpt lat="44.85052" lon="4.69906">
        <ele>432.25</ele>
        <time>2021-07-22T07:53:26Z</time>
      </trkpt>
      <trkpt lat="44.85057" lon="4.69904">
        <ele>430.33</ele>
        <time>2021-07-22T07:53:39Z</time>
      </trkpt>
      <trkpt lat="44.85059" lon="4.69903">
        <ele>430.33</ele>
        <time>2021-07-22T07:54:00Z</time>
      </trkpt>
      <trkpt lat="44.85064" lon="4.69896">
        <ele>430.81</ele>
        <time>2021-07-22T07:54:15Z</time>
      </trkpt>
      <trkpt lat="44.85069" lon="4.69889">
        <ele>431.77</ele>
        <time>2021-07-22T07:54:27Z</time>
      </trkpt>
      <trkpt lat="44.85073" lon="4.69881">
        <ele>434.65</ele>
        <time>2021-07-22T07:54:39Z</time>
      </trkpt>
      <trkpt lat="44.85076" lon="4.69869">
        <ele>438.5</ele>
        <time>2021-07-22T07:54:55Z</time>
      </trkpt>
      <trkpt lat="44.8508" lon="4.69859">
        <ele>440.9</ele>
        <time>2021-07-22T07:55:09Z</time>
      </trkpt>
      <trkpt lat="44.85086" lon="4.69842">
        <ele>441.86</ele>
        <time>2021-07-22T07:55:24Z</time>
      </trkpt>
      <trkpt lat="44.85093" lon="4.69826">
        <ele>444.75</ele>
        <time>2021-07-22T07:55:40Z</time>
      </trkpt>
      <trkpt lat="44.85103" lon="4.69814">
        <ele>446.67</ele>
        <time>2021-07-22T07:55:55Z</time>
      </trkpt>
      <trkpt lat="44.85114" lon="4.69807">
        <ele>448.11</ele>
        <time>2021-07-22T07:56:12Z</time>
      </trkpt>
      <trkpt lat="44.85126" lon="4.69802">
        <ele>449.55</ele>
        <time>2021-07-22T07:56:27Z</time>
      </trkpt>
      <trkpt lat="44.85139" lon="4.69796">
        <ele>453.88</ele>
        <time>2021-07-22T07:56:44Z</time>
      </trkpt>
      <trkpt lat="44.85145" lon="4.69802">
        <ele>455.8</ele>
        <time>2021-07-22T07:57:01Z</time>
      </trkpt>
      <trkpt lat="44.85142" lon="4.69812">
        <ele>456.28</ele>
        <time>2021-07-22T07:57:14Z</time>
      </trkpt>
      <trkpt lat="44.8514" lon="4.69816">
        <ele>457.24</ele>
        <time>2021-07-22T07:57:18Z</time>
      </trkpt>
      <trkpt lat="44.85136" lon="4.69828">
        <ele>456.76</ele>
        <time>2021-07-22T07:57:32Z</time>
      </trkpt>
      <trkpt lat="44.85135" lon="4.69839">
        <ele>456.76</ele>
        <time>2021-07-22T07:57:48Z</time>
      </trkpt>
      <trkpt lat="44.85135" lon="4.69845">
        <ele>456.28</ele>
        <time>2021-07-22T07:58:05Z</time>
      </trkpt>
      <trkpt lat="44.85133" lon="4.6985">
        <ele>456.28</ele>
        <time>2021-07-22T07:58:25Z</time>
      </trkpt>
      <trkpt lat="44.85136" lon="4.69844">
        <ele>456.28</ele>
        <time>2021-07-22T07:58:37Z</time>
      </trkpt>
      <trkpt lat="44.85136" lon="4.69841">
        <ele>456.28</ele>
        <time>2021-07-22T07:58:58Z</time>
      </trkpt>
      <trkpt lat="44.85136" lon="4.69843">
        <ele>455.8</ele>
        <time>2021-07-22T07:59:17Z</time>
      </trkpt>
      <trkpt lat="44.8513" lon="4.69838">
        <ele>458.21</ele>
        <time>2021-07-22T07:59:51Z</time>
      </trkpt>
      <trkpt lat="44.85135" lon="4.69841">
        <ele>458.69</ele>
        <time>2021-07-22T08:00:31Z</time>
      </trkpt>
      <trkpt lat="44.85136" lon="4.69844">
        <ele>458.21</ele>
        <time>2021-07-22T08:00:52Z</time>
      </trkpt>
      <trkpt lat="44.85143" lon="4.69842">
        <ele>456.28</ele>
        <time>2021-07-22T08:01:21Z</time>
      </trkpt>
      <trkpt lat="44.85141" lon="4.69842">
        <ele>455.32</ele>
        <time>2021-07-22T08:01:50Z</time>
      </trkpt>
      <trkpt lat="44.85139" lon="4.69841">
        <ele>457.72</ele>
        <time>2021-07-22T08:02:14Z</time>
      </trkpt>
      <trkpt lat="44.85137" lon="4.69845">
        <ele>456.76</ele>
        <time>2021-07-22T08:02:29Z</time>
      </trkpt>
      <trkpt lat="44.85132" lon="4.69852">
        <ele>458.69</ele>
        <time>2021-07-22T08:02:42Z</time>
      </trkpt>
      <trkpt lat="44.85126" lon="4.69863">
        <ele>463.01</ele>
        <time>2021-07-22T08:02:56Z</time>
      </trkpt>
      <trkpt lat="44.85121" lon="4.69874">
        <ele>465.9</ele>
        <time>2021-07-22T08:03:10Z</time>
      </trkpt>
      <trkpt lat="44.85117" lon="4.6988">
        <ele>467.34</ele>
        <time>2021-07-22T08:03:18Z</time>
      </trkpt>
      <trkpt lat="44.85111" lon="4.69904">
        <ele>466.86</ele>
        <time>2021-07-22T08:03:35Z</time>
      </trkpt>
      <trkpt lat="44.85107" lon="4.69922">
        <ele>468.78</ele>
        <time>2021-07-22T08:03:50Z</time>
      </trkpt>
      <trkpt lat="44.85101" lon="4.69938">
        <ele>470.22</ele>
        <time>2021-07-22T08:04:04Z</time>
      </trkpt>
      <trkpt lat="44.85099" lon="4.69964">
        <ele>469.26</ele>
        <time>2021-07-22T08:04:19Z</time>
      </trkpt>
      <trkpt lat="44.85102" lon="4.69975">
        <ele>467.34</ele>
        <time>2021-07-22T08:04:32Z</time>
      </trkpt>
      <trkpt lat="44.85106" lon="4.69975">
        <ele>465.42</ele>
        <time>2021-07-22T08:04:47Z</time>
      </trkpt>
      <trkpt lat="44.85106" lon="4.69974">
        <ele>465.9</ele>
        <time>2021-07-22T08:04:48Z</time>
      </trkpt>
      <trkpt lat="44.85107" lon="4.69972">
        <ele>465.9</ele>
        <time>2021-07-22T08:04:50Z</time>
      </trkpt>
      <trkpt lat="44.85107" lon="4.69967">
        <ele>465.9</ele>
        <time>2021-07-22T08:04:53Z</time>
      </trkpt>
      <trkpt lat="44.85116" lon="4.69948">
        <ele>465.9</ele>
        <time>2021-07-22T08:05:09Z</time>
      </trkpt>
      <trkpt lat="44.85121" lon="4.69931">
        <ele>469.26</ele>
        <time>2021-07-22T08:05:24Z</time>
      </trkpt>
      <trkpt lat="44.85124" lon="4.69913">
        <ele>477.43</ele>
        <time>2021-07-22T08:05:39Z</time>
      </trkpt>
      <trkpt lat="44.85132" lon="4.69893">
        <ele>485.12</ele>
        <time>2021-07-22T08:05:56Z</time>
      </trkpt>
      <trkpt lat="44.85133" lon="4.69892">
        <ele>485.6</ele>
        <time>2021-07-22T08:05:57Z</time>
      </trkpt>
      <trkpt lat="44.85135" lon="4.69887">
        <ele>486.56</ele>
        <time>2021-07-22T08:06:01Z</time>
      </trkpt>
      <trkpt lat="44.85145" lon="4.69869">
        <ele>493.77</ele>
        <time>2021-07-22T08:06:18Z</time>
      </trkpt>
      <trkpt lat="44.85157" lon="4.69854">
        <ele>501.95</ele>
        <time>2021-07-22T08:06:36Z</time>
      </trkpt>
      <trkpt lat="44.85168" lon="4.69842">
        <ele>506.27</ele>
        <time>2021-07-22T08:06:50Z</time>
      </trkpt>
      <trkpt lat="44.85179" lon="4.69834">
        <ele>512.52</ele>
        <time>2021-07-22T08:07:06Z</time>
      </trkpt>
      <trkpt lat="44.85182" lon="4.69833">
        <ele>519.25</ele>
        <time>2021-07-22T08:07:22Z</time>
      </trkpt>
      <trkpt lat="44.85186" lon="4.69826">
        <ele>522.13</ele>
        <time>2021-07-22T08:07:36Z</time>
      </trkpt>
      <trkpt lat="44.85201" lon="4.69812">
        <ele>521.65</ele>
        <time>2021-07-22T08:07:51Z</time>
      </trkpt>
      <trkpt lat="44.85204" lon="4.69809">
        <ele>521.65</ele>
        <time>2021-07-22T08:07:54Z</time>
      </trkpt>
      <trkpt lat="44.85216" lon="4.69796">
        <ele>522.13</ele>
        <time>2021-07-22T08:08:08Z</time>
      </trkpt>
      <trkpt lat="44.85224" lon="4.69779">
        <ele>518.77</ele>
        <time>2021-07-22T08:08:22Z</time>
      </trkpt>
      <trkpt lat="44.85233" lon="4.69767">
        <ele>512.04</ele>
        <time>2021-07-22T08:08:36Z</time>
      </trkpt>
      <trkpt lat="44.85241" lon="4.69751">
        <ele>500.02</ele>
        <time>2021-07-22T08:08:52Z</time>
      </trkpt>
      <trkpt lat="44.85241" lon="4.69732">
        <ele>495.7</ele>
        <time>2021-07-22T08:09:07Z</time>
      </trkpt>
      <trkpt lat="44.85237" lon="4.69712">
        <ele>500.98</ele>
        <time>2021-07-22T08:09:24Z</time>
      </trkpt>
      <trkpt lat="44.85235" lon="4.6969">
        <ele>500.98</ele>
        <time>2021-07-22T08:09:38Z</time>
      </trkpt>
      <trkpt lat="44.85235" lon="4.69659">
        <ele>502.43</ele>
        <time>2021-07-22T08:09:56Z</time>
      </trkpt>
      <trkpt lat="44.85242" lon="4.69636">
        <ele>502.43</ele>
        <time>2021-07-22T08:10:13Z</time>
      </trkpt>
      <trkpt lat="44.85247" lon="4.69616">
        <ele>505.79</ele>
        <time>2021-07-22T08:10:29Z</time>
      </trkpt>
      <trkpt lat="44.85251" lon="4.69598">
        <ele>504.83</ele>
        <time>2021-07-22T08:10:42Z</time>
      </trkpt>
      <trkpt lat="44.85256" lon="4.69576">
        <ele>503.87</ele>
        <time>2021-07-22T08:10:55Z</time>
      </trkpt>
      <trkpt lat="44.85269" lon="4.69544">
        <ele>500.5</ele>
        <time>2021-07-22T08:11:15Z</time>
      </trkpt>
      <trkpt lat="44.8528" lon="4.69525">
        <ele>501.46</ele>
        <time>2021-07-22T08:11:31Z</time>
      </trkpt>
      <trkpt lat="44.85296" lon="4.69509">
        <ele>503.39</ele>
        <time>2021-07-22T08:11:49Z</time>
      </trkpt>
      <trkpt lat="44.85309" lon="4.695">
        <ele>510.6</ele>
        <time>2021-07-22T08:12:05Z</time>
      </trkpt>
      <trkpt lat="44.85321" lon="4.69493">
        <ele>515.88</ele>
        <time>2021-07-22T08:12:21Z</time>
      </trkpt>
      <trkpt lat="44.85335" lon="4.69488">
        <ele>518.77</ele>
        <time>2021-07-22T08:12:36Z</time>
      </trkpt>
      <trkpt lat="44.85356" lon="4.69478">
        <ele>522.61</ele>
        <time>2021-07-22T08:12:53Z</time>
      </trkpt>
      <trkpt lat="44.8536" lon="4.69476">
        <ele>525.5</ele>
        <time>2021-07-22T08:13:08Z</time>
      </trkpt>
      <trkpt lat="44.85364" lon="4.69478">
        <ele>520.21</ele>
        <time>2021-07-22T08:13:23Z</time>
      </trkpt>
      <trkpt lat="44.85372" lon="4.69477">
        <ele>517.81</ele>
        <time>2021-07-22T08:13:35Z</time>
      </trkpt>
      <trkpt lat="44.85386" lon="4.69476">
        <ele>520.69</ele>
        <time>2021-07-22T08:13:50Z</time>
      </trkpt>
      <trkpt lat="44.85399" lon="4.69484">
        <ele>522.13</ele>
        <time>2021-07-22T08:14:05Z</time>
      </trkpt>
      <trkpt lat="44.85413" lon="4.69493">
        <ele>525.5</ele>
        <time>2021-07-22T08:14:21Z</time>
      </trkpt>
      <trkpt lat="44.85431" lon="4.69508">
        <ele>525.02</ele>
        <time>2021-07-22T08:14:39Z</time>
      </trkpt>
      <trkpt lat="44.85446" lon="4.69518">
        <ele>524.06</ele>
        <time>2021-07-22T08:14:55Z</time>
      </trkpt>
      <trkpt lat="44.85462" lon="4.69523">
        <ele>525.02</ele>
        <time>2021-07-22T08:15:11Z</time>
      </trkpt>
      <trkpt lat="44.85477" lon="4.69527">
        <ele>528.86</ele>
        <time>2021-07-22T08:15:28Z</time>
      </trkpt>
      <trkpt lat="44.85494" lon="4.69533">
        <ele>527.42</ele>
        <time>2021-07-22T08:15:42Z</time>
      </trkpt>
      <trkpt lat="44.85507" lon="4.69541">
        <ele>527.9</ele>
        <time>2021-07-22T08:15:57Z</time>
      </trkpt>
      <trkpt lat="44.85509" lon="4.69557">
        <ele>532.23</ele>
        <time>2021-07-22T08:16:13Z</time>
      </trkpt>
      <trkpt lat="44.85509" lon="4.69563">
        <ele>533.67</ele>
        <time>2021-07-22T08:16:22Z</time>
      </trkpt>
      <trkpt lat="44.85497" lon="4.69571">
        <ele>537.99</ele>
        <time>2021-07-22T08:16:38Z</time>
      </trkpt>
      <trkpt lat="44.85485" lon="4.69575">
        <ele>542.8</ele>
        <time>2021-07-22T08:16:51Z</time>
      </trkpt>
      <trkpt lat="44.8547" lon="4.69578">
        <ele>543.76</ele>
        <time>2021-07-22T08:17:06Z</time>
      </trkpt>
      <trkpt lat="44.85455" lon="4.6958">
        <ele>544.24</ele>
        <time>2021-07-22T08:17:20Z</time>
      </trkpt>
      <trkpt lat="44.85436" lon="4.69585">
        <ele>542.8</ele>
        <time>2021-07-22T08:17:35Z</time>
      </trkpt>
      <trkpt lat="44.85423" lon="4.6959">
        <ele>542.32</ele>
        <time>2021-07-22T08:17:51Z</time>
      </trkpt>
      <trkpt lat="44.85404" lon="4.696">
        <ele>534.15</ele>
        <time>2021-07-22T08:18:08Z</time>
      </trkpt>
      <trkpt lat="44.85402" lon="4.69602">
        <ele>533.67</ele>
        <time>2021-07-22T08:18:09Z</time>
      </trkpt>
      <trkpt lat="44.85387" lon="4.69615">
        <ele>532.71</ele>
        <time>2021-07-22T08:18:25Z</time>
      </trkpt>
      <trkpt lat="44.85382" lon="4.69619">
        <ele>533.19</ele>
        <time>2021-07-22T08:18:29Z</time>
      </trkpt>
      <trkpt lat="44.85367" lon="4.69642">
        <ele>532.23</ele>
        <time>2021-07-22T08:18:46Z</time>
      </trkpt>
      <trkpt lat="44.85355" lon="4.69663">
        <ele>535.59</ele>
        <time>2021-07-22T08:19:03Z</time>
      </trkpt>
      <trkpt lat="44.85345" lon="4.69681">
        <ele>541.36</ele>
        <time>2021-07-22T08:19:19Z</time>
      </trkpt>
      <trkpt lat="44.85336" lon="4.69698">
        <ele>552.9</ele>
        <time>2021-07-22T08:19:37Z</time>
      </trkpt>
      <trkpt lat="44.85337" lon="4.69717">
        <ele>556.74</ele>
        <time>2021-07-22T08:19:47Z</time>
      </trkpt>
      <trkpt lat="44.85332" lon="4.69733">
        <ele>564.91</ele>
        <time>2021-07-22T08:20:04Z</time>
      </trkpt>
      <trkpt lat="44.85333" lon="4.69757">
        <ele>570.68</ele>
        <time>2021-07-22T08:20:21Z</time>
      </trkpt>
      <trkpt lat="44.8534" lon="4.69799">
        <ele>566.35</ele>
        <time>2021-07-22T08:20:39Z</time>
      </trkpt>
      <trkpt lat="44.85344" lon="4.69805">
        <ele>563.47</ele>
        <time>2021-07-22T08:20:57Z</time>
      </trkpt>
      <trkpt lat="44.85349" lon="4.69829">
        <ele>562.03</ele>
        <time>2021-07-22T08:21:13Z</time>
      </trkpt>
      <trkpt lat="44.85351" lon="4.69833">
        <ele>561.55</ele>
        <time>2021-07-22T08:21:15Z</time>
      </trkpt>
      <trkpt lat="44.85358" lon="4.6986">
        <ele>559.14</ele>
        <time>2021-07-22T08:21:32Z</time>
      </trkpt>
      <trkpt lat="44.85368" lon="4.69876">
        <ele>558.66</ele>
        <time>2021-07-22T08:21:46Z</time>
      </trkpt>
      <trkpt lat="44.85391" lon="4.69898">
        <ele>556.26</ele>
        <time>2021-07-22T08:22:05Z</time>
      </trkpt>
      <trkpt lat="44.85397" lon="4.699">
        <ele>555.3</ele>
        <time>2021-07-22T08:22:09Z</time>
      </trkpt>
      <trkpt lat="44.85412" lon="4.69901">
        <ele>552.9</ele>
        <time>2021-07-22T08:22:26Z</time>
      </trkpt>
      <trkpt lat="44.85418" lon="4.69899">
        <ele>553.86</ele>
        <time>2021-07-22T08:22:38Z</time>
      </trkpt>
      <trkpt lat="44.85428" lon="4.69897">
        <ele>553.86</ele>
        <time>2021-07-22T08:22:53Z</time>
      </trkpt>
      <trkpt lat="44.85448" lon="4.69897">
        <ele>558.18</ele>
        <time>2021-07-22T08:23:11Z</time>
      </trkpt>
      <trkpt lat="44.85469" lon="4.69895">
        <ele>560.59</ele>
        <time>2021-07-22T08:23:28Z</time>
      </trkpt>
      <trkpt lat="44.85487" lon="4.69893">
        <ele>563.47</ele>
        <time>2021-07-22T08:23:45Z</time>
      </trkpt>
      <trkpt lat="44.85504" lon="4.69895">
        <ele>564.91</ele>
        <time>2021-07-22T08:24:01Z</time>
      </trkpt>
      <trkpt lat="44.8552" lon="4.6991">
        <ele>568.28</ele>
        <time>2021-07-22T08:24:18Z</time>
      </trkpt>
      <trkpt lat="44.85528" lon="4.6992">
        <ele>569.72</ele>
        <time>2021-07-22T08:24:35Z</time>
      </trkpt>
      <trkpt lat="44.85529" lon="4.69921">
        <ele>569.24</ele>
        <time>2021-07-22T08:24:36Z</time>
      </trkpt>
      <trkpt lat="44.85541" lon="4.69932">
        <ele>574.04</ele>
        <time>2021-07-22T08:24:53Z</time>
      </trkpt>
      <trkpt lat="44.85557" lon="4.69933">
        <ele>577.41</ele>
        <time>2021-07-22T08:25:09Z</time>
      </trkpt>
      <trkpt lat="44.85574" lon="4.69932">
        <ele>577.89</ele>
        <time>2021-07-22T08:25:25Z</time>
      </trkpt>
      <trkpt lat="44.85589" lon="4.69931">
        <ele>577.89</ele>
        <time>2021-07-22T08:25:43Z</time>
      </trkpt>
      <trkpt lat="44.85599" lon="4.69927">
        <ele>578.37</ele>
        <time>2021-07-22T08:26:00Z</time>
      </trkpt>
      <trkpt lat="44.85612" lon="4.69914">
        <ele>577.41</ele>
        <time>2021-07-22T08:26:14Z</time>
      </trkpt>
      <trkpt lat="44.85625" lon="4.69891">
        <ele>580.29</ele>
        <time>2021-07-22T08:26:33Z</time>
      </trkpt>
      <trkpt lat="44.85635" lon="4.69864">
        <ele>576.93</ele>
        <time>2021-07-22T08:26:49Z</time>
      </trkpt>
      <trkpt lat="44.85648" lon="4.69837">
        <ele>577.89</ele>
        <time>2021-07-22T08:27:07Z</time>
      </trkpt>
      <trkpt lat="44.8566" lon="4.69812">
        <ele>579.81</ele>
        <time>2021-07-22T08:27:25Z</time>
      </trkpt>
      <trkpt lat="44.85664" lon="4.69792">
        <ele>579.81</ele>
        <time>2021-07-22T08:27:39Z</time>
      </trkpt>
      <trkpt lat="44.85666" lon="4.69772">
        <ele>580.77</ele>
        <time>2021-07-22T08:27:55Z</time>
      </trkpt>
      <trkpt lat="44.85668" lon="4.69743">
        <ele>581.73</ele>
        <time>2021-07-22T08:28:15Z</time>
      </trkpt>
      <trkpt lat="44.85674" lon="4.69734">
        <ele>579.81</ele>
        <time>2021-07-22T08:28:30Z</time>
      </trkpt>
      <trkpt lat="44.85675" lon="4.69734">
        <ele>578.85</ele>
        <time>2021-07-22T08:28:55Z</time>
      </trkpt>
      <trkpt lat="44.85675" lon="4.69718">
        <ele>577.89</ele>
        <time>2021-07-22T08:29:16Z</time>
      </trkpt>
      <trkpt lat="44.85685" lon="4.69703">
        <ele>577.41</ele>
        <time>2021-07-22T08:29:29Z</time>
      </trkpt>
      <trkpt lat="44.85704" lon="4.69678">
        <ele>576.45</ele>
        <time>2021-07-22T08:29:49Z</time>
      </trkpt>
      <trkpt lat="44.85718" lon="4.69657">
        <ele>574.53</ele>
        <time>2021-07-22T08:30:05Z</time>
      </trkpt>
      <trkpt lat="44.85727" lon="4.69642">
        <ele>574.53</ele>
        <time>2021-07-22T08:30:21Z</time>
      </trkpt>
      <trkpt lat="44.85728" lon="4.69641">
        <ele>575.49</ele>
        <time>2021-07-22T08:30:38Z</time>
      </trkpt>
      <trkpt lat="44.85735" lon="4.6963">
        <ele>575.97</ele>
        <time>2021-07-22T08:30:49Z</time>
      </trkpt>
      <trkpt lat="44.85749" lon="4.69612">
        <ele>575.49</ele>
        <time>2021-07-22T08:31:06Z</time>
      </trkpt>
      <trkpt lat="44.85763" lon="4.69592">
        <ele>576.93</ele>
        <time>2021-07-22T08:31:25Z</time>
      </trkpt>
      <trkpt lat="44.85764" lon="4.69586">
        <ele>579.81</ele>
        <time>2021-07-22T08:31:37Z</time>
      </trkpt>
      <trkpt lat="44.85761" lon="4.69571">
        <ele>581.25</ele>
        <time>2021-07-22T08:31:47Z</time>
      </trkpt>
      <trkpt lat="44.8576" lon="4.69563">
        <ele>581.73</ele>
        <time>2021-07-22T08:31:52Z</time>
      </trkpt>
      <trkpt lat="44.85761" lon="4.69532">
        <ele>583.18</ele>
        <time>2021-07-22T08:32:10Z</time>
      </trkpt>
      <trkpt lat="44.85766" lon="4.69511">
        <ele>585.58</ele>
        <time>2021-07-22T08:32:26Z</time>
      </trkpt>
      <trkpt lat="44.85773" lon="4.69498">
        <ele>586.06</ele>
        <time>2021-07-22T08:32:40Z</time>
      </trkpt>
      <trkpt lat="44.85779" lon="4.69486">
        <ele>588.95</ele>
        <time>2021-07-22T08:32:54Z</time>
      </trkpt>
      <trkpt lat="44.85786" lon="4.69478">
        <ele>590.39</ele>
        <time>2021-07-22T08:33:08Z</time>
      </trkpt>
      <trkpt lat="44.85798" lon="4.6947">
        <ele>593.75</ele>
        <time>2021-07-22T08:33:22Z</time>
      </trkpt>
      <trkpt lat="44.85803" lon="4.69476">
        <ele>596.64</ele>
        <time>2021-07-22T08:33:31Z</time>
      </trkpt>
      <trkpt lat="44.85804" lon="4.69494">
        <ele>600.96</ele>
        <time>2021-07-22T08:33:47Z</time>
      </trkpt>
      <trkpt lat="44.85809" lon="4.69511">
        <ele>603.85</ele>
        <time>2021-07-22T08:34:03Z</time>
      </trkpt>
      <trkpt lat="44.85815" lon="4.69514">
        <ele>604.33</ele>
        <time>2021-07-22T08:34:16Z</time>
      </trkpt>
      <trkpt lat="44.85824" lon="4.6951">
        <ele>606.73</ele>
        <time>2021-07-22T08:34:30Z</time>
      </trkpt>
      <trkpt lat="44.85836" lon="4.69506">
        <ele>609.13</ele>
        <time>2021-07-22T08:34:45Z</time>
      </trkpt>
      <trkpt lat="44.85847" lon="4.69498">
        <ele>611.54</ele>
        <time>2021-07-22T08:35:00Z</time>
      </trkpt>
      <trkpt lat="44.85849" lon="4.69494">
        <ele>613.94</ele>
        <time>2021-07-22T08:35:13Z</time>
      </trkpt>
      <trkpt lat="44.85857" lon="4.69474">
        <ele>615.38</ele>
        <time>2021-07-22T08:35:30Z</time>
      </trkpt>
      <trkpt lat="44.85862" lon="4.69471">
        <ele>616.34</ele>
        <time>2021-07-22T08:35:45Z</time>
      </trkpt>
      <trkpt lat="44.85868" lon="4.6946">
        <ele>617.78</ele>
        <time>2021-07-22T08:35:58Z</time>
      </trkpt>
      <trkpt lat="44.85878" lon="4.69449">
        <ele>620.19</ele>
        <time>2021-07-22T08:36:16Z</time>
      </trkpt>
      <trkpt lat="44.85885" lon="4.69448">
        <ele>621.15</ele>
        <time>2021-07-22T08:36:29Z</time>
      </trkpt>
      <trkpt lat="44.85887" lon="4.69432">
        <ele>622.59</ele>
        <time>2021-07-22T08:36:44Z</time>
      </trkpt>
      <trkpt lat="44.85893" lon="4.69408">
        <ele>625.47</ele>
        <time>2021-07-22T08:37:02Z</time>
      </trkpt>
      <trkpt lat="44.85897" lon="4.69401">
        <ele>627.4</ele>
        <time>2021-07-22T08:37:12Z</time>
      </trkpt>
      <trkpt lat="44.85901" lon="4.69393">
        <ele>626.44</ele>
        <time>2021-07-22T08:37:18Z</time>
      </trkpt>
      <trkpt lat="44.85904" lon="4.69389">
        <ele>626.92</ele>
        <time>2021-07-22T08:37:21Z</time>
      </trkpt>
      <trkpt lat="44.85906" lon="4.69386">
        <ele>626.92</ele>
        <time>2021-07-22T08:37:24Z</time>
      </trkpt>
      <trkpt lat="44.85918" lon="4.69369">
        <ele>627.88</ele>
        <time>2021-07-22T08:37:41Z</time>
      </trkpt>
      <trkpt lat="44.85929" lon="4.6935">
        <ele>627.88</ele>
        <time>2021-07-22T08:37:56Z</time>
      </trkpt>
      <trkpt lat="44.85941" lon="4.69327">
        <ele>626.92</ele>
        <time>2021-07-22T08:38:12Z</time>
      </trkpt>
      <trkpt lat="44.85951" lon="4.69305">
        <ele>628.36</ele>
        <time>2021-07-22T08:38:28Z</time>
      </trkpt>
      <trkpt lat="44.85963" lon="4.69284">
        <ele>630.28</ele>
        <time>2021-07-22T08:38:45Z</time>
      </trkpt>
      <trkpt lat="44.85973" lon="4.69261">
        <ele>632.2</ele>
        <time>2021-07-22T08:39:02Z</time>
      </trkpt>
      <trkpt lat="44.85978" lon="4.69253">
        <ele>633.65</ele>
        <time>2021-07-22T08:39:15Z</time>
      </trkpt>
      <trkpt lat="44.85988" lon="4.69232">
        <ele>636.53</ele>
        <time>2021-07-22T08:39:33Z</time>
      </trkpt>
      <trkpt lat="44.85995" lon="4.69215">
        <ele>639.89</ele>
        <time>2021-07-22T08:39:49Z</time>
      </trkpt>
      <trkpt lat="44.86" lon="4.69193">
        <ele>643.74</ele>
        <time>2021-07-22T08:40:05Z</time>
      </trkpt>
      <trkpt lat="44.86005" lon="4.69168">
        <ele>644.22</ele>
        <time>2021-07-22T08:40:21Z</time>
      </trkpt>
      <trkpt lat="44.8601" lon="4.69141">
        <ele>644.7</ele>
        <time>2021-07-22T08:40:37Z</time>
      </trkpt>
      <trkpt lat="44.86014" lon="4.6912">
        <ele>647.1</ele>
        <time>2021-07-22T08:40:54Z</time>
      </trkpt>
      <trkpt lat="44.86015" lon="4.6911">
        <ele>648.55</ele>
        <time>2021-07-22T08:41:09Z</time>
      </trkpt>
      <trkpt lat="44.86013" lon="4.69105">
        <ele>650.95</ele>
        <time>2021-07-22T08:41:24Z</time>
      </trkpt>
      <trkpt lat="44.86012" lon="4.69106">
        <ele>650.95</ele>
        <time>2021-07-22T08:41:41Z</time>
      </trkpt>
      <trkpt lat="44.86016" lon="4.69107">
        <ele>649.03</ele>
        <time>2021-07-22T08:42:00Z</time>
      </trkpt>
      <trkpt lat="44.86014" lon="4.69108">
        <ele>649.51</ele>
        <time>2021-07-22T08:42:18Z</time>
      </trkpt>
      <trkpt lat="44.86013" lon="4.69104">
        <ele>649.03</ele>
        <time>2021-07-22T08:42:39Z</time>
      </trkpt>
      <trkpt lat="44.86016" lon="4.69109">
        <ele>646.62</ele>
        <time>2021-07-22T08:42:55Z</time>
      </trkpt>
      <trkpt lat="44.86014" lon="4.69101">
        <ele>647.1</ele>
        <time>2021-07-22T08:43:12Z</time>
      </trkpt>
      <trkpt lat="44.86016" lon="4.69105">
        <ele>646.14</ele>
        <time>2021-07-22T08:43:25Z</time>
      </trkpt>
      <trkpt lat="44.86018" lon="4.69095">
        <ele>645.66</ele>
        <time>2021-07-22T08:43:39Z</time>
      </trkpt>
      <trkpt lat="44.86019" lon="4.6908">
        <ele>649.99</ele>
        <time>2021-07-22T08:43:53Z</time>
      </trkpt>
      <trkpt lat="44.8602" lon="4.6906">
        <ele>653.83</ele>
        <time>2021-07-22T08:44:08Z</time>
      </trkpt>
      <trkpt lat="44.86023" lon="4.69046">
        <ele>656.24</ele>
        <time>2021-07-22T08:44:23Z</time>
      </trkpt>
      <trkpt lat="44.86026" lon="4.69038">
        <ele>656.24</ele>
        <time>2021-07-22T08:44:38Z</time>
      </trkpt>
      <trkpt lat="44.86029" lon="4.6903">
        <ele>658.64</ele>
        <time>2021-07-22T08:44:52Z</time>
      </trkpt>
      <trkpt lat="44.86031" lon="4.69022">
        <ele>661.52</ele>
        <time>2021-07-22T08:45:04Z</time>
      </trkpt>
      <trkpt lat="44.8603" lon="4.69014">
        <ele>666.81</ele>
        <time>2021-07-22T08:45:19Z</time>
      </trkpt>
      <trkpt lat="44.86028" lon="4.68999">
        <ele>670.66</ele>
        <time>2021-07-22T08:45:34Z</time>
      </trkpt>
      <trkpt lat="44.86025" lon="4.6898">
        <ele>674.98</ele>
        <time>2021-07-22T08:45:49Z</time>
      </trkpt>
      <trkpt lat="44.86024" lon="4.68962">
        <ele>676.42</ele>
        <time>2021-07-22T08:46:04Z</time>
      </trkpt>
      <trkpt lat="44.86022" lon="4.68942">
        <ele>679.79</ele>
        <time>2021-07-22T08:46:21Z</time>
      </trkpt>
      <trkpt lat="44.8602" lon="4.68923">
        <ele>684.12</ele>
        <time>2021-07-22T08:46:39Z</time>
      </trkpt>
      <trkpt lat="44.86015" lon="4.68909">
        <ele>688.92</ele>
        <time>2021-07-22T08:46:56Z</time>
      </trkpt>
      <trkpt lat="44.86011" lon="4.68891">
        <ele>693.25</ele>
        <time>2021-07-22T08:47:13Z</time>
      </trkpt>
      <trkpt lat="44.86005" lon="4.68869">
        <ele>699.5</ele>
        <time>2021-07-22T08:47:30Z</time>
      </trkpt>
      <trkpt lat="44.86003" lon="4.68852">
        <ele>701.9</ele>
        <time>2021-07-22T08:47:45Z</time>
      </trkpt>
      <trkpt lat="44.86" lon="4.6883">
        <ele>705.75</ele>
        <time>2021-07-22T08:48:03Z</time>
      </trkpt>
      <trkpt lat="44.86" lon="4.68806">
        <ele>707.19</ele>
        <time>2021-07-22T08:48:18Z</time>
      </trkpt>
      <trkpt lat="44.86002" lon="4.68785">
        <ele>709.59</ele>
        <time>2021-07-22T08:48:33Z</time>
      </trkpt>
      <trkpt lat="44.86007" lon="4.68775">
        <ele>714.4</ele>
        <time>2021-07-22T08:48:47Z</time>
      </trkpt>
      <trkpt lat="44.86005" lon="4.6877">
        <ele>718.24</ele>
        <time>2021-07-22T08:49:01Z</time>
      </trkpt>
      <trkpt lat="44.8601" lon="4.68758">
        <ele>713.92</ele>
        <time>2021-07-22T08:49:23Z</time>
      </trkpt>
      <trkpt lat="44.86011" lon="4.68754">
        <ele>704.3</ele>
        <time>2021-07-22T08:49:40Z</time>
      </trkpt>
      <trkpt lat="44.86012" lon="4.6875">
        <ele>701.42</ele>
        <time>2021-07-22T08:50:03Z</time>
      </trkpt>
      <trkpt lat="44.86014" lon="4.68752">
        <ele>698.53</ele>
        <time>2021-07-22T08:50:25Z</time>
      </trkpt>
      <trkpt lat="44.86014" lon="4.68756">
        <ele>696.61</ele>
        <time>2021-07-22T08:50:53Z</time>
      </trkpt>
      <trkpt lat="44.86016" lon="4.68756">
        <ele>696.13</ele>
        <time>2021-07-22T08:51:18Z</time>
      </trkpt>
      <trkpt lat="44.86014" lon="4.68754">
        <ele>694.21</ele>
        <time>2021-07-22T08:51:38Z</time>
      </trkpt>
      <trkpt lat="44.86016" lon="4.68758">
        <ele>692.77</ele>
        <time>2021-07-22T08:51:56Z</time>
      </trkpt>
      <trkpt lat="44.86015" lon="4.68758">
        <ele>691.81</ele>
        <time>2021-07-22T08:52:14Z</time>
      </trkpt>
      <trkpt lat="44.86017" lon="4.68759">
        <ele>692.29</ele>
        <time>2021-07-22T08:52:35Z</time>
      </trkpt>
      <trkpt lat="44.86017" lon="4.68756">
        <ele>692.77</ele>
        <time>2021-07-22T08:52:59Z</time>
      </trkpt>
      <trkpt lat="44.86019" lon="4.68754">
        <ele>693.25</ele>
        <time>2021-07-22T08:53:13Z</time>
      </trkpt>
      <trkpt lat="44.86027" lon="4.68754">
        <ele>695.65</ele>
        <time>2021-07-22T08:53:27Z</time>
      </trkpt>
      <trkpt lat="44.86033" lon="4.68755">
        <ele>697.09</ele>
        <time>2021-07-22T08:53:34Z</time>
      </trkpt>
      <trkpt lat="44.86046" lon="4.68755">
        <ele>698.05</ele>
        <time>2021-07-22T08:53:48Z</time>
      </trkpt>
      <trkpt lat="44.86067" lon="4.68759">
        <ele>697.09</ele>
        <time>2021-07-22T08:54:07Z</time>
      </trkpt>
      <trkpt lat="44.86087" lon="4.68767">
        <ele>696.13</ele>
        <time>2021-07-22T08:54:25Z</time>
      </trkpt>
      <trkpt lat="44.86103" lon="4.68777">
        <ele>696.61</ele>
        <time>2021-07-22T08:54:43Z</time>
      </trkpt>
      <trkpt lat="44.86121" lon="4.68783">
        <ele>698.05</ele>
        <time>2021-07-22T08:55:00Z</time>
      </trkpt>
      <trkpt lat="44.86141" lon="4.6879">
        <ele>700.94</ele>
        <time>2021-07-22T08:55:16Z</time>
      </trkpt>
      <trkpt lat="44.8616" lon="4.68787">
        <ele>703.34</ele>
        <time>2021-07-22T08:55:31Z</time>
      </trkpt>
      <trkpt lat="44.86179" lon="4.68782">
        <ele>706.71</ele>
        <time>2021-07-22T08:55:48Z</time>
      </trkpt>
      <trkpt lat="44.86194" lon="4.68778">
        <ele>709.59</ele>
        <time>2021-07-22T08:56:04Z</time>
      </trkpt>
      <trkpt lat="44.86211" lon="4.68778">
        <ele>715.36</ele>
        <time>2021-07-22T08:56:19Z</time>
      </trkpt>
      <trkpt lat="44.86228" lon="4.68775">
        <ele>718.24</ele>
        <time>2021-07-22T08:56:34Z</time>
      </trkpt>
      <trkpt lat="44.86246" lon="4.68779">
        <ele>724.01</ele>
        <time>2021-07-22T08:56:50Z</time>
      </trkpt>
      <trkpt lat="44.86262" lon="4.68777">
        <ele>728.82</ele>
        <time>2021-07-22T08:57:06Z</time>
      </trkpt>
      <trkpt lat="44.86279" lon="4.68779">
        <ele>733.62</ele>
        <time>2021-07-22T08:57:22Z</time>
      </trkpt>
      <trkpt lat="44.86294" lon="4.68768">
        <ele>731.7</ele>
        <time>2021-07-22T08:57:38Z</time>
      </trkpt>
      <trkpt lat="44.8631" lon="4.68763">
        <ele>721.61</ele>
        <time>2021-07-22T08:57:53Z</time>
      </trkpt>
      <trkpt lat="44.86326" lon="4.6876">
        <ele>715.84</ele>
        <time>2021-07-22T08:58:07Z</time>
      </trkpt>
      <trkpt lat="44.86346" lon="4.68759">
        <ele>713.44</ele>
        <time>2021-07-22T08:58:20Z</time>
      </trkpt>
      <trkpt lat="44.86354" lon="4.68745">
        <ele>711.99</ele>
        <time>2021-07-22T08:58:33Z</time>
      </trkpt>
      <trkpt lat="44.86355" lon="4.68735">
        <ele>711.51</ele>
        <time>2021-07-22T08:58:40Z</time>
      </trkpt>
      <trkpt lat="44.8636" lon="4.68712">
        <ele>706.71</ele>
        <time>2021-07-22T08:58:57Z</time>
      </trkpt>
      <trkpt lat="44.86365" lon="4.68699">
        <ele>702.38</ele>
        <time>2021-07-22T08:59:11Z</time>
      </trkpt>
      <trkpt lat="44.86369" lon="4.68677">
        <ele>699.98</ele>
        <time>2021-07-22T08:59:27Z</time>
      </trkpt>
      <trkpt lat="44.86372" lon="4.68655">
        <ele>697.09</ele>
        <time>2021-07-22T08:59:42Z</time>
      </trkpt>
      <trkpt lat="44.86377" lon="4.68638">
        <ele>691.81</ele>
        <time>2021-07-22T08:59:57Z</time>
      </trkpt>
      <trkpt lat="44.86377" lon="4.68624">
        <ele>688.44</ele>
        <time>2021-07-22T09:00:11Z</time>
      </trkpt>
      <trkpt lat="44.86376" lon="4.68619">
        <ele>688.92</ele>
        <time>2021-07-22T09:00:27Z</time>
      </trkpt>
      <trkpt lat="44.86378" lon="4.68602">
        <ele>689.4</ele>
        <time>2021-07-22T09:00:40Z</time>
      </trkpt>
      <trkpt lat="44.8638" lon="4.68591">
        <ele>689.88</ele>
        <time>2021-07-22T09:00:48Z</time>
      </trkpt>
      <trkpt lat="44.86383" lon="4.68578">
        <ele>688.92</ele>
        <time>2021-07-22T09:00:57Z</time>
      </trkpt>
      <trkpt lat="44.86386" lon="4.68551">
        <ele>686.04</ele>
        <time>2021-07-22T09:01:13Z</time>
      </trkpt>
      <trkpt lat="44.86386" lon="4.68532">
        <ele>685.08</ele>
        <time>2021-07-22T09:01:27Z</time>
      </trkpt>
      <trkpt lat="44.86385" lon="4.68514">
        <ele>685.08</ele>
        <time>2021-07-22T09:01:40Z</time>
      </trkpt>
      <trkpt lat="44.86382" lon="4.68489">
        <ele>686.04</ele>
        <time>2021-07-22T09:01:54Z</time>
      </trkpt>
      <trkpt lat="44.86385" lon="4.68466">
        <ele>685.56</ele>
        <time>2021-07-22T09:02:07Z</time>
      </trkpt>
      <trkpt lat="44.86393" lon="4.68449">
        <ele>684.12</ele>
        <time>2021-07-22T09:02:21Z</time>
      </trkpt>
      <trkpt lat="44.864" lon="4.68437">
        <ele>683.15</ele>
        <time>2021-07-22T09:02:35Z</time>
      </trkpt>
      <trkpt lat="44.86411" lon="4.68413">
        <ele>681.71</ele>
        <time>2021-07-22T09:02:53Z</time>
      </trkpt>
      <trkpt lat="44.86412" lon="4.68385">
        <ele>678.35</ele>
        <time>2021-07-22T09:03:12Z</time>
      </trkpt>
      <trkpt lat="44.86411" lon="4.68372">
        <ele>674.98</ele>
        <time>2021-07-22T09:03:24Z</time>
      </trkpt>
      <trkpt lat="44.86409" lon="4.68346">
        <ele>673.54</ele>
        <time>2021-07-22T09:03:40Z</time>
      </trkpt>
      <trkpt lat="44.86408" lon="4.68338">
        <ele>672.58</ele>
        <time>2021-07-22T09:03:45Z</time>
      </trkpt>
      <trkpt lat="44.86403" lon="4.68314">
        <ele>670.18</ele>
        <time>2021-07-22T09:04:01Z</time>
      </trkpt>
      <trkpt lat="44.86398" lon="4.68301">
        <ele>667.77</ele>
        <time>2021-07-22T09:04:17Z</time>
      </trkpt>
      <trkpt lat="44.86399" lon="4.68297">
        <ele>668.73</ele>
        <time>2021-07-22T09:04:31Z</time>
      </trkpt>
      <trkpt lat="44.86397" lon="4.68296">
        <ele>670.18</ele>
        <time>2021-07-22T09:04:50Z</time>
      </trkpt>
      <trkpt lat="44.86396" lon="4.68297">
        <ele>672.58</ele>
        <time>2021-07-22T09:05:09Z</time>
      </trkpt>
      <trkpt lat="44.86397" lon="4.68296">
        <ele>671.14</ele>
        <time>2021-07-22T09:05:30Z</time>
      </trkpt>
      <trkpt lat="44.86396" lon="4.68295">
        <ele>671.14</ele>
        <time>2021-07-22T09:05:32Z</time>
      </trkpt>
      <trkpt lat="44.86388" lon="4.68285">
        <ele>668.73</ele>
        <time>2021-07-22T09:05:44Z</time>
      </trkpt>
      <trkpt lat="44.86384" lon="4.68279">
        <ele>667.77</ele>
        <time>2021-07-22T09:05:51Z</time>
      </trkpt>
      <trkpt lat="44.86373" lon="4.68261">
        <ele>666.81</ele>
        <time>2021-07-22T09:06:05Z</time>
      </trkpt>
      <trkpt lat="44.86364" lon="4.68246">
        <ele>665.85</ele>
        <time>2021-07-22T09:06:16Z</time>
      </trkpt>
      <trkpt lat="44.86358" lon="4.68237">
        <ele>665.85</ele>
        <time>2021-07-22T09:06:27Z</time>
      </trkpt>
      <trkpt lat="44.86343" lon="4.68216">
        <ele>667.77</ele>
        <time>2021-07-22T09:06:47Z</time>
      </trkpt>
      <trkpt lat="44.86335" lon="4.68208">
        <ele>667.77</ele>
        <time>2021-07-22T09:07:01Z</time>
      </trkpt>
      <trkpt lat="44.86333" lon="4.68204">
        <ele>668.25</ele>
        <time>2021-07-22T09:07:11Z</time>
      </trkpt>
      <trkpt lat="44.86324" lon="4.68196">
        <ele>668.25</ele>
        <time>2021-07-22T09:07:23Z</time>
      </trkpt>
      <trkpt lat="44.86307" lon="4.68182">
        <ele>666.81</ele>
        <time>2021-07-22T09:07:38Z</time>
      </trkpt>
      <trkpt lat="44.863" lon="4.6817">
        <ele>664.89</ele>
        <time>2021-07-22T09:07:48Z</time>
      </trkpt>
      <trkpt lat="44.86286" lon="4.68149">
        <ele>666.81</ele>
        <time>2021-07-22T09:08:04Z</time>
      </trkpt>
      <trkpt lat="44.86274" lon="4.68118">
        <ele>667.29</ele>
        <time>2021-07-22T09:08:23Z</time>
      </trkpt>
      <trkpt lat="44.86272" lon="4.68092">
        <ele>666.33</ele>
        <time>2021-07-22T09:08:35Z</time>
      </trkpt>
      <trkpt lat="44.86275" lon="4.68087">
        <ele>666.81</ele>
        <time>2021-07-22T09:08:40Z</time>
      </trkpt>
      <trkpt lat="44.86291" lon="4.68069">
        <ele>665.37</ele>
        <time>2021-07-22T09:08:56Z</time>
      </trkpt>
      <trkpt lat="44.86298" lon="4.68051">
        <ele>663.93</ele>
        <time>2021-07-22T09:09:07Z</time>
      </trkpt>
      <trkpt lat="44.86296" lon="4.68041">
        <ele>661.04</ele>
        <time>2021-07-22T09:09:12Z</time>
      </trkpt>
      <trkpt lat="44.86282" lon="4.68013">
        <ele>651.91</ele>
        <time>2021-07-22T09:09:32Z</time>
      </trkpt>
      <trkpt lat="44.86269" lon="4.67998">
        <ele>651.43</ele>
        <time>2021-07-22T09:09:46Z</time>
      </trkpt>
      <trkpt lat="44.86247" lon="4.67994">
        <ele>651.91</ele>
        <time>2021-07-22T09:10:03Z</time>
      </trkpt>
      <trkpt lat="44.86233" lon="4.67994">
        <ele>651.43</ele>
        <time>2021-07-22T09:10:20Z</time>
      </trkpt>
      <trkpt lat="44.86231" lon="4.67993">
        <ele>650.95</ele>
        <time>2021-07-22T09:10:24Z</time>
      </trkpt>
      <trkpt lat="44.86223" lon="4.67986">
        <ele>648.07</ele>
        <time>2021-07-22T09:10:37Z</time>
      </trkpt>
      <trkpt lat="44.86213" lon="4.67972">
        <ele>647.59</ele>
        <time>2021-07-22T09:10:50Z</time>
      </trkpt>
      <trkpt lat="44.86201" lon="4.67958">
        <ele>649.51</ele>
        <time>2021-07-22T09:11:05Z</time>
      </trkpt>
      <trkpt lat="44.86185" lon="4.67949">
        <ele>650.95</ele>
        <time>2021-07-22T09:11:22Z</time>
      </trkpt>
      <trkpt lat="44.86176" lon="4.67938">
        <ele>655.76</ele>
        <time>2021-07-22T09:11:36Z</time>
      </trkpt>
      <trkpt lat="44.86159" lon="4.67923">
        <ele>664.41</ele>
        <time>2021-07-22T09:11:56Z</time>
      </trkpt>
      <trkpt lat="44.86141" lon="4.67914">
        <ele>667.77</ele>
        <time>2021-07-22T09:12:11Z</time>
      </trkpt>
      <trkpt lat="44.86129" lon="4.67907">
        <ele>671.14</ele>
        <time>2021-07-22T09:12:26Z</time>
      </trkpt>
      <trkpt lat="44.86117" lon="4.67895">
        <ele>670.66</ele>
        <time>2021-07-22T09:12:41Z</time>
      </trkpt>
      <trkpt lat="44.86101" lon="4.67883">
        <ele>671.14</ele>
        <time>2021-07-22T09:12:55Z</time>
      </trkpt>
      <trkpt lat="44.86083" lon="4.6787">
        <ele>671.14</ele>
        <time>2021-07-22T09:13:10Z</time>
      </trkpt>
      <trkpt lat="44.86069" lon="4.67853">
        <ele>671.62</ele>
        <time>2021-07-22T09:13:26Z</time>
      </trkpt>
      <trkpt lat="44.86049" lon="4.67842">
        <ele>671.14</ele>
        <time>2021-07-22T09:13:42Z</time>
      </trkpt>
      <trkpt lat="44.86034" lon="4.67838">
        <ele>670.18</ele>
        <time>2021-07-22T09:13:57Z</time>
      </trkpt>
      <trkpt lat="44.86019" lon="4.67834">
        <ele>670.18</ele>
        <time>2021-07-22T09:14:10Z</time>
      </trkpt>
      <trkpt lat="44.86003" lon="4.67834">
        <ele>670.66</ele>
        <time>2021-07-22T09:14:22Z</time>
      </trkpt>
      <trkpt lat="44.85982" lon="4.67833">
        <ele>670.66</ele>
        <time>2021-07-22T09:14:36Z</time>
      </trkpt>
      <trkpt lat="44.85964" lon="4.67831">
        <ele>670.18</ele>
        <time>2021-07-22T09:14:51Z</time>
      </trkpt>
      <trkpt lat="44.85941" lon="4.67825">
        <ele>668.73</ele>
        <time>2021-07-22T09:15:07Z</time>
      </trkpt>
      <trkpt lat="44.85922" lon="4.67819">
        <ele>670.18</ele>
        <time>2021-07-22T09:15:23Z</time>
      </trkpt>
      <trkpt lat="44.85901" lon="4.67814">
        <ele>665.85</ele>
        <time>2021-07-22T09:15:36Z</time>
      </trkpt>
      <trkpt lat="44.85883" lon="4.67812">
        <ele>666.81</ele>
        <time>2021-07-22T09:15:51Z</time>
      </trkpt>
      <trkpt lat="44.85864" lon="4.67813">
        <ele>666.81</ele>
        <time>2021-07-22T09:16:06Z</time>
      </trkpt>
      <trkpt lat="44.85852" lon="4.67811">
        <ele>672.1</ele>
        <time>2021-07-22T09:16:21Z</time>
      </trkpt>
      <trkpt lat="44.85836" lon="4.67812">
        <ele>676.42</ele>
        <time>2021-07-22T09:16:34Z</time>
      </trkpt>
      <trkpt lat="44.85818" lon="4.67812">
        <ele>678.35</ele>
        <time>2021-07-22T09:16:48Z</time>
      </trkpt>
      <trkpt lat="44.85804" lon="4.67811">
        <ele>678.83</ele>
        <time>2021-07-22T09:17:02Z</time>
      </trkpt>
      <trkpt lat="44.85782" lon="4.6781">
        <ele>675.46</ele>
        <time>2021-07-22T09:17:18Z</time>
      </trkpt>
      <trkpt lat="44.8576" lon="4.67812">
        <ele>672.58</ele>
        <time>2021-07-22T09:17:34Z</time>
      </trkpt>
      <trkpt lat="44.85741" lon="4.67813">
        <ele>655.76</ele>
        <time>2021-07-22T09:17:50Z</time>
      </trkpt>
      <trkpt lat="44.85729" lon="4.67812">
        <ele>651.91</ele>
        <time>2021-07-22T09:18:06Z</time>
      </trkpt>
      <trkpt lat="44.85712" lon="4.6781">
        <ele>649.51</ele>
        <time>2021-07-22T09:18:23Z</time>
      </trkpt>
      <trkpt lat="44.85696" lon="4.6781">
        <ele>648.07</ele>
        <time>2021-07-22T09:18:36Z</time>
      </trkpt>
      <trkpt lat="44.8568" lon="4.67811">
        <ele>644.7</ele>
        <time>2021-07-22T09:18:51Z</time>
      </trkpt>
      <trkpt lat="44.85668" lon="4.67806">
        <ele>644.22</ele>
        <time>2021-07-22T09:19:09Z</time>
      </trkpt>
      <trkpt lat="44.85654" lon="4.67806">
        <ele>644.22</ele>
        <time>2021-07-22T09:19:24Z</time>
      </trkpt>
      <trkpt lat="44.85649" lon="4.67805">
        <ele>644.22</ele>
        <time>2021-07-22T09:19:29Z</time>
      </trkpt>
      <trkpt lat="44.85638" lon="4.67808">
        <ele>644.22</ele>
        <time>2021-07-22T09:19:39Z</time>
      </trkpt>
      <trkpt lat="44.85623" lon="4.67807">
        <ele>644.22</ele>
        <time>2021-07-22T09:19:54Z</time>
      </trkpt>
      <trkpt lat="44.85608" lon="4.6781">
        <ele>643.74</ele>
        <time>2021-07-22T09:20:11Z</time>
      </trkpt>
      <trkpt lat="44.85595" lon="4.67817">
        <ele>643.74</ele>
        <time>2021-07-22T09:20:26Z</time>
      </trkpt>
      <trkpt lat="44.85581" lon="4.67822">
        <ele>643.74</ele>
        <time>2021-07-22T09:20:40Z</time>
      </trkpt>
      <trkpt lat="44.85567" lon="4.67831">
        <ele>643.74</ele>
        <time>2021-07-22T09:20:55Z</time>
      </trkpt>
      <trkpt lat="44.85549" lon="4.67837">
        <ele>643.74</ele>
        <time>2021-07-22T09:21:09Z</time>
      </trkpt>
      <trkpt lat="44.85529" lon="4.67839">
        <ele>643.74</ele>
        <time>2021-07-22T09:21:25Z</time>
      </trkpt>
      <trkpt lat="44.85511" lon="4.67836">
        <ele>643.74</ele>
        <time>2021-07-22T09:21:38Z</time>
      </trkpt>
      <trkpt lat="44.85507" lon="4.67834">
        <ele>643.74</ele>
        <time>2021-07-22T09:21:42Z</time>
      </trkpt>
      <trkpt lat="44.85481" lon="4.67822">
        <ele>643.74</ele>
        <time>2021-07-22T09:21:59Z</time>
      </trkpt>
      <trkpt lat="44.85451" lon="4.67804">
        <ele>642.78</ele>
        <time>2021-07-22T09:22:19Z</time>
      </trkpt>
      <trkpt lat="44.85429" lon="4.67802">
        <ele>642.78</ele>
        <time>2021-07-22T09:22:37Z</time>
      </trkpt>
      <trkpt lat="44.85411" lon="4.67811">
        <ele>642.3</ele>
        <time>2021-07-22T09:22:53Z</time>
      </trkpt>
      <trkpt lat="44.85386" lon="4.67817">
        <ele>612.02</ele>
        <time>2021-07-22T09:23:09Z</time>
      </trkpt>
      <trkpt lat="44.85354" lon="4.67814">
        <ele>596.64</ele>
        <time>2021-07-22T09:23:31Z</time>
      </trkpt>
      <trkpt lat="44.85325" lon="4.67804">
        <ele>593.27</ele>
        <time>2021-07-22T09:23:53Z</time>
      </trkpt>
      <trkpt lat="44.853" lon="4.67789">
        <ele>588.46</ele>
        <time>2021-07-22T09:24:13Z</time>
      </trkpt>
      <trkpt lat="44.85282" lon="4.67781">
        <ele>587.02</ele>
        <time>2021-07-22T09:24:31Z</time>
      </trkpt>
      <trkpt lat="44.85276" lon="4.67781">
        <ele>588.46</ele>
        <time>2021-07-22T09:24:36Z</time>
      </trkpt>
      <trkpt lat="44.85271" lon="4.67783">
        <ele>589.91</ele>
        <time>2021-07-22T09:24:40Z</time>
      </trkpt>
      <trkpt lat="44.85245" lon="4.67794">
        <ele>595.19</ele>
        <time>2021-07-22T09:24:59Z</time>
      </trkpt>
      <trkpt lat="44.85226" lon="4.67807">
        <ele>597.6</ele>
        <time>2021-07-22T09:25:15Z</time>
      </trkpt>
      <trkpt lat="44.85214" lon="4.67805">
        <ele>591.83</ele>
        <time>2021-07-22T09:25:30Z</time>
      </trkpt>
      <trkpt lat="44.85199" lon="4.67809">
        <ele>587.98</ele>
        <time>2021-07-22T09:25:45Z</time>
      </trkpt>
      <trkpt lat="44.8518" lon="4.67816">
        <ele>588.95</ele>
        <time>2021-07-22T09:26:03Z</time>
      </trkpt>
      <trkpt lat="44.85159" lon="4.67817">
        <ele>593.27</ele>
        <time>2021-07-22T09:26:21Z</time>
      </trkpt>
      <trkpt lat="44.85141" lon="4.67814">
        <ele>600.48</ele>
        <time>2021-07-22T09:26:37Z</time>
      </trkpt>
      <trkpt lat="44.85119" lon="4.67816">
        <ele>599.52</ele>
        <time>2021-07-22T09:26:54Z</time>
      </trkpt>
      <trkpt lat="44.85095" lon="4.67819">
        <ele>598.08</ele>
        <time>2021-07-22T09:27:12Z</time>
      </trkpt>
      <trkpt lat="44.85076" lon="4.67818">
        <ele>596.64</ele>
        <time>2021-07-22T09:27:28Z</time>
      </trkpt>
      <trkpt lat="44.85071" lon="4.6782">
        <ele>594.23</ele>
        <time>2021-07-22T09:27:41Z</time>
      </trkpt>
      <trkpt lat="44.85071" lon="4.67822">
        <ele>589.91</ele>
        <time>2021-07-22T09:28:02Z</time>
      </trkpt>
      <trkpt lat="44.85073" lon="4.67825">
        <ele>589.43</ele>
        <time>2021-07-22T09:28:16Z</time>
      </trkpt>
      <trkpt lat="44.85073" lon="4.67827">
        <ele>589.43</ele>
        <time>2021-07-22T09:28:35Z</time>
      </trkpt>
      <trkpt lat="44.85069" lon="4.67833">
        <ele>589.43</ele>
        <time>2021-07-22T09:28:47Z</time>
      </trkpt>
      <trkpt lat="44.85064" lon="4.67852">
        <ele>588.95</ele>
        <time>2021-07-22T09:29:00Z</time>
      </trkpt>
      <trkpt lat="44.85054" lon="4.67865">
        <ele>589.91</ele>
        <time>2021-07-22T09:29:13Z</time>
      </trkpt>
      <trkpt lat="44.85043" lon="4.67878">
        <ele>590.39</ele>
        <time>2021-07-22T09:29:28Z</time>
      </trkpt>
      <trkpt lat="44.85034" lon="4.6789">
        <ele>589.91</ele>
        <time>2021-07-22T09:29:43Z</time>
      </trkpt>
      <trkpt lat="44.85033" lon="4.67894">
        <ele>587.98</ele>
        <time>2021-07-22T09:29:55Z</time>
      </trkpt>
      <trkpt lat="44.85032" lon="4.67894">
        <ele>584.62</ele>
        <time>2021-07-22T09:30:10Z</time>
      </trkpt>
      <trkpt lat="44.85032" lon="4.67895">
        <ele>583.18</ele>
        <time>2021-07-22T09:30:18Z</time>
      </trkpt>
      <trkpt lat="44.85029" lon="4.67898">
        <ele>582.7</ele>
        <time>2021-07-22T09:30:21Z</time>
      </trkpt>
      <trkpt lat="44.85026" lon="4.67899">
        <ele>582.7</ele>
        <time>2021-07-22T09:30:24Z</time>
      </trkpt>
      <trkpt lat="44.85022" lon="4.67904">
        <ele>582.7</ele>
        <time>2021-07-22T09:30:28Z</time>
      </trkpt>
      <trkpt lat="44.85015" lon="4.67918">
        <ele>582.22</ele>
        <time>2021-07-22T09:30:41Z</time>
      </trkpt>
      <trkpt lat="44.85013" lon="4.67925">
        <ele>581.25</ele>
        <time>2021-07-22T09:30:49Z</time>
      </trkpt>
      <trkpt lat="44.8501" lon="4.67928">
        <ele>579.33</ele>
        <time>2021-07-22T09:31:02Z</time>
      </trkpt>
      <trkpt lat="44.85009" lon="4.67929">
        <ele>579.33</ele>
        <time>2021-07-22T09:31:04Z</time>
      </trkpt>
      <trkpt lat="44.85005" lon="4.67934">
        <ele>579.33</ele>
        <time>2021-07-22T09:31:14Z</time>
      </trkpt>
      <trkpt lat="44.85004" lon="4.67939">
        <ele>579.81</ele>
        <time>2021-07-22T09:31:26Z</time>
      </trkpt>
      <trkpt lat="44.85001" lon="4.67948">
        <ele>577.41</ele>
        <time>2021-07-22T09:31:37Z</time>
      </trkpt>
      <trkpt lat="44.85001" lon="4.67949">
        <ele>577.41</ele>
        <time>2021-07-22T09:31:38Z</time>
      </trkpt>
      <trkpt lat="44.84991" lon="4.67966">
        <ele>579.33</ele>
        <time>2021-07-22T09:31:53Z</time>
      </trkpt>
      <trkpt lat="44.8499" lon="4.67969">
        <ele>579.81</ele>
        <time>2021-07-22T09:31:56Z</time>
      </trkpt>
      <trkpt lat="44.84991" lon="4.67994">
        <ele>585.1</ele>
        <time>2021-07-22T09:32:12Z</time>
      </trkpt>
      <trkpt lat="44.84989" lon="4.68012">
        <ele>584.62</ele>
        <time>2021-07-22T09:32:25Z</time>
      </trkpt>
      <trkpt lat="44.84983" lon="4.6803">
        <ele>585.58</ele>
        <time>2021-07-22T09:32:38Z</time>
      </trkpt>
      <trkpt lat="44.84975" lon="4.68045">
        <ele>584.14</ele>
        <time>2021-07-22T09:32:51Z</time>
      </trkpt>
      <trkpt lat="44.84961" lon="4.68051">
        <ele>583.18</ele>
        <time>2021-07-22T09:33:04Z</time>
      </trkpt>
      <trkpt lat="44.84952" lon="4.68053">
        <ele>582.7</ele>
        <time>2021-07-22T09:33:13Z</time>
      </trkpt>
      <trkpt lat="44.8494" lon="4.68052">
        <ele>581.73</ele>
        <time>2021-07-22T09:33:27Z</time>
      </trkpt>
      <trkpt lat="44.8493" lon="4.6806">
        <ele>582.7</ele>
        <time>2021-07-22T09:33:45Z</time>
      </trkpt>
      <trkpt lat="44.8491" lon="4.68062">
        <ele>584.62</ele>
        <time>2021-07-22T09:34:03Z</time>
      </trkpt>
      <trkpt lat="44.84895" lon="4.68066">
        <ele>583.66</ele>
        <time>2021-07-22T09:34:17Z</time>
      </trkpt>
      <trkpt lat="44.84873" lon="4.68067">
        <ele>583.18</ele>
        <time>2021-07-22T09:34:32Z</time>
      </trkpt>
      <trkpt lat="44.84851" lon="4.6807">
        <ele>581.25</ele>
        <time>2021-07-22T09:34:45Z</time>
      </trkpt>
      <trkpt lat="44.84828" lon="4.68076">
        <ele>576.45</ele>
        <time>2021-07-22T09:34:59Z</time>
      </trkpt>
      <trkpt lat="44.84812" lon="4.68082">
        <ele>576.45</ele>
        <time>2021-07-22T09:35:15Z</time>
      </trkpt>
      <trkpt lat="44.84797" lon="4.68087">
        <ele>575.97</ele>
        <time>2021-07-22T09:35:29Z</time>
      </trkpt>
      <trkpt lat="44.84771" lon="4.68086">
        <ele>574.53</ele>
        <time>2021-07-22T09:35:46Z</time>
      </trkpt>
      <trkpt lat="44.84767" lon="4.68087">
        <ele>574.53</ele>
        <time>2021-07-22T09:35:49Z</time>
      </trkpt>
      <trkpt lat="44.84752" lon="4.68092">
        <ele>572.12</ele>
        <time>2021-07-22T09:36:02Z</time>
      </trkpt>
      <trkpt lat="44.84741" lon="4.68103">
        <ele>570.2</ele>
        <time>2021-07-22T09:36:16Z</time>
      </trkpt>
      <trkpt lat="44.84725" lon="4.68112">
        <ele>570.68</ele>
        <time>2021-07-22T09:36:31Z</time>
      </trkpt>
      <trkpt lat="44.84712" lon="4.68124">
        <ele>573.56</ele>
        <time>2021-07-22T09:36:46Z</time>
      </trkpt>
      <trkpt lat="44.84695" lon="4.68141">
        <ele>574.04</ele>
        <time>2021-07-22T09:37:02Z</time>
      </trkpt>
      <trkpt lat="44.84681" lon="4.6815">
        <ele>573.56</ele>
        <time>2021-07-22T09:37:15Z</time>
      </trkpt>
      <trkpt lat="44.84679" lon="4.68152">
        <ele>573.56</ele>
        <time>2021-07-22T09:37:16Z</time>
      </trkpt>
      <trkpt lat="44.84665" lon="4.68173">
        <ele>572.6</ele>
        <time>2021-07-22T09:37:32Z</time>
      </trkpt>
      <trkpt lat="44.84653" lon="4.68189">
        <ele>569.72</ele>
        <time>2021-07-22T09:37:47Z</time>
      </trkpt>
      <trkpt lat="44.8464" lon="4.68197">
        <ele>568.76</ele>
        <time>2021-07-22T09:37:59Z</time>
      </trkpt>
      <trkpt lat="44.84626" lon="4.68208">
        <ele>567.8</ele>
        <time>2021-07-22T09:38:13Z</time>
      </trkpt>
      <trkpt lat="44.84618" lon="4.68228">
        <ele>566.35</ele>
        <time>2021-07-22T09:38:29Z</time>
      </trkpt>
      <trkpt lat="44.84605" lon="4.68229">
        <ele>562.99</ele>
        <time>2021-07-22T09:38:47Z</time>
      </trkpt>
      <trkpt lat="44.84589" lon="4.68237">
        <ele>560.11</ele>
        <time>2021-07-22T09:39:02Z</time>
      </trkpt>
      <trkpt lat="44.84588" lon="4.68234">
        <ele>560.11</ele>
        <time>2021-07-22T09:39:20Z</time>
      </trkpt>
      <trkpt lat="44.8458" lon="4.68227">
        <ele>557.22</ele>
        <time>2021-07-22T09:39:40Z</time>
      </trkpt>
      <trkpt lat="44.84576" lon="4.68235">
        <ele>554.82</ele>
        <time>2021-07-22T09:39:55Z</time>
      </trkpt>
      <trkpt lat="44.84564" lon="4.68239">
        <ele>556.74</ele>
        <time>2021-07-22T09:40:09Z</time>
      </trkpt>
      <trkpt lat="44.84549" lon="4.68244">
        <ele>555.3</ele>
        <time>2021-07-22T09:40:25Z</time>
      </trkpt>
      <trkpt lat="44.84531" lon="4.68246">
        <ele>553.86</ele>
        <time>2021-07-22T09:40:40Z</time>
      </trkpt>
      <trkpt lat="44.84513" lon="4.6825">
        <ele>552.9</ele>
        <time>2021-07-22T09:40:53Z</time>
      </trkpt>
      <trkpt lat="44.84499" lon="4.68255">
        <ele>550.49</ele>
        <time>2021-07-22T09:41:06Z</time>
      </trkpt>
      <trkpt lat="44.84484" lon="4.6826">
        <ele>549.05</ele>
        <time>2021-07-22T09:41:19Z</time>
      </trkpt>
      <trkpt lat="44.8447" lon="4.68258">
        <ele>548.09</ele>
        <time>2021-07-22T09:41:33Z</time>
      </trkpt>
      <trkpt lat="44.84453" lon="4.68258">
        <ele>546.65</ele>
        <time>2021-07-22T09:41:47Z</time>
      </trkpt>
      <trkpt lat="44.84435" lon="4.68259">
        <ele>543.76</ele>
        <time>2021-07-22T09:42:02Z</time>
      </trkpt>
      <trkpt lat="44.84415" lon="4.6826">
        <ele>540.88</ele>
        <time>2021-07-22T09:42:16Z</time>
      </trkpt>
      <trkpt lat="44.84401" lon="4.68263">
        <ele>538.48</ele>
        <time>2021-07-22T09:42:30Z</time>
      </trkpt>
      <trkpt lat="44.84389" lon="4.68266">
        <ele>536.07</ele>
        <time>2021-07-22T09:42:44Z</time>
      </trkpt>
      <trkpt lat="44.84369" lon="4.68268">
        <ele>535.11</ele>
        <time>2021-07-22T09:43:00Z</time>
      </trkpt>
      <trkpt lat="44.8436" lon="4.68269">
        <ele>534.63</ele>
        <time>2021-07-22T09:43:04Z</time>
      </trkpt>
      <trkpt lat="44.84341" lon="4.68275">
        <ele>532.23</ele>
        <time>2021-07-22T09:43:18Z</time>
      </trkpt>
      <trkpt lat="44.84322" lon="4.68276">
        <ele>530.79</ele>
        <time>2021-07-22T09:43:35Z</time>
      </trkpt>
      <trkpt lat="44.84297" lon="4.68271">
        <ele>529.34</ele>
        <time>2021-07-22T09:43:51Z</time>
      </trkpt>
      <trkpt lat="44.84275" lon="4.68267">
        <ele>527.9</ele>
        <time>2021-07-22T09:44:06Z</time>
      </trkpt>
      <trkpt lat="44.84255" lon="4.68266">
        <ele>526.94</ele>
        <time>2021-07-22T09:44:22Z</time>
      </trkpt>
      <trkpt lat="44.8424" lon="4.68273">
        <ele>528.38</ele>
        <time>2021-07-22T09:44:50Z</time>
      </trkpt>
      <trkpt lat="44.84232" lon="4.68272">
        <ele>523.09</ele>
        <time>2021-07-22T09:45:22Z</time>
      </trkpt>
      <trkpt lat="44.84229" lon="4.68267">
        <ele>522.13</ele>
        <time>2021-07-22T09:45:38Z</time>
      </trkpt>
      <trkpt lat="44.84221" lon="4.68258">
        <ele>518.29</ele>
        <time>2021-07-22T09:45:57Z</time>
      </trkpt>
      <trkpt lat="44.84207" lon="4.68253">
        <ele>514.92</ele>
        <time>2021-07-22T09:46:11Z</time>
      </trkpt>
      <trkpt lat="44.84209" lon="4.68257">
        <ele>513</ele>
        <time>2021-07-22T09:46:35Z</time>
      </trkpt>
      <trkpt lat="44.84202" lon="4.68253">
        <ele>507.23</ele>
        <time>2021-07-22T09:46:59Z</time>
      </trkpt>
      <trkpt lat="44.84198" lon="4.68251">
        <ele>497.14</ele>
        <time>2021-07-22T09:47:23Z</time>
      </trkpt>
      <trkpt lat="44.84202" lon="4.68252">
        <ele>496.18</ele>
        <time>2021-07-22T09:47:34Z</time>
      </trkpt>
      <trkpt lat="44.84203" lon="4.68252">
        <ele>494.74</ele>
        <time>2021-07-22T09:47:57Z</time>
      </trkpt>
      <trkpt lat="44.84204" lon="4.68249">
        <ele>493.77</ele>
        <time>2021-07-22T09:48:13Z</time>
      </trkpt>
      <trkpt lat="44.84203" lon="4.68249">
        <ele>495.22</ele>
        <time>2021-07-22T09:48:31Z</time>
      </trkpt>
      <trkpt lat="44.84188" lon="4.68245">
        <ele>499.54</ele>
        <time>2021-07-22T09:48:49Z</time>
      </trkpt>
      <trkpt lat="44.84169" lon="4.68242">
        <ele>502.91</ele>
        <time>2021-07-22T09:49:07Z</time>
      </trkpt>
      <trkpt lat="44.84147" lon="4.68239">
        <ele>507.23</ele>
        <time>2021-07-22T09:49:24Z</time>
      </trkpt>
      <trkpt lat="44.84125" lon="4.6823">
        <ele>508.67</ele>
        <time>2021-07-22T09:49:42Z</time>
      </trkpt>
      <trkpt lat="44.84112" lon="4.68235">
        <ele>506.27</ele>
        <time>2021-07-22T09:49:58Z</time>
      </trkpt>
      <trkpt lat="44.84098" lon="4.68238">
        <ele>505.31</ele>
        <time>2021-07-22T09:50:12Z</time>
      </trkpt>
      <trkpt lat="44.84077" lon="4.68242">
        <ele>504.35</ele>
        <time>2021-07-22T09:50:27Z</time>
      </trkpt>
      <trkpt lat="44.84057" lon="4.68256">
        <ele>505.31</ele>
        <time>2021-07-22T09:50:44Z</time>
      </trkpt>
      <trkpt lat="44.84041" lon="4.68263">
        <ele>502.43</ele>
        <time>2021-07-22T09:50:57Z</time>
      </trkpt>
      <trkpt lat="44.84036" lon="4.68265">
        <ele>500.5</ele>
        <time>2021-07-22T09:51:01Z</time>
      </trkpt>
      <trkpt lat="44.84034" lon="4.6827">
        <ele>498.58</ele>
        <time>2021-07-22T09:51:05Z</time>
      </trkpt>
      <trkpt lat="44.84024" lon="4.683">
        <ele>492.81</ele>
        <time>2021-07-22T09:51:22Z</time>
      </trkpt>
      <trkpt lat="44.84013" lon="4.6832">
        <ele>492.81</ele>
        <time>2021-07-22T09:51:37Z</time>
      </trkpt>
      <trkpt lat="44.84011" lon="4.68335">
        <ele>490.89</ele>
        <time>2021-07-22T09:51:44Z</time>
      </trkpt>
      <trkpt lat="44.84006" lon="4.68361">
        <ele>489.45</ele>
        <time>2021-07-22T09:52:02Z</time>
      </trkpt>
      <trkpt lat="44.84002" lon="4.68376">
        <ele>493.77</ele>
        <time>2021-07-22T09:52:16Z</time>
      </trkpt>
      <trkpt lat="44.84008" lon="4.68413">
        <ele>487.53</ele>
        <time>2021-07-22T09:52:28Z</time>
      </trkpt>
      <trkpt lat="44.84007" lon="4.6842">
        <ele>482.72</ele>
        <time>2021-07-22T09:52:35Z</time>
      </trkpt>
      <trkpt lat="44.83999" lon="4.68424">
        <ele>480.32</ele>
        <time>2021-07-22T09:52:50Z</time>
      </trkpt>
      <trkpt lat="44.8399" lon="4.68425">
        <ele>476.95</ele>
        <time>2021-07-22T09:53:01Z</time>
      </trkpt>
      <trkpt lat="44.83988" lon="4.68423">
        <ele>476.47</ele>
        <time>2021-07-22T09:53:05Z</time>
      </trkpt>
      <trkpt lat="44.83983" lon="4.68397">
        <ele>478.39</ele>
        <time>2021-07-22T09:53:23Z</time>
      </trkpt>
      <trkpt lat="44.83983" lon="4.6839">
        <ele>478.39</ele>
        <time>2021-07-22T09:53:27Z</time>
      </trkpt>
      <trkpt lat="44.83983" lon="4.68359">
        <ele>479.35</ele>
        <time>2021-07-22T09:53:45Z</time>
      </trkpt>
      <trkpt lat="44.83983" lon="4.68358">
        <ele>479.35</ele>
        <time>2021-07-22T09:53:46Z</time>
      </trkpt>
      <trkpt lat="44.83987" lon="4.68331">
        <ele>475.51</ele>
        <time>2021-07-22T09:54:01Z</time>
      </trkpt>
      <trkpt lat="44.8399" lon="4.68319">
        <ele>474.55</ele>
        <time>2021-07-22T09:54:08Z</time>
      </trkpt>
      <trkpt lat="44.83997" lon="4.68288">
        <ele>468.3</ele>
        <time>2021-07-22T09:54:25Z</time>
      </trkpt>
      <trkpt lat="44.83996" lon="4.68283">
        <ele>465.9</ele>
        <time>2021-07-22T09:54:30Z</time>
      </trkpt>
      <trkpt lat="44.83996" lon="4.68267">
        <ele>462.53</ele>
        <time>2021-07-22T09:54:44Z</time>
      </trkpt>
      <trkpt lat="44.83996" lon="4.68262">
        <ele>459.65</ele>
        <time>2021-07-22T09:54:57Z</time>
      </trkpt>
      <trkpt lat="44.83994" lon="4.68249">
        <ele>459.17</ele>
        <time>2021-07-22T09:55:10Z</time>
      </trkpt>
      <trkpt lat="44.83993" lon="4.68244">
        <ele>457.72</ele>
        <time>2021-07-22T09:55:31Z</time>
      </trkpt>
      <trkpt lat="44.8399" lon="4.68233">
        <ele>457.72</ele>
        <time>2021-07-22T09:55:40Z</time>
      </trkpt>
      <trkpt lat="44.83985" lon="4.68217">
        <ele>458.69</ele>
        <time>2021-07-22T09:55:52Z</time>
      </trkpt>
      <trkpt lat="44.83983" lon="4.68204">
        <ele>461.09</ele>
        <time>2021-07-22T09:56:01Z</time>
      </trkpt>
      <trkpt lat="44.83979" lon="4.68193">
        <ele>465.42</ele>
        <time>2021-07-22T09:56:10Z</time>
      </trkpt>
      <trkpt lat="44.83971" lon="4.68179">
        <ele>470.7</ele>
        <time>2021-07-22T09:56:20Z</time>
      </trkpt>
      <trkpt lat="44.83967" lon="4.68159">
        <ele>473.11</ele>
        <time>2021-07-22T09:56:36Z</time>
      </trkpt>
      <trkpt lat="44.83963" lon="4.68148">
        <ele>472.63</ele>
        <time>2021-07-22T09:56:44Z</time>
      </trkpt>
      <trkpt lat="44.83968" lon="4.68127">
        <ele>472.14</ele>
        <time>2021-07-22T09:57:00Z</time>
      </trkpt>
      <trkpt lat="44.83981" lon="4.68114">
        <ele>472.14</ele>
        <time>2021-07-22T09:57:14Z</time>
      </trkpt>
      <trkpt lat="44.83993" lon="4.68105">
        <ele>472.63</ele>
        <time>2021-07-22T09:57:30Z</time>
      </trkpt>
      <trkpt lat="44.83988" lon="4.68097">
        <ele>480.8</ele>
        <time>2021-07-22T09:57:44Z</time>
      </trkpt>
      <trkpt lat="44.83984" lon="4.68095">
        <ele>481.76</ele>
        <time>2021-07-22T09:57:48Z</time>
      </trkpt>
      <trkpt lat="44.8397" lon="4.68087">
        <ele>488.49</ele>
        <time>2021-07-22T09:58:02Z</time>
      </trkpt>
      <trkpt lat="44.83956" lon="4.68079">
        <ele>484.64</ele>
        <time>2021-07-22T09:58:16Z</time>
      </trkpt>
      <trkpt lat="44.83948" lon="4.68072">
        <ele>478.87</ele>
        <time>2021-07-22T09:58:23Z</time>
      </trkpt>
      <trkpt lat="44.83939" lon="4.68069">
        <ele>475.03</ele>
        <time>2021-07-22T09:58:28Z</time>
      </trkpt>
      <trkpt lat="44.83927" lon="4.68066">
        <ele>467.34</ele>
        <time>2021-07-22T09:58:39Z</time>
      </trkpt>
      <trkpt lat="44.83915" lon="4.68067">
        <ele>459.65</ele>
        <time>2021-07-22T09:58:54Z</time>
      </trkpt>
      <trkpt lat="44.83909" lon="4.68058">
        <ele>443.79</ele>
        <time>2021-07-22T09:59:09Z</time>
      </trkpt>
      <trkpt lat="44.8391" lon="4.68055">
        <ele>440.42</ele>
        <time>2021-07-22T09:59:16Z</time>
      </trkpt>
      <trkpt lat="44.8391" lon="4.68049">
        <ele>440.42</ele>
        <time>2021-07-22T09:59:21Z</time>
      </trkpt>
      <trkpt lat="44.8391" lon="4.68046">
        <ele>440.42</ele>
        <time>2021-07-22T09:59:24Z</time>
      </trkpt>
      <trkpt lat="44.83913" lon="4.68025">
        <ele>437.54</ele>
        <time>2021-07-22T09:59:41Z</time>
      </trkpt>
      <trkpt lat="44.83918" lon="4.68008">
        <ele>433.21</ele>
        <time>2021-07-22T09:59:56Z</time>
      </trkpt>
      <trkpt lat="44.8392" lon="4.67994">
        <ele>433.69</ele>
        <time>2021-07-22T10:00:08Z</time>
      </trkpt>
      <trkpt lat="44.83919" lon="4.67987">
        <ele>434.65</ele>
        <time>2021-07-22T10:00:13Z</time>
      </trkpt>
      <trkpt lat="44.83913" lon="4.67972">
        <ele>439.94</ele>
        <time>2021-07-22T10:00:27Z</time>
      </trkpt>
      <trkpt lat="44.83905" lon="4.67958">
        <ele>445.23</ele>
        <time>2021-07-22T10:00:43Z</time>
      </trkpt>
      <trkpt lat="44.83893" lon="4.67952">
        <ele>449.55</ele>
        <time>2021-07-22T10:00:58Z</time>
      </trkpt>
      <trkpt lat="44.83883" lon="4.67952">
        <ele>458.69</ele>
        <time>2021-07-22T10:01:12Z</time>
      </trkpt>
      <trkpt lat="44.83877" lon="4.6793">
        <ele>444.75</ele>
        <time>2021-07-22T10:01:27Z</time>
      </trkpt>
      <trkpt lat="44.83883" lon="4.67926">
        <ele>438.02</ele>
        <time>2021-07-22T10:01:44Z</time>
      </trkpt>
      <trkpt lat="44.83883" lon="4.67925">
        <ele>430.81</ele>
        <time>2021-07-22T10:02:06Z</time>
      </trkpt>
      <trkpt lat="44.83884" lon="4.67921">
        <ele>424.56</ele>
        <time>2021-07-22T10:02:22Z</time>
      </trkpt>
      <trkpt lat="44.83891" lon="4.67913">
        <ele>421.68</ele>
        <time>2021-07-22T10:02:37Z</time>
      </trkpt>
      <trkpt lat="44.839" lon="4.67907">
        <ele>419.75</ele>
        <time>2021-07-22T10:02:52Z</time>
      </trkpt>
      <trkpt lat="44.83912" lon="4.67894">
        <ele>418.31</ele>
        <time>2021-07-22T10:03:06Z</time>
      </trkpt>
      <trkpt lat="44.83924" lon="4.67883">
        <ele>421.68</ele>
        <time>2021-07-22T10:03:21Z</time>
      </trkpt>
      <trkpt lat="44.83921" lon="4.67874">
        <ele>429.37</ele>
        <time>2021-07-22T10:03:37Z</time>
      </trkpt>
      <trkpt lat="44.83908" lon="4.67866">
        <ele>425.52</ele>
        <time>2021-07-22T10:03:52Z</time>
      </trkpt>
      <trkpt lat="44.83898" lon="4.67871">
        <ele>415.43</ele>
        <time>2021-07-22T10:04:08Z</time>
      </trkpt>
      <trkpt lat="44.83883" lon="4.6787">
        <ele>404.37</ele>
        <time>2021-07-22T10:04:27Z</time>
      </trkpt>
      <trkpt lat="44.83869" lon="4.6787">
        <ele>401.49</ele>
        <time>2021-07-22T10:04:43Z</time>
      </trkpt>
      <trkpt lat="44.83842" lon="4.67868">
        <ele>402.45</ele>
        <time>2021-07-22T10:05:01Z</time>
      </trkpt>
      <trkpt lat="44.83822" lon="4.6787">
        <ele>403.41</ele>
        <time>2021-07-22T10:05:19Z</time>
      </trkpt>
      <trkpt lat="44.83809" lon="4.67872">
        <ele>404.85</ele>
        <time>2021-07-22T10:05:36Z</time>
      </trkpt>
      <trkpt lat="44.83788" lon="4.67873">
        <ele>404.37</ele>
        <time>2021-07-22T10:05:51Z</time>
      </trkpt>
      <trkpt lat="44.83769" lon="4.67876">
        <ele>404.85</ele>
        <time>2021-07-22T10:06:05Z</time>
      </trkpt>
      <trkpt lat="44.83748" lon="4.67878">
        <ele>403.89</ele>
        <time>2021-07-22T10:06:23Z</time>
      </trkpt>
      <trkpt lat="44.83732" lon="4.67881">
        <ele>403.41</ele>
        <time>2021-07-22T10:06:38Z</time>
      </trkpt>
      <trkpt lat="44.83722" lon="4.67879">
        <ele>404.37</ele>
        <time>2021-07-22T10:06:55Z</time>
      </trkpt>
      <trkpt lat="44.83708" lon="4.6787">
        <ele>404.85</ele>
        <time>2021-07-22T10:07:12Z</time>
      </trkpt>
      <trkpt lat="44.83686" lon="4.67867">
        <ele>394.28</ele>
        <time>2021-07-22T10:07:30Z</time>
      </trkpt>
      <trkpt lat="44.83671" lon="4.6787">
        <ele>388.51</ele>
        <time>2021-07-22T10:07:51Z</time>
      </trkpt>
      <trkpt lat="44.83658" lon="4.6787">
        <ele>382.74</ele>
        <time>2021-07-22T10:08:09Z</time>
      </trkpt>
      <trkpt lat="44.83639" lon="4.67872">
        <ele>378.42</ele>
        <time>2021-07-22T10:08:27Z</time>
      </trkpt>
      <trkpt lat="44.83627" lon="4.67874">
        <ele>376.97</ele>
        <time>2021-07-22T10:08:43Z</time>
      </trkpt>
      <trkpt lat="44.83621" lon="4.6788">
        <ele>374.09</ele>
        <time>2021-07-22T10:08:59Z</time>
      </trkpt>
      <trkpt lat="44.83609" lon="4.67879">
        <ele>375.05</ele>
        <time>2021-07-22T10:09:13Z</time>
      </trkpt>
      <trkpt lat="44.83591" lon="4.67874">
        <ele>376.01</ele>
        <time>2021-07-22T10:09:29Z</time>
      </trkpt>
      <trkpt lat="44.83576" lon="4.67858">
        <ele>373.13</ele>
        <time>2021-07-22T10:09:50Z</time>
      </trkpt>
      <trkpt lat="44.83577" lon="4.67862">
        <ele>366.88</ele>
        <time>2021-07-22T10:10:06Z</time>
      </trkpt>
      <trkpt lat="44.83568" lon="4.67863">
        <ele>363.52</ele>
        <time>2021-07-22T10:10:20Z</time>
      </trkpt>
      <trkpt lat="44.83558" lon="4.67855">
        <ele>358.71</ele>
        <time>2021-07-22T10:10:39Z</time>
      </trkpt>
      <trkpt lat="44.83541" lon="4.67855">
        <ele>354.86</ele>
        <time>2021-07-22T10:10:53Z</time>
      </trkpt>
      <trkpt lat="44.83523" lon="4.6786">
        <ele>353.9</ele>
        <time>2021-07-22T10:11:08Z</time>
      </trkpt>
      <trkpt lat="44.83513" lon="4.67878">
        <ele>351.5</ele>
        <time>2021-07-22T10:11:25Z</time>
      </trkpt>
      <trkpt lat="44.83503" lon="4.67894">
        <ele>353.42</ele>
        <time>2021-07-22T10:11:40Z</time>
      </trkpt>
      <trkpt lat="44.83493" lon="4.6791">
        <ele>353.9</ele>
        <time>2021-07-22T10:11:56Z</time>
      </trkpt>
      <trkpt lat="44.8348" lon="4.67919">
        <ele>355.83</ele>
        <time>2021-07-22T10:12:11Z</time>
      </trkpt>
      <trkpt lat="44.83471" lon="4.67938">
        <ele>351.02</ele>
        <time>2021-07-22T10:12:26Z</time>
      </trkpt>
      <trkpt lat="44.83462" lon="4.67942">
        <ele>341.89</ele>
        <time>2021-07-22T10:12:41Z</time>
      </trkpt>
      <trkpt lat="44.83445" lon="4.67937">
        <ele>338.04</ele>
        <time>2021-07-22T10:12:56Z</time>
      </trkpt>
      <trkpt lat="44.83435" lon="4.67931">
        <ele>328.43</ele>
        <time>2021-07-22T10:13:11Z</time>
      </trkpt>
      <trkpt lat="44.83432" lon="4.67934">
        <ele>325.54</ele>
        <time>2021-07-22T10:13:23Z</time>
      </trkpt>
      <trkpt lat="44.83427" lon="4.67934">
        <ele>325.06</ele>
        <time>2021-07-22T10:13:37Z</time>
      </trkpt>
      <trkpt lat="44.83426" lon="4.67934">
        <ele>325.06</ele>
        <time>2021-07-22T10:13:39Z</time>
      </trkpt>
      <trkpt lat="44.83418" lon="4.6793">
        <ele>320.26</ele>
        <time>2021-07-22T10:13:57Z</time>
      </trkpt>
      <trkpt lat="44.83416" lon="4.67932">
        <ele>317.37</ele>
        <time>2021-07-22T10:14:22Z</time>
      </trkpt>
      <trkpt lat="44.83414" lon="4.67937">
        <ele>315.45</ele>
        <time>2021-07-22T10:14:37Z</time>
      </trkpt>
      <trkpt lat="44.83408" lon="4.6794">
        <ele>319.3</ele>
        <time>2021-07-22T10:14:56Z</time>
      </trkpt>
      <trkpt lat="44.834" lon="4.67935">
        <ele>322.18</ele>
        <time>2021-07-22T10:15:15Z</time>
      </trkpt>
      <trkpt lat="44.83387" lon="4.67935">
        <ele>324.58</ele>
        <time>2021-07-22T10:15:35Z</time>
      </trkpt>
      <trkpt lat="44.83377" lon="4.67934">
        <ele>319.3</ele>
        <time>2021-07-22T10:15:51Z</time>
      </trkpt>
      <trkpt lat="44.83361" lon="4.67936">
        <ele>318.81</ele>
        <time>2021-07-22T10:16:09Z</time>
      </trkpt>
      <trkpt lat="44.83345" lon="4.67939">
        <ele>316.89</ele>
        <time>2021-07-22T10:16:26Z</time>
      </trkpt>
      <trkpt lat="44.83328" lon="4.67947">
        <ele>314.49</ele>
        <time>2021-07-22T10:16:42Z</time>
      </trkpt>
      <trkpt lat="44.83312" lon="4.67952">
        <ele>309.2</ele>
        <time>2021-07-22T10:16:59Z</time>
      </trkpt>
      <trkpt lat="44.83301" lon="4.67951">
        <ele>301.51</ele>
        <time>2021-07-22T10:17:13Z</time>
      </trkpt>
      <trkpt lat="44.83294" lon="4.67952">
        <ele>296.7</ele>
        <time>2021-07-22T10:17:28Z</time>
      </trkpt>
      <trkpt lat="44.83287" lon="4.67955">
        <ele>292.38</ele>
        <time>2021-07-22T10:17:44Z</time>
      </trkpt>
      <trkpt lat="44.83273" lon="4.6796">
        <ele>288.53</ele>
        <time>2021-07-22T10:18:02Z</time>
      </trkpt>
      <trkpt lat="44.83267" lon="4.67964">
        <ele>289.49</ele>
        <time>2021-07-22T10:18:21Z</time>
      </trkpt>
      <trkpt lat="44.83256" lon="4.67959">
        <ele>287.57</ele>
        <time>2021-07-22T10:18:40Z</time>
      </trkpt>
      <trkpt lat="44.83246" lon="4.67961">
        <ele>286.13</ele>
        <time>2021-07-22T10:18:56Z</time>
      </trkpt>
      <trkpt lat="44.83239" lon="4.67957">
        <ele>283.25</ele>
        <time>2021-07-22T10:19:13Z</time>
      </trkpt>
      <trkpt lat="44.83232" lon="4.67954">
        <ele>282.77</ele>
        <time>2021-07-22T10:19:34Z</time>
      </trkpt>
      <trkpt lat="44.83223" lon="4.67957">
        <ele>278.44</ele>
        <time>2021-07-22T10:19:53Z</time>
      </trkpt>
      <trkpt lat="44.83212" lon="4.67964">
        <ele>278.92</ele>
        <time>2021-07-22T10:20:09Z</time>
      </trkpt>
      <trkpt lat="44.83199" lon="4.67972">
        <ele>277</ele>
        <time>2021-07-22T10:20:26Z</time>
      </trkpt>
      <trkpt lat="44.8319" lon="4.67976">
        <ele>275.56</ele>
        <time>2021-07-22T10:20:41Z</time>
      </trkpt>
      <trkpt lat="44.83185" lon="4.67984">
        <ele>269.79</ele>
        <time>2021-07-22T10:21:04Z</time>
      </trkpt>
      <trkpt lat="44.8318" lon="4.67993">
        <ele>264.5</ele>
        <time>2021-07-22T10:21:24Z</time>
      </trkpt>
      <trkpt lat="44.83171" lon="4.67992">
        <ele>262.58</ele>
        <time>2021-07-22T10:21:40Z</time>
      </trkpt>
      <trkpt lat="44.83163" lon="4.68001">
        <ele>256.33</ele>
        <time>2021-07-22T10:22:01Z</time>
      </trkpt>
      <trkpt lat="44.83155" lon="4.68008">
        <ele>252</ele>
        <time>2021-07-22T10:22:19Z</time>
      </trkpt>
      <trkpt lat="44.83147" lon="4.68013">
        <ele>249.12</ele>
        <time>2021-07-22T10:22:36Z</time>
      </trkpt>
      <trkpt lat="44.83136" lon="4.68017">
        <ele>247.2</ele>
        <time>2021-07-22T10:22:53Z</time>
      </trkpt>
      <trkpt lat="44.8313" lon="4.68022">
        <ele>243.83</ele>
        <time>2021-07-22T10:23:08Z</time>
      </trkpt>
      <trkpt lat="44.83122" lon="4.68031">
        <ele>241.43</ele>
        <time>2021-07-22T10:23:26Z</time>
      </trkpt>
      <trkpt lat="44.83115" lon="4.68035">
        <ele>237.1</ele>
        <time>2021-07-22T10:23:41Z</time>
      </trkpt>
      <trkpt lat="44.83104" lon="4.68038">
        <ele>236.14</ele>
        <time>2021-07-22T10:23:57Z</time>
      </trkpt>
      <trkpt lat="44.83093" lon="4.68032">
        <ele>231.33</ele>
        <time>2021-07-22T10:24:14Z</time>
      </trkpt>
      <trkpt lat="44.83087" lon="4.68034">
        <ele>227.01</ele>
        <time>2021-07-22T10:24:31Z</time>
      </trkpt>
      <trkpt lat="44.83083" lon="4.68036">
        <ele>226.53</ele>
        <time>2021-07-22T10:24:45Z</time>
      </trkpt>
      <trkpt lat="44.83081" lon="4.68039">
        <ele>227.01</ele>
        <time>2021-07-22T10:25:01Z</time>
      </trkpt>
      <trkpt lat="44.83079" lon="4.68038">
        <ele>225.57</ele>
        <time>2021-07-22T10:25:25Z</time>
      </trkpt>
      <trkpt lat="44.83074" lon="4.68046">
        <ele>225.57</ele>
        <time>2021-07-22T10:25:41Z</time>
      </trkpt>
      <trkpt lat="44.83066" lon="4.68054">
        <ele>225.57</ele>
        <time>2021-07-22T10:25:58Z</time>
      </trkpt>
      <trkpt lat="44.83061" lon="4.68056">
        <ele>220.28</ele>
        <time>2021-07-22T10:26:14Z</time>
      </trkpt>
      <trkpt lat="44.83057" lon="4.68055">
        <ele>218.84</ele>
        <time>2021-07-22T10:26:48Z</time>
      </trkpt>
      <trkpt lat="44.83056" lon="4.68062">
        <ele>217.88</ele>
        <time>2021-07-22T10:27:02Z</time>
      </trkpt>
      <trkpt lat="44.83054" lon="4.68069">
        <ele>218.36</ele>
        <time>2021-07-22T10:27:16Z</time>
      </trkpt>
      <trkpt lat="44.83056" lon="4.68082">
        <ele>215.47</ele>
        <time>2021-07-22T10:27:35Z</time>
      </trkpt>
      <trkpt lat="44.83051" lon="4.68092">
        <ele>211.15</ele>
        <time>2021-07-22T10:27:52Z</time>
      </trkpt>
      <trkpt lat="44.83046" lon="4.68091">
        <ele>204.9</ele>
        <time>2021-07-22T10:28:10Z</time>
      </trkpt>
      <trkpt lat="44.83046" lon="4.68085">
        <ele>200.09</ele>
        <time>2021-07-22T10:28:45Z</time>
      </trkpt>
      <trkpt lat="44.83042" lon="4.68079">
        <ele>202.98</ele>
        <time>2021-07-22T10:29:04Z</time>
      </trkpt>
      <trkpt lat="44.83038" lon="4.68082">
        <ele>199.13</ele>
        <time>2021-07-22T10:29:31Z</time>
      </trkpt>
      <trkpt lat="44.83039" lon="4.68081">
        <ele>198.17</ele>
        <time>2021-07-22T10:29:53Z</time>
      </trkpt>
      <trkpt lat="44.83036" lon="4.68083">
        <ele>196.73</ele>
        <time>2021-07-22T10:30:12Z</time>
      </trkpt>
      <trkpt lat="44.83031" lon="4.6808">
        <ele>194.32</ele>
        <time>2021-07-22T10:30:29Z</time>
      </trkpt>
      <trkpt lat="44.8303" lon="4.68086">
        <ele>192.88</ele>
        <time>2021-07-22T10:30:41Z</time>
      </trkpt>
      <trkpt lat="44.83029" lon="4.68094">
        <ele>192.88</ele>
        <time>2021-07-22T10:30:55Z</time>
      </trkpt>
      <trkpt lat="44.8303" lon="4.68106">
        <ele>191.92</ele>
        <time>2021-07-22T10:31:07Z</time>
      </trkpt>
      <trkpt lat="44.83037" lon="4.68119">
        <ele>190.96</ele>
        <time>2021-07-22T10:31:21Z</time>
      </trkpt>
      <trkpt lat="44.83037" lon="4.6812">
        <ele>190</ele>
        <time>2021-07-22T10:31:34Z</time>
      </trkpt>
      <trkpt lat="44.83035" lon="4.6812">
        <ele>190.48</ele>
        <time>2021-07-22T10:31:36Z</time>
      </trkpt>
      <trkpt lat="44.83029" lon="4.68112">
        <ele>190.96</ele>
        <time>2021-07-22T10:31:44Z</time>
      </trkpt>
      <trkpt lat="44.83029" lon="4.68095">
        <ele>192.4</ele>
        <time>2021-07-22T10:31:56Z</time>
      </trkpt>
      <trkpt lat="44.83029" lon="4.68083">
        <ele>196.73</ele>
        <time>2021-07-22T10:32:10Z</time>
      </trkpt>
      <trkpt lat="44.83028" lon="4.68075">
        <ele>197.21</ele>
        <time>2021-07-22T10:32:27Z</time>
      </trkpt>
      <trkpt lat="44.83028" lon="4.68069">
        <ele>196.73</ele>
        <time>2021-07-22T10:32:43Z</time>
      </trkpt>
      <trkpt lat="44.83029" lon="4.68077">
        <ele>196.73</ele>
        <time>2021-07-22T10:32:59Z</time>
      </trkpt>
      <trkpt lat="44.83029" lon="4.68088">
        <ele>198.17</ele>
        <time>2021-07-22T10:33:12Z</time>
      </trkpt>
      <trkpt lat="44.83029" lon="4.68097">
        <ele>196.25</ele>
        <time>2021-07-22T10:33:28Z</time>
      </trkpt>
      <trkpt lat="44.83028" lon="4.68109">
        <ele>193.36</ele>
        <time>2021-07-22T10:33:42Z</time>
      </trkpt>
      <trkpt lat="44.83035" lon="4.68118">
        <ele>191.92</ele>
        <time>2021-07-22T10:33:57Z</time>
      </trkpt>
      <trkpt lat="44.83041" lon="4.68122">
        <ele>190.96</ele>
        <time>2021-07-22T10:34:11Z</time>
      </trkpt>
      <trkpt lat="44.83047" lon="4.68126">
        <ele>193.84</ele>
        <time>2021-07-22T10:34:26Z</time>
      </trkpt>
      <trkpt lat="44.83054" lon="4.68128">
        <ele>196.25</ele>
        <time>2021-07-22T10:34:39Z</time>
      </trkpt>
      <trkpt lat="44.83062" lon="4.68126">
        <ele>197.69</ele>
        <time>2021-07-22T10:34:57Z</time>
      </trkpt>
      <trkpt lat="44.83065" lon="4.68128">
        <ele>196.73</ele>
        <time>2021-07-22T10:35:11Z</time>
      </trkpt>
      <trkpt lat="44.8307" lon="4.68128">
        <ele>195.77</ele>
        <time>2021-07-22T10:35:26Z</time>
      </trkpt>
      <trkpt lat="44.8308" lon="4.68128">
        <ele>193.84</ele>
        <time>2021-07-22T10:35:41Z</time>
      </trkpt>
      <trkpt lat="44.83083" lon="4.68136">
        <ele>190.48</ele>
        <time>2021-07-22T10:35:58Z</time>
      </trkpt>
      <trkpt lat="44.8309" lon="4.68141">
        <ele>189.52</ele>
        <time>2021-07-22T10:36:13Z</time>
      </trkpt>
      <trkpt lat="44.83091" lon="4.68143">
        <ele>189.52</ele>
        <time>2021-07-22T10:36:15Z</time>
      </trkpt>
      <trkpt lat="44.83099" lon="4.68143">
        <ele>190.96</ele>
        <time>2021-07-22T10:36:31Z</time>
      </trkpt>
      <trkpt lat="44.83092" lon="4.68145">
        <ele>191.92</ele>
        <time>2021-07-22T10:36:45Z</time>
      </trkpt>
      <trkpt lat="44.83082" lon="4.68147">
        <ele>193.84</ele>
        <time>2021-07-22T10:37:01Z</time>
      </trkpt>
      <trkpt lat="44.83078" lon="4.68149">
        <ele>192.88</ele>
        <time>2021-07-22T10:37:15Z</time>
      </trkpt>
      <trkpt lat="44.83077" lon="4.68146">
        <ele>192.4</ele>
        <time>2021-07-22T10:37:28Z</time>
      </trkpt>
      <trkpt lat="44.83075" lon="4.68147">
        <ele>190.48</ele>
        <time>2021-07-22T10:37:46Z</time>
      </trkpt>
      <trkpt lat="44.83076" lon="4.68144">
        <ele>191.44</ele>
        <time>2021-07-22T10:38:00Z</time>
      </trkpt>
      <trkpt lat="44.83077" lon="4.6815">
        <ele>189.52</ele>
        <time>2021-07-22T10:38:11Z</time>
      </trkpt>
      <trkpt lat="44.83077" lon="4.68151">
        <ele>186.63</ele>
        <time>2021-07-22T10:38:27Z</time>
      </trkpt>
      <trkpt lat="44.83075" lon="4.68144">
        <ele>186.15</ele>
        <time>2021-07-22T10:38:41Z</time>
      </trkpt>
      <trkpt lat="44.83075" lon="4.6814">
        <ele>187.11</ele>
        <time>2021-07-22T10:38:57Z</time>
      </trkpt>
      <trkpt lat="44.83082" lon="4.68147">
        <ele>187.59</ele>
        <time>2021-07-22T10:39:21Z</time>
      </trkpt>
      <trkpt lat="44.83083" lon="4.68145">
        <ele>188.08</ele>
        <time>2021-07-22T10:39:46Z</time>
      </trkpt>
      <trkpt lat="44.83077" lon="4.6814">
        <ele>185.19</ele>
        <time>2021-07-22T10:40:05Z</time>
      </trkpt>
      <trkpt lat="44.83074" lon="4.68144">
        <ele>184.23</ele>
        <time>2021-07-22T10:40:33Z</time>
      </trkpt>
      <trkpt lat="44.83076" lon="4.68144">
        <ele>182.31</ele>
        <time>2021-07-22T10:40:58Z</time>
      </trkpt>
      <trkpt lat="44.8307" lon="4.6815">
        <ele>183.27</ele>
        <time>2021-07-22T10:41:12Z</time>
      </trkpt>
      <trkpt lat="44.83061" lon="4.68155">
        <ele>185.67</ele>
        <time>2021-07-22T10:41:27Z</time>
      </trkpt>
      <trkpt lat="44.83048" lon="4.68157">
        <ele>188.56</ele>
        <time>2021-07-22T10:41:41Z</time>
      </trkpt>
      <trkpt lat="44.83038" lon="4.68156">
        <ele>189.04</ele>
        <time>2021-07-22T10:41:56Z</time>
      </trkpt>
      <trkpt lat="44.83035" lon="4.68156">
        <ele>186.63</ele>
        <time>2021-07-22T10:42:08Z</time>
      </trkpt>
      <trkpt lat="44.83029" lon="4.68158">
        <ele>183.75</ele>
        <time>2021-07-22T10:42:20Z</time>
      </trkpt>
      <trkpt lat="44.83027" lon="4.68161">
        <ele>184.23</ele>
        <time>2021-07-22T10:42:33Z</time>
      </trkpt>
      <trkpt lat="44.83026" lon="4.68163">
        <ele>184.23</ele>
        <time>2021-07-22T10:42:39Z</time>
      </trkpt>
      <trkpt lat="44.83023" lon="4.68162">
        <ele>184.71</ele>
        <time>2021-07-22T10:42:45Z</time>
      </trkpt>
      <trkpt lat="44.83008" lon="4.68157">
        <ele>189.52</ele>
        <time>2021-07-22T10:43:03Z</time>
      </trkpt>
      <trkpt lat="44.82993" lon="4.6815">
        <ele>190.96</ele>
        <time>2021-07-22T10:43:19Z</time>
      </trkpt>
      <trkpt lat="44.82993" lon="4.6815">
        <ele>190.48</ele>
        <time>2021-07-22T10:43:21Z</time>
      </trkpt>
      <trkpt lat="44.82989" lon="4.68137">
        <ele>190</ele>
        <time>2021-07-22T10:43:35Z</time>
      </trkpt>
      <trkpt lat="44.82984" lon="4.68128">
        <ele>190.48</ele>
        <time>2021-07-22T10:43:52Z</time>
      </trkpt>
      <trkpt lat="44.82972" lon="4.68102">
        <ele>171.73</ele>
        <time>2021-07-22T10:44:08Z</time>
      </trkpt>
      <trkpt lat="44.82969" lon="4.6809">
        <ele>168.85</ele>
        <time>2021-07-22T10:44:15Z</time>
      </trkpt>
      <trkpt lat="44.8297" lon="4.68067">
        <ele>166.45</ele>
        <time>2021-07-22T10:44:26Z</time>
      </trkpt>
      <trkpt lat="44.82965" lon="4.68055">
        <ele>161.64</ele>
        <time>2021-07-22T10:44:35Z</time>
      </trkpt>
      <trkpt lat="44.8296" lon="4.68029">
        <ele>158.75</ele>
        <time>2021-07-22T10:44:52Z</time>
      </trkpt>
      <trkpt lat="44.82956" lon="4.68006">
        <ele>155.87</ele>
        <time>2021-07-22T10:45:08Z</time>
      </trkpt>
      <trkpt lat="44.82952" lon="4.67982">
        <ele>157.79</ele>
        <time>2021-07-22T10:45:24Z</time>
      </trkpt>
      <trkpt lat="44.82952" lon="4.67965">
        <ele>156.35</ele>
        <time>2021-07-22T10:45:37Z</time>
      </trkpt>
      <trkpt lat="44.82953" lon="4.67951">
        <ele>157.31</ele>
        <time>2021-07-22T10:45:50Z</time>
      </trkpt>
      <trkpt lat="44.82955" lon="4.67931">
        <ele>155.87</ele>
        <time>2021-07-22T10:46:04Z</time>
      </trkpt>
      <trkpt lat="44.82955" lon="4.67915">
        <ele>155.39</ele>
        <time>2021-07-22T10:46:17Z</time>
      </trkpt>
      <trkpt lat="44.82955" lon="4.67893">
        <ele>154.91</ele>
        <time>2021-07-22T10:46:31Z</time>
      </trkpt>
      <trkpt lat="44.82954" lon="4.67866">
        <ele>152.99</ele>
        <time>2021-07-22T10:46:48Z</time>
      </trkpt>
      <trkpt lat="44.82955" lon="4.67841">
        <ele>152.03</ele>
        <time>2021-07-22T10:47:03Z</time>
      </trkpt>
      <trkpt lat="44.82957" lon="4.6782">
        <ele>150.58</ele>
        <time>2021-07-22T10:47:17Z</time>
      </trkpt>
      <trkpt lat="44.82956" lon="4.67818">
        <ele>150.1</ele>
        <time>2021-07-22T10:47:19Z</time>
      </trkpt>
      <trkpt lat="44.82955" lon="4.67808">
        <ele>149.62</ele>
        <time>2021-07-22T10:47:25Z</time>
      </trkpt>
      <trkpt lat="44.82961" lon="4.67785">
        <ele>148.66</ele>
        <time>2021-07-22T10:47:41Z</time>
      </trkpt>
      <trkpt lat="44.82963" lon="4.67774">
        <ele>148.66</ele>
        <time>2021-07-22T10:47:48Z</time>
      </trkpt>
      <trkpt lat="44.82959" lon="4.67764">
        <ele>146.26</ele>
        <time>2021-07-22T10:48:01Z</time>
      </trkpt>
      <trkpt lat="44.82954" lon="4.67748">
        <ele>144.82</ele>
        <time>2021-07-22T10:48:15Z</time>
      </trkpt>
      <trkpt lat="44.82947" lon="4.67729">
        <ele>143.37</ele>
        <time>2021-07-22T10:48:30Z</time>
      </trkpt>
      <trkpt lat="44.82946" lon="4.67728">
        <ele>142.89</ele>
        <time>2021-07-22T10:48:31Z</time>
      </trkpt>
      <trkpt lat="44.82942" lon="4.6771">
        <ele>143.37</ele>
        <time>2021-07-22T10:48:42Z</time>
      </trkpt>
      <trkpt lat="44.8294" lon="4.67708">
        <ele>144.82</ele>
        <time>2021-07-22T10:48:44Z</time>
      </trkpt>
      <trkpt lat="44.82935" lon="4.67702">
        <ele>147.7</ele>
        <time>2021-07-22T10:48:48Z</time>
      </trkpt>
      <trkpt lat="44.82928" lon="4.67682">
        <ele>159.24</ele>
        <time>2021-07-22T10:49:05Z</time>
      </trkpt>
      <trkpt lat="44.82925" lon="4.6767">
        <ele>164.04</ele>
        <time>2021-07-22T10:49:13Z</time>
      </trkpt>
      <trkpt lat="44.82918" lon="4.67648">
        <ele>169.81</ele>
        <time>2021-07-22T10:49:29Z</time>
      </trkpt>
      <trkpt lat="44.8291" lon="4.67628">
        <ele>167.41</ele>
        <time>2021-07-22T10:49:42Z</time>
      </trkpt>
      <trkpt lat="44.82905" lon="4.67611">
        <ele>167.89</ele>
        <time>2021-07-22T10:49:58Z</time>
      </trkpt>
      <trkpt lat="44.82906" lon="4.6761">
        <ele>168.85</ele>
        <time>2021-07-22T10:50:16Z</time>
      </trkpt>
      <trkpt lat="44.82905" lon="4.67613">
        <ele>169.81</ele>
        <time>2021-07-22T10:50:40Z</time>
      </trkpt>
      <trkpt lat="44.82899" lon="4.67614">
        <ele>169.81</ele>
        <time>2021-07-22T10:51:02Z</time>
      </trkpt>
      <trkpt lat="44.82901" lon="4.67613">
        <ele>168.85</ele>
        <time>2021-07-22T10:51:21Z</time>
      </trkpt>
      <trkpt lat="44.82899" lon="4.67615">
        <ele>167.89</ele>
        <time>2021-07-22T10:51:49Z</time>
      </trkpt>
      <trkpt lat="44.829" lon="4.67616">
        <ele>169.33</ele>
        <time>2021-07-22T10:52:19Z</time>
      </trkpt>
      <trkpt lat="44.82897" lon="4.67614">
        <ele>166.93</ele>
        <time>2021-07-22T10:52:46Z</time>
      </trkpt>
      <trkpt lat="44.82895" lon="4.67615">
        <ele>166.93</ele>
        <time>2021-07-22T10:53:09Z</time>
      </trkpt>
      <trkpt lat="44.82896" lon="4.67614">
        <ele>166.93</ele>
        <time>2021-07-22T10:53:36Z</time>
      </trkpt>
      <trkpt lat="44.82899" lon="4.67612">
        <ele>165.48</ele>
        <time>2021-07-22T10:53:59Z</time>
      </trkpt>
      <trkpt lat="44.82904" lon="4.67614">
        <ele>167.89</ele>
        <time>2021-07-22T10:54:21Z</time>
      </trkpt>
      <trkpt lat="44.82902" lon="4.67613">
        <ele>173.17</ele>
        <time>2021-07-22T10:54:47Z</time>
      </trkpt>
      <trkpt lat="44.82908" lon="4.67616">
        <ele>165.48</ele>
        <time>2021-07-22T10:55:10Z</time>
      </trkpt>
      <trkpt lat="44.82905" lon="4.67613">
        <ele>163.08</ele>
        <time>2021-07-22T10:55:45Z</time>
      </trkpt>
      <trkpt lat="44.82906" lon="4.67609">
        <ele>156.35</ele>
        <time>2021-07-22T10:56:17Z</time>
      </trkpt>
      <trkpt lat="44.82909" lon="4.67611">
        <ele>152.03</ele>
        <time>2021-07-22T10:56:43Z</time>
      </trkpt>
      <trkpt lat="44.82905" lon="4.67607">
        <ele>154.91</ele>
        <time>2021-07-22T10:57:13Z</time>
      </trkpt>
      <trkpt lat="44.82907" lon="4.6761">
        <ele>153.47</ele>
        <time>2021-07-22T10:57:44Z</time>
      </trkpt>
      <trkpt lat="44.82912" lon="4.67611">
        <ele>150.1</ele>
        <time>2021-07-22T10:58:18Z</time>
      </trkpt>
      <trkpt lat="44.82909" lon="4.6761">
        <ele>153.47</ele>
        <time>2021-07-22T10:58:54Z</time>
      </trkpt>
      <trkpt lat="44.82905" lon="4.67611">
        <ele>158.27</ele>
        <time>2021-07-22T10:59:18Z</time>
      </trkpt>
      <trkpt lat="44.82907" lon="4.67609">
        <ele>154.43</ele>
        <time>2021-07-22T10:59:41Z</time>
      </trkpt>
      <trkpt lat="44.82904" lon="4.67599">
        <ele>149.62</ele>
        <time>2021-07-22T11:00:18Z</time>
      </trkpt>
      <trkpt lat="44.82902" lon="4.67598">
        <ele>148.18</ele>
        <time>2021-07-22T11:00:50Z</time>
      </trkpt>
      <trkpt lat="44.82904" lon="4.67599">
        <ele>150.58</ele>
        <time>2021-07-22T11:01:20Z</time>
      </trkpt>
      <trkpt lat="44.82902" lon="4.676">
        <ele>155.39</ele>
        <time>2021-07-22T11:01:53Z</time>
      </trkpt>
      <trkpt lat="44.82904" lon="4.6761">
        <ele>159.72</ele>
        <time>2021-07-22T11:02:15Z</time>
      </trkpt>
      <trkpt lat="44.82907" lon="4.67613">
        <ele>161.16</ele>
        <time>2021-07-22T11:02:43Z</time>
      </trkpt>
      <trkpt lat="44.82904" lon="4.67613">
        <ele>163.08</ele>
        <time>2021-07-22T11:03:11Z</time>
      </trkpt>
      <trkpt lat="44.82908" lon="4.6761">
        <ele>164.52</ele>
        <time>2021-07-22T11:03:40Z</time>
      </trkpt>
      <trkpt lat="44.82905" lon="4.67611">
        <ele>165.48</ele>
        <time>2021-07-22T11:04:09Z</time>
      </trkpt>
      <trkpt lat="44.82906" lon="4.67615">
        <ele>166.45</ele>
        <time>2021-07-22T11:04:44Z</time>
      </trkpt>
      <trkpt lat="44.82906" lon="4.67615">
        <ele>168.85</ele>
        <time>2021-07-22T11:05:16Z</time>
      </trkpt>
      <trkpt lat="44.82908" lon="4.67615">
        <ele>166.93</ele>
        <time>2021-07-22T11:05:49Z</time>
      </trkpt>
      <trkpt lat="44.82905" lon="4.67609">
        <ele>165.48</ele>
        <time>2021-07-22T11:06:18Z</time>
      </trkpt>
      <trkpt lat="44.82905" lon="4.67609">
        <ele>165.96</ele>
        <time>2021-07-22T11:06:44Z</time>
      </trkpt>
      <trkpt lat="44.82907" lon="4.67611">
        <ele>162.6</ele>
        <time>2021-07-22T11:07:09Z</time>
      </trkpt>
      <trkpt lat="44.82905" lon="4.67616">
        <ele>165</ele>
        <time>2021-07-22T11:07:40Z</time>
      </trkpt>
      <trkpt lat="44.82906" lon="4.67615">
        <ele>165.48</ele>
        <time>2021-07-22T11:08:00Z</time>
      </trkpt>
      <trkpt lat="44.82907" lon="4.67615">
        <ele>166.45</ele>
        <time>2021-07-22T11:08:21Z</time>
      </trkpt>
      <trkpt lat="44.82904" lon="4.67615">
        <ele>166.93</ele>
        <time>2021-07-22T11:08:51Z</time>
      </trkpt>
      <trkpt lat="44.82903" lon="4.67616">
        <ele>166.45</ele>
        <time>2021-07-22T11:09:22Z</time>
      </trkpt>
      <trkpt lat="44.82902" lon="4.67619">
        <ele>164.52</ele>
        <time>2021-07-22T11:09:43Z</time>
      </trkpt>
      <trkpt lat="44.82904" lon="4.67623">
        <ele>165.96</ele>
        <time>2021-07-22T11:10:08Z</time>
      </trkpt>
      <trkpt lat="44.82906" lon="4.67619">
        <ele>165</ele>
        <time>2021-07-22T11:10:32Z</time>
      </trkpt>
      <trkpt lat="44.82908" lon="4.67618">
        <ele>168.85</ele>
        <time>2021-07-22T11:11:04Z</time>
      </trkpt>
      <trkpt lat="44.82908" lon="4.67615">
        <ele>167.89</ele>
        <time>2021-07-22T11:11:36Z</time>
      </trkpt>
      <trkpt lat="44.82908" lon="4.67617">
        <ele>169.33</ele>
        <time>2021-07-22T11:12:03Z</time>
      </trkpt>
      <trkpt lat="44.82909" lon="4.67617">
        <ele>168.37</ele>
        <time>2021-07-22T11:12:25Z</time>
      </trkpt>
      <trkpt lat="44.82909" lon="4.67619">
        <ele>165.96</ele>
        <time>2021-07-22T11:12:53Z</time>
      </trkpt>
      <trkpt lat="44.82907" lon="4.67617">
        <ele>165.96</ele>
        <time>2021-07-22T11:13:18Z</time>
      </trkpt>
      <trkpt lat="44.82909" lon="4.67617">
        <ele>165.96</ele>
        <time>2021-07-22T11:13:56Z</time>
      </trkpt>
      <trkpt lat="44.82906" lon="4.67615">
        <ele>166.45</ele>
        <time>2021-07-22T11:14:30Z</time>
      </trkpt>
      <trkpt lat="44.82906" lon="4.67614">
        <ele>166.93</ele>
        <time>2021-07-22T11:14:57Z</time>
      </trkpt>
      <trkpt lat="44.82904" lon="4.67615">
        <ele>166.93</ele>
        <time>2021-07-22T11:15:23Z</time>
      </trkpt>
      <trkpt lat="44.82904" lon="4.67611">
        <ele>168.85</ele>
        <time>2021-07-22T11:15:53Z</time>
      </trkpt>
      <trkpt lat="44.82902" lon="4.67616">
        <ele>167.89</ele>
        <time>2021-07-22T11:16:14Z</time>
      </trkpt>
      <trkpt lat="44.82903" lon="4.67613">
        <ele>166.45</ele>
        <time>2021-07-22T11:16:26Z</time>
      </trkpt>
      <trkpt lat="44.82908" lon="4.67617">
        <ele>170.29</ele>
        <time>2021-07-22T11:16:36Z</time>
      </trkpt>
      <trkpt lat="44.82911" lon="4.67626">
        <ele>179.9</ele>
        <time>2021-07-22T11:16:50Z</time>
      </trkpt>
      <trkpt lat="44.82911" lon="4.67627">
        <ele>190.48</ele>
        <time>2021-07-22T11:17:02Z</time>
      </trkpt>
      <trkpt lat="44.82899" lon="4.67635">
        <ele>191.44</ele>
        <time>2021-07-22T11:17:14Z</time>
      </trkpt>
      <trkpt lat="44.82882" lon="4.67639">
        <ele>187.11</ele>
        <time>2021-07-22T11:17:25Z</time>
      </trkpt>
      <trkpt lat="44.82874" lon="4.67638">
        <ele>184.23</ele>
        <time>2021-07-22T11:17:29Z</time>
      </trkpt>
      <trkpt lat="44.8284" lon="4.6765">
        <ele>177.98</ele>
        <time>2021-07-22T11:17:45Z</time>
      </trkpt>
      <trkpt lat="44.82842" lon="4.67657">
        <ele>171.25</ele>
        <time>2021-07-22T11:17:56Z</time>
      </trkpt>
      <trkpt lat="44.82844" lon="4.67655">
        <ele>176.06</ele>
        <time>2021-07-22T11:18:08Z</time>
      </trkpt>
      <trkpt lat="44.82841" lon="4.67657">
        <ele>180.87</ele>
        <time>2021-07-22T11:18:23Z</time>
      </trkpt>
      <trkpt lat="44.8283" lon="4.67662">
        <ele>181.83</ele>
        <time>2021-07-22T11:18:38Z</time>
      </trkpt>
      <trkpt lat="44.82798" lon="4.67681">
        <ele>182.31</ele>
        <time>2021-07-22T11:18:52Z</time>
      </trkpt>
      <trkpt lat="44.82771" lon="4.67687">
        <ele>164.04</ele>
        <time>2021-07-22T11:19:07Z</time>
      </trkpt>
      <trkpt lat="44.82757" lon="4.67693">
        <ele>159.72</ele>
        <time>2021-07-22T11:19:12Z</time>
      </trkpt>
      <trkpt lat="44.8275" lon="4.67701">
        <ele>156.83</ele>
        <time>2021-07-22T11:19:22Z</time>
      </trkpt>
      <trkpt lat="44.82747" lon="4.67703">
        <ele>154.91</ele>
        <time>2021-07-22T11:19:32Z</time>
      </trkpt>
      <trkpt lat="44.82742" lon="4.67705">
        <ele>154.91</ele>
        <time>2021-07-22T11:19:37Z</time>
      </trkpt>
      <trkpt lat="44.82729" lon="4.67709">
        <ele>153.95</ele>
        <time>2021-07-22T11:19:49Z</time>
      </trkpt>
      <trkpt lat="44.82727" lon="4.67711">
        <ele>153.47</ele>
        <time>2021-07-22T11:19:52Z</time>
      </trkpt>
      <trkpt lat="44.82715" lon="4.67716">
        <ele>153.47</ele>
        <time>2021-07-22T11:20:05Z</time>
      </trkpt>
      <trkpt lat="44.82702" lon="4.67724">
        <ele>152.99</ele>
        <time>2021-07-22T11:20:19Z</time>
      </trkpt>
      <trkpt lat="44.82699" lon="4.67726">
        <ele>153.47</ele>
        <time>2021-07-22T11:20:22Z</time>
      </trkpt>
      <trkpt lat="44.82697" lon="4.67729">
        <ele>153.47</ele>
        <time>2021-07-22T11:20:26Z</time>
      </trkpt>
      <trkpt lat="44.82685" lon="4.67735">
        <ele>152.99</ele>
        <time>2021-07-22T11:20:38Z</time>
      </trkpt>
      <trkpt lat="44.82682" lon="4.67737">
        <ele>152.99</ele>
        <time>2021-07-22T11:20:41Z</time>
      </trkpt>
      <trkpt lat="44.82668" lon="4.67743">
        <ele>154.43</ele>
        <time>2021-07-22T11:20:55Z</time>
      </trkpt>
      <trkpt lat="44.82655" lon="4.67751">
        <ele>154.43</ele>
        <time>2021-07-22T11:21:08Z</time>
      </trkpt>
      <trkpt lat="44.82642" lon="4.67759">
        <ele>152.99</ele>
        <time>2021-07-22T11:21:22Z</time>
      </trkpt>
      <trkpt lat="44.82639" lon="4.6776">
        <ele>152.51</ele>
        <time>2021-07-22T11:21:25Z</time>
      </trkpt>
      <trkpt lat="44.82632" lon="4.67781">
        <ele>152.99</ele>
        <time>2021-07-22T11:21:40Z</time>
      </trkpt>
      <trkpt lat="44.8263" lon="4.67792">
        <ele>153.95</ele>
        <time>2021-07-22T11:21:47Z</time>
      </trkpt>
      <trkpt lat="44.82629" lon="4.67797">
        <ele>154.43</ele>
        <time>2021-07-22T11:21:50Z</time>
      </trkpt>
      <trkpt lat="44.82629" lon="4.6781">
        <ele>157.31</ele>
        <time>2021-07-22T11:22:03Z</time>
      </trkpt>
      <trkpt lat="44.82626" lon="4.67832">
        <ele>157.31</ele>
        <time>2021-07-22T11:22:17Z</time>
      </trkpt>
      <trkpt lat="44.82627" lon="4.67846">
        <ele>160.2</ele>
        <time>2021-07-22T11:22:31Z</time>
      </trkpt>
      <trkpt lat="44.82625" lon="4.6786">
        <ele>163.08</ele>
        <time>2021-07-22T11:22:43Z</time>
      </trkpt>
      <trkpt lat="44.82622" lon="4.6788">
        <ele>165.96</ele>
        <time>2021-07-22T11:22:58Z</time>
      </trkpt>
      <trkpt lat="44.82623" lon="4.67903">
        <ele>166.45</ele>
        <time>2021-07-22T11:23:14Z</time>
      </trkpt>
      <trkpt lat="44.82628" lon="4.67922">
        <ele>163.56</ele>
        <time>2021-07-22T11:23:27Z</time>
      </trkpt>
      <trkpt lat="44.82637" lon="4.67939">
        <ele>162.6</ele>
        <time>2021-07-22T11:23:42Z</time>
      </trkpt>
      <trkpt lat="44.82642" lon="4.67946">
        <ele>161.64</ele>
        <time>2021-07-22T11:23:48Z</time>
      </trkpt>
      <trkpt lat="44.82636" lon="4.67973">
        <ele>162.6</ele>
        <time>2021-07-22T11:24:03Z</time>
      </trkpt>
      <trkpt lat="44.82634" lon="4.67998">
        <ele>164.52</ele>
        <time>2021-07-22T11:24:20Z</time>
      </trkpt>
      <trkpt lat="44.82639" lon="4.68004">
        <ele>159.72</ele>
        <time>2021-07-22T11:24:39Z</time>
      </trkpt>
      <trkpt lat="44.82639" lon="4.68003">
        <ele>159.72</ele>
        <time>2021-07-22T11:24:56Z</time>
      </trkpt>
      <trkpt lat="44.8264" lon="4.68005">
        <ele>157.79</ele>
        <time>2021-07-22T11:25:20Z</time>
      </trkpt>
      <trkpt lat="44.8264" lon="4.68006">
        <ele>157.31</ele>
        <time>2021-07-22T11:25:39Z</time>
      </trkpt>
      <trkpt lat="44.82639" lon="4.68005">
        <ele>157.31</ele>
        <time>2021-07-22T11:26:00Z</time>
      </trkpt>
      <trkpt lat="44.8264" lon="4.68007">
        <ele>156.83</ele>
        <time>2021-07-22T11:26:14Z</time>
      </trkpt>
      <trkpt lat="44.82638" lon="4.6801">
        <ele>158.75</ele>
        <time>2021-07-22T11:26:34Z</time>
      </trkpt>
      <trkpt lat="44.8264" lon="4.68008">
        <ele>158.75</ele>
        <time>2021-07-22T11:26:45Z</time>
      </trkpt>
      <trkpt lat="44.8264" lon="4.68013">
        <ele>159.24</ele>
        <time>2021-07-22T11:27:01Z</time>
      </trkpt>
      <trkpt lat="44.82642" lon="4.68021">
        <ele>160.68</ele>
        <time>2021-07-22T11:27:15Z</time>
      </trkpt>
      <trkpt lat="44.82642" lon="4.68021">
        <ele>161.16</ele>
        <time>2021-07-22T11:27:16Z</time>
      </trkpt>
      <trkpt lat="44.82644" lon="4.68024">
        <ele>162.12</ele>
        <time>2021-07-22T11:27:19Z</time>
      </trkpt>
      <trkpt lat="44.82647" lon="4.68041">
        <ele>166.45</ele>
        <time>2021-07-22T11:27:31Z</time>
      </trkpt>
      <trkpt lat="44.82643" lon="4.68047">
        <ele>165.96</ele>
        <time>2021-07-22T11:27:37Z</time>
      </trkpt>
      <trkpt lat="44.82637" lon="4.68045">
        <ele>165.48</ele>
        <time>2021-07-22T11:27:42Z</time>
      </trkpt>
      <trkpt lat="44.8262" lon="4.68035">
        <ele>166.45</ele>
        <time>2021-07-22T11:27:54Z</time>
      </trkpt>
      <trkpt lat="44.82616" lon="4.68024">
        <ele>166.45</ele>
        <time>2021-07-22T11:28:05Z</time>
      </trkpt>
      <trkpt lat="44.82615" lon="4.68022">
        <ele>165</ele>
        <time>2021-07-22T11:28:22Z</time>
      </trkpt>
      <trkpt lat="44.82616" lon="4.6802">
        <ele>161.16</ele>
        <time>2021-07-22T11:28:51Z</time>
      </trkpt>
      <trkpt lat="44.82617" lon="4.6802">
        <ele>159.72</ele>
        <time>2021-07-22T11:29:18Z</time>
      </trkpt>
      <trkpt lat="44.82617" lon="4.68019">
        <ele>159.24</ele>
        <time>2021-07-22T11:29:45Z</time>
      </trkpt>
      <trkpt lat="44.82615" lon="4.68018">
        <ele>160.68</ele>
        <time>2021-07-22T11:30:10Z</time>
      </trkpt>
      <trkpt lat="44.82616" lon="4.68017">
        <ele>160.2</ele>
        <time>2021-07-22T11:30:31Z</time>
      </trkpt>
      <trkpt lat="44.82618" lon="4.68017">
        <ele>158.27</ele>
        <time>2021-07-22T11:30:59Z</time>
      </trkpt>
      <trkpt lat="44.82619" lon="4.68017">
        <ele>157.31</ele>
        <time>2021-07-22T11:31:23Z</time>
      </trkpt>
      <trkpt lat="44.82617" lon="4.68021">
        <ele>158.75</ele>
        <time>2021-07-22T11:31:56Z</time>
      </trkpt>
      <trkpt lat="44.82616" lon="4.68023">
        <ele>161.64</ele>
        <time>2021-07-22T11:32:29Z</time>
      </trkpt>
      <trkpt lat="44.82614" lon="4.68022">
        <ele>163.08</ele>
        <time>2021-07-22T11:32:51Z</time>
      </trkpt>
      <trkpt lat="44.82615" lon="4.68019">
        <ele>159.72</ele>
        <time>2021-07-22T11:33:15Z</time>
      </trkpt>
      <trkpt lat="44.82615" lon="4.6802">
        <ele>160.2</ele>
        <time>2021-07-22T11:33:39Z</time>
      </trkpt>
    </trkseg>
  </trk>
</gpx>